Provisional Data: Hammer Creek near Route 322


Please select a monitoring station.
Please select start date.
Please select start date.

Toggle Unit: C/F Toggle Unit: C/F
Sample Time Temperature (C) Temperature (F) Specific Conductivity (mS/cm) pH   Turbidity (NTU+) DO (mg/L)
12/4/2020 12:00:00 AM 7.3 45.14 0.518 8.18 219.08 11.49
12/4/2020 12:15:00 AM 7.28 45.104 0.518 8.18 219.06 11.51
12/4/2020 12:30:00 AM 7.26 45.068 0.518 8.17 218.64 11.5
12/4/2020 12:45:00 AM 7.23 45.014 0.518 8.17 219.56 11.49
12/4/2020 1:00:00 AM 7.21 44.978 0.518 8.17 219.51 11.47
12/4/2020 1:15:00 AM 7.18 44.924 0.518 8.17 219.41 11.49
12/4/2020 1:30:00 AM 7.16 44.888 0.518 8.16 219.72 11.5
12/4/2020 1:45:00 AM 7.15 44.87 0.518 8.17 222.24 11.52
12/4/2020 2:00:00 AM 7.14 44.852 0.518 8.17 219.84 11.52
12/4/2020 2:15:00 AM 7.13 44.834 0.518 8.17 220.1 11.53
12/4/2020 2:30:00 AM 7.12 44.816 0.518 8.17 217.61 11.54
12/4/2020 2:45:00 AM 7.11 44.798 0.518 8.17 218.43 11.55
12/4/2020 3:00:00 AM 7.1 44.78 0.518 8.16 218.5 11.55
12/4/2020 3:15:00 AM 7.1 44.78 0.518 8.16 218.73 11.55
12/4/2020 3:30:00 AM 7.1 44.78 0.518 8.16 218.85 11.54
12/4/2020 3:45:00 AM 7.1 44.78 0.518 8.17 218.71 11.55
12/4/2020 4:00:00 AM 7.09 44.762 0.518 8.16 218.81 11.56
12/4/2020 4:15:00 AM 7.07 44.726 0.518 8.16 218.9 11.55
12/4/2020 4:30:00 AM 7.06 44.708 0.518 8.17 219.2 11.53
12/4/2020 4:45:00 AM 7.06 44.708 0.518 8.16 219.51 11.54
12/4/2020 5:00:00 AM 7.06 44.708 0.518 8.16 219.15 11.48
12/4/2020 5:15:00 AM 7.05 44.69 0.518 8.16 219.15 11.49
12/4/2020 5:30:00 AM 7.05 44.69 0.518 8.16 219.91 11.52
12/4/2020 5:45:00 AM 7.05 44.69 0.518 8.16 219.88 11.53
12/4/2020 6:00:00 AM 7.06 44.708 0.518 8.15 219.92 11.43
12/4/2020 6:15:00 AM 7.05 44.69 0.518 8.16 220.34 11.48
12/4/2020 6:30:00 AM 7.05 44.69 0.518 8.15 220.44 11.5
12/4/2020 6:45:00 AM 7.06 44.708 0.518 8.15 220.72 11.49
12/4/2020 7:00:00 AM 7.06 44.708 0.518 8.15 213.78 11.5
12/4/2020 7:15:00 AM 7.06 44.708 0.518 8.15 214.12 11.48
12/4/2020 7:30:00 AM 7.06 44.708 0.519 8.16 144.73 11.27
12/4/2020 7:45:00 AM 7.06 44.708 0.52 8.19 136.19 11.42
12/4/2020 8:00:00 AM 7.09 44.762 0.519 8.21 115.26 11.56
12/4/2020 8:15:00 AM 7.12 44.816 0.519 8.22 154.66 11.6
12/4/2020 8:30:00 AM 7.15 44.87 0.519 8.22 108.02 11.42
12/4/2020 8:45:00 AM 7.18 44.924 0.519 8.23 33.97 11.65
12/4/2020 9:00:00 AM 7.23 45.014 0.519 8.23 33.8 11.71
12/4/2020 9:15:00 AM 7.28 45.104 0.519 8.24 33.74 11.67
12/4/2020 9:30:00 AM 7.32 45.176 0.519 8.25 33.69 11.64
12/4/2020 9:45:00 AM 7.37 45.266 0.518 8.26 33.35 11.58
12/4/2020 10:00:00 AM 7.41 45.338 0.518 8.26 33.31 11.61
12/4/2020 10:15:00 AM 7.47 45.446 0.518 8.27 33.37 11.68
12/4/2020 10:30:00 AM 7.52 45.536 0.518 8.28 33.24 11.66
12/4/2020 10:45:00 AM 7.57 45.626 0.517 8.28 33.17 11.76
12/4/2020 11:00:00 AM 7.62 45.716 0.517 8.29 33.16 11.8
12/4/2020 11:15:00 AM 7.66 45.788 0.518 8.3 33.19 11.89
12/4/2020 11:30:00 AM 7.71 45.878 0.518 8.3 33.19 11.89
12/4/2020 11:45:00 AM 7.76 45.968 0.518 8.31 33.19 11.93
12/4/2020 12:00:00 PM 7.82 46.076 0.517 8.32 33.24 12.01
12/4/2020 12:15:00 PM 7.87 46.166 0.517 8.32 33.28 11.96
12/4/2020 12:30:00 PM 7.92 46.256 0.517 8.33 33.16 12.01
12/4/2020 12:45:00 PM 7.97 46.346 0.517 8.34 33.25 12.05
12/4/2020 1:00:00 PM 8 46.4 0.516 8.34 33.3 12.06
12/4/2020 1:15:00 PM 8.03 46.454 0.517 8.34 33.5 12.02
12/4/2020 1:30:00 PM 8.06 46.508 0.517 8.34 33.37 11.97
12/4/2020 1:45:00 PM 8.09 46.562 0.516 8.34 33.39 11.92
12/4/2020 2:00:00 PM 8.11 46.598 0.515 8.34 33.4 11.9
12/4/2020 2:15:00 PM 8.13 46.634 0.515 8.35 33.37 11.85
12/4/2020 2:30:00 PM 8.15 46.67 0.514 8.35 33.4 11.82
12/4/2020 2:45:00 PM 8.16 46.688 0.514 8.35 33.27 11.76
12/4/2020 3:00:00 PM 8.18 46.724 0.514 8.35 33.81 11.81
12/4/2020 3:15:00 PM 8.19 46.742 0.513 8.35 33.62 11.74
12/4/2020 3:30:00 PM 8.22 46.796 0.512 8.34 33.65 11.76
12/4/2020 3:45:00 PM 8.24 46.832 0.512 8.34 33.71 11.7
12/4/2020 4:00:00 PM 8.25 46.85 0.512 8.33 38.95 11.7
12/4/2020 4:15:00 PM 8.26 46.868 0.511 8.33 38.93 11.43
12/4/2020 4:30:00 PM 8.26 46.868 0.51 8.33 38.67 11.4
12/4/2020 4:45:00 PM 8.27 46.886 0.509 8.31 38.32 11.42
12/4/2020 5:00:00 PM 8.27 46.886 0.509 8.31 45.26 11.34
12/4/2020 5:15:00 PM 8.27 46.886 0.508 8.3 44 11.31
12/4/2020 5:30:00 PM 8.27 46.886 0.507 8.3 44.96 11.32
12/4/2020 5:45:00 PM 8.27 46.886 0.505 8.28 44.5 11.35
12/4/2020 6:00:00 PM 8.27 46.886 0.503 8.28 44.38 11.34
12/4/2020 6:15:00 PM 8.27 46.886 0.502 8.27 43.89 11.28
12/4/2020 6:30:00 PM 8.27 46.886 0.501 8.27 43.8 11.11
12/4/2020 6:45:00 PM 8.27 46.886 0.5 8.26 43.75 11.12
12/4/2020 7:00:00 PM 8.27 46.886 0.5 8.26 44.05 11.19
12/4/2020 7:15:00 PM 8.28 46.904 0.499 8.25 43.87 11.17
12/4/2020 7:30:00 PM 8.28 46.904 0.497 8.25 48.25 11.17
12/4/2020 7:45:00 PM 8.28 46.904 0.495 8.23 47.32 11.13
12/4/2020 8:00:00 PM 8.27 46.886 0.494 8.23 46.91 11.16
12/4/2020 8:15:00 PM 8.27 46.886 0.492 8.23 46.49 11.17
12/4/2020 8:30:00 PM 8.28 46.904 0.491 8.22 46.76 11.19
12/4/2020 8:45:00 PM 8.28 46.904 0.49 8.22 46.77 11.12
12/4/2020 9:00:00 PM 8.28 46.904 0.489 8.21 47.52 11.19
12/4/2020 9:15:00 PM 8.28 46.904 0.487 8.2 47.7 11.2
12/4/2020 9:30:00 PM 8.28 46.904 0.486 8.2 47.99 11.17
12/4/2020 9:45:00 PM 8.28 46.904 0.484 8.19 47.49 11.17
12/4/2020 10:00:00 PM 8.28 46.904 0.483 8.19 47.32 11.16
12/4/2020 10:15:00 PM 8.28 46.904 0.482 8.18 47.28 11.18
12/4/2020 10:30:00 PM 8.28 46.904 0.48 8.18 46.86 11.17
12/4/2020 10:45:00 PM 8.27 46.886 0.478 8.17 46.82 11.17
12/4/2020 11:00:00 PM 8.27 46.886 0.476 8.16 45.3 11.17
12/4/2020 11:15:00 PM 8.26 46.868 0.473 8.16 45.04 11.17
12/4/2020 11:30:00 PM 8.24 46.832 0.471 8.15 45.25 11.17
12/4/2020 11:45:00 PM 8.23 46.814 0.468 8.14 45.52 11.17
12/5/2020 12:00:00 AM 8.22 46.796 0.465 8.13 46.41 11.14
12/5/2020 12:15:00 AM 8.2 46.76 0.463 8.13 48.54 11.12
12/5/2020 12:30:00 AM 8.19 46.742 0.46 8.12 47.18 11.07
12/5/2020 12:45:00 AM 8.18 46.724 0.458 8.11 48.4 11.04
12/5/2020 1:00:00 AM 8.17 46.706 0.456 8.1 49.5 11.01
12/5/2020 1:15:00 AM 8.16 46.688 0.455 8.09 49.4 10.98
12/5/2020 1:30:00 AM 8.16 46.688 0.454 8.08 50.2 10.96
12/5/2020 1:45:00 AM 8.15 46.67 0.453 8.08 50.15 10.94
12/5/2020 2:00:00 AM 8.15 46.67 0.452 8.08 50.47 10.93
12/5/2020 2:15:00 AM 8.15 46.67 0.452 8.07 50.29 10.92
12/5/2020 2:30:00 AM 8.15 46.67 0.451 8.07 49.13 10.92
12/5/2020 2:45:00 AM 8.15 46.67 0.449 8.06 47.12 10.91
12/5/2020 3:00:00 AM 8.14 46.652 0.448 8.06 47.52 10.9
12/5/2020 3:15:00 AM 8.14 46.652 0.446 8.06 1832.94 10.89
12/5/2020 3:30:00 AM 8.14 46.652 0.444 8.06 46.72 10.84
12/5/2020 3:45:00 AM 8.13 46.634 0.441 8.06 46.76 10.84
12/5/2020 4:00:00 AM 8.13 46.634 0.439 8.05 47.04 10.83
12/5/2020 4:15:00 AM 8.12 46.616 0.436 8.05 46.74 10.85
12/5/2020 4:30:00 AM 8.11 46.598 0.433 8.05 47.14 10.86
12/5/2020 4:45:00 AM 8.1 46.58 0.431 8.04 47.21 10.88
12/5/2020 5:00:00 AM 8.09 46.562 0.428 8.04 47.27 10.87
12/5/2020 5:15:00 AM 8.09 46.562 0.427 8.03 47.12 10.87
12/5/2020 5:30:00 AM 8.08 46.544 0.425 8.03 46.74 10.88
12/5/2020 5:45:00 AM 8.07 46.526 0.424 8.03 46.59 10.9
12/5/2020 6:00:00 AM 8.06 46.508 0.422 8.03 46.21 10.92
12/5/2020 6:15:00 AM 8.05 46.49 0.421 8.03 45.91 10.9
12/5/2020 6:30:00 AM 8.03 46.454 0.419 8.03 45.77 10.93
12/5/2020 6:45:00 AM 8.01 46.418 0.417 8.02 45.52 10.93
12/5/2020 7:00:00 AM 7.99 46.382 0.415 8.02 46.04 10.93
12/5/2020 7:15:00 AM 7.97 46.346 0.413 8.02 45.64 10.95
12/5/2020 7:30:00 AM 7.95 46.31 0.412 8.02 25.66 10.96
12/5/2020 7:45:00 AM 7.93 46.274 0.41 8.02 24.82 10.94
12/5/2020 8:00:00 AM 7.92 46.256 0.408 8.02 24.63 10.96
12/5/2020 8:15:00 AM 7.89 46.202 0.406 8.03 24.49 10.99
12/5/2020 8:30:00 AM 7.87 46.166 0.405 8.03 24.1 11.04
12/5/2020 8:45:00 AM 7.88 46.184 0.403 8.03 23.49 11.1
12/5/2020 9:00:00 AM 7.88 46.184 0.402 8.03 137.53 11.2
12/5/2020 9:15:00 AM 7.89 46.202 0.402 8.04 21.65 11.3
12/5/2020 9:30:00 AM 7.91 46.238 0.401 8.05 21.42 11.35
12/5/2020 9:45:00 AM 7.95 46.31 0.401 8.06 20.97 11.39
12/5/2020 10:00:00 AM 7.98 46.364 0.401 8.07 20.5 11.43
12/5/2020 10:15:00 AM 8.01 46.418 0.402 8.08 19.93 11.52
12/5/2020 10:30:00 AM 8.09 46.562 0.402 8.09 19.83 11.58
12/5/2020 10:45:00 AM 8.14 46.652 0.403 8.1 19.53 11.71
12/5/2020 11:00:00 AM 8.24 46.832 0.404 8.12 19.58 11.81
12/5/2020 11:15:00 AM 8.28 46.904 0.405 8.13 19.35 11.93
12/5/2020 11:30:00 AM 8.29 46.922 0.405 8.14 19.01 11.99
12/5/2020 11:45:00 AM 8.3 46.94 0.406 8.15 19.15 12.04
12/5/2020 12:00:00 PM 8.28 46.904 0.407 8.16 19.14 12.05
12/5/2020 12:15:00 PM 8.3 46.94 0.408 8.17 18.82 12.09
12/5/2020 12:30:00 PM 8.31 46.958 0.409 8.18 18.65 12.14
12/5/2020 12:45:00 PM 8.32 46.976 0.411 8.19 18.57 12.15
12/5/2020 1:00:00 PM 8.34 47.012 0.412 8.2 18.64 12.19
12/5/2020 1:15:00 PM 8.35 47.03 0.412 8.21 18.47 12.22
12/5/2020 1:30:00 PM 8.35 47.03 0.413 8.22 18.4 12.24
12/5/2020 1:45:00 PM 8.33 46.994 0.414 8.22 18.38 12.22
12/5/2020 2:00:00 PM 8.34 47.012 0.415 8.23 18.33 12.24
12/5/2020 2:15:00 PM 8.34 47.012 0.415 8.24 18.19 12.27
12/5/2020 2:30:00 PM 8.32 46.976 0.416 8.25 18.13 12.26
12/5/2020 2:45:00 PM 8.31 46.958 0.417 8.25 18.31 12.26
12/5/2020 3:00:00 PM 8.32 46.976 0.418 8.26 18.34 12.26
12/5/2020 3:15:00 PM 8.29 46.922 0.419 8.26 18.11 12.23
12/5/2020 3:30:00 PM 8.28 46.904 0.42 8.26 18.1 12.19
12/5/2020 3:45:00 PM 8.24 46.832 0.422 8.26 17.87 12.1
12/5/2020 4:00:00 PM 8.2 46.76 0.423 8.26 18.19 12.02
12/5/2020 4:15:00 PM 8.16 46.688 0.425 8.25 18.06 11.96
12/5/2020 4:30:00 PM 8.12 46.616 0.426 8.25 17.93 11.89
12/5/2020 4:45:00 PM 8.09 46.562 0.428 8.24 18.18 11.81
12/5/2020 5:00:00 PM 8.03 46.454 0.43 8.23 17.39 11.75
12/5/2020 5:15:00 PM 7.99 46.382 0.432 8.22 17.37 11.66
12/5/2020 5:30:00 PM 7.95 46.31 0.434 8.22 17.58 11.62
12/5/2020 5:45:00 PM 7.92 46.256 0.436 8.21 17.47 11.59
12/5/2020 6:00:00 PM 7.88 46.184 0.438 8.2 17.81 11.55
12/5/2020 6:15:00 PM 7.85 46.13 0.439 8.2 17.61 11.52
12/5/2020 6:30:00 PM 7.81 46.058 0.442 8.19 17.35 11.49
12/5/2020 6:45:00 PM 7.77 45.986 0.443 8.19 17.67 11.47
12/5/2020 7:00:00 PM 7.74 45.932 0.445 8.18 17.42 11.45
12/5/2020 7:15:00 PM 7.69 45.842 0.446 8.18 17.21 11.44
12/5/2020 7:30:00 PM 7.67 45.806 0.447 8.18 17.41 11.42
12/5/2020 7:45:00 PM 7.62 45.716 0.449 8.17 17.35 11.42
12/5/2020 8:00:00 PM 7.6 45.68 0.45 8.17 17.43 11.42
12/5/2020 8:15:00 PM 7.56 45.608 0.452 8.17 17.59 11.41
12/5/2020 8:30:00 PM 7.53 45.554 0.453 8.17 17.44 11.4
12/5/2020 8:45:00 PM 7.49 45.482 0.455 8.17 17.3 11.41
12/5/2020 9:00:00 PM 7.44 45.392 0.456 8.16 17.64 11.4
12/5/2020 9:15:00 PM 7.39 45.302 0.457 8.16 17.3 11.43
12/5/2020 9:30:00 PM 7.36 45.248 0.459 8.16 17.34 11.43
12/5/2020 9:45:00 PM 7.31 45.158 0.46 8.16 17.78 11.42
12/5/2020 10:00:00 PM 7.26 45.068 0.461 8.16 17.59 11.43
12/5/2020 10:15:00 PM 7.2 44.96 0.462 8.15 17.49 11.44
12/5/2020 10:30:00 PM 7.14 44.852 0.464 8.15 17.78 11.46
12/5/2020 10:45:00 PM 7.1 44.78 0.465 8.15 18 11.45
12/5/2020 11:00:00 PM 7.07 44.726 0.466 8.15 18.01 11.43
12/5/2020 11:15:00 PM 7.03 44.654 0.467 8.15 17.82 11.46
12/5/2020 11:30:00 PM 7 44.6 0.468 8.15 17.78 11.46
12/5/2020 11:45:00 PM 6.97 44.546 0.469 8.15 17.67 11.47
12/6/2020 12:00:00 AM 6.95 44.51 0.469 8.15 18.03 11.47
12/6/2020 12:15:00 AM 6.92 44.456 0.47 8.15 17.38 11.47
12/6/2020 12:30:00 AM 6.89 44.402 0.471 8.15 17.5 11.47
12/6/2020 12:45:00 AM 6.86 44.348 0.472 8.15 17.55 11.48
12/6/2020 1:00:00 AM 6.84 44.312 0.473 8.15 17.46 11.5
12/6/2020 1:15:00 AM 6.82 44.276 0.474 8.15 17.53 11.5
12/6/2020 1:30:00 AM 6.79 44.222 0.474 8.15 17.41 11.51
12/6/2020 1:45:00 AM 6.77 44.186 0.475 8.15 17.79 11.53
12/6/2020 2:00:00 AM 6.74 44.132 0.476 8.15 17.84 11.53
12/6/2020 2:15:00 AM 6.72 44.096 0.477 8.15 17.84 11.54
12/6/2020 2:30:00 AM 6.68 44.024 0.477 8.15 17.76 11.52
12/6/2020 2:45:00 AM 6.63 43.934 0.478 8.15 17.8 11.57
12/6/2020 3:00:00 AM 6.58 43.844 0.479 8.15 17.65 11.6
12/6/2020 3:15:00 AM 6.51 43.718 0.479 8.16 17.77 11.61
12/6/2020 3:30:00 AM 6.46 43.628 0.48 8.16 17.8 11.59
12/6/2020 3:45:00 AM 6.41 43.538 0.481 8.16 17.72 11.59
12/6/2020 4:00:00 AM 6.36 43.448 0.481 8.16 17.64 11.62
12/6/2020 4:15:00 AM 6.3 43.34 0.482 8.16 17.6 11.6
12/6/2020 4:30:00 AM 6.25 43.25 0.482 8.16 17.44 11.64
12/6/2020 4:45:00 AM 6.2 43.16 0.483 8.16 17.54 11.68
12/6/2020 5:00:00 AM 6.14 43.052 0.484 8.16 17.58 11.69
12/6/2020 5:15:00 AM 6.09 42.962 0.484 8.16 17.4 11.73
12/6/2020 5:30:00 AM 6.04 42.872 0.485 8.17 17.49 11.74
12/6/2020 5:45:00 AM 5.99 42.782 0.485 8.17 17.57 11.75
12/6/2020 6:00:00 AM 5.95 42.71 0.486 8.17 17.32 11.72
12/6/2020 6:15:00 AM 5.91 42.638 0.487 8.17 17.5 11.74
12/6/2020 6:30:00 AM 5.87 42.566 0.487 8.17 17.43 11.8
12/6/2020 6:45:00 AM 5.83 42.494 0.488 8.17 17.96 11.82
12/6/2020 7:00:00 AM 5.79 42.422 0.488 8.17 17.94 11.85
12/6/2020 7:15:00 AM 5.75 42.35 0.489 8.17 16.28 11.85
12/6/2020 7:30:00 AM 5.72 42.296 0.489 8.18 16.34 11.86
12/6/2020 7:45:00 AM 5.69 42.242 0.489 8.18 16.42 11.91
12/6/2020 8:00:00 AM 5.66 42.188 0.49 8.18 16.15 11.93
12/6/2020 8:15:00 AM 5.64 42.152 0.49 8.19 16.12 11.98
12/6/2020 8:30:00 AM 5.62 42.116 0.491 8.19 16.08 12.04
12/6/2020 8:45:00 AM 5.64 42.152 0.491 8.19 15.97 12.07
12/6/2020 9:00:00 AM 5.62 42.116 0.491 8.2 15.89 12.16
12/6/2020 9:15:00 AM 5.6 42.08 0.491 8.21 15.7 12.21
12/6/2020 9:30:00 AM 5.58 42.044 0.491 8.22 15.64 12.27
12/6/2020 9:45:00 AM 5.58 42.044 0.491 8.23 15.77 12.36
12/6/2020 10:00:00 AM 5.57 42.026 0.491 8.23 15.73 12.41
12/6/2020 10:15:00 AM 5.6 42.08 0.492 8.24 15.79 12.5
12/6/2020 10:30:00 AM 5.65 42.17 0.492 8.25 15.51 12.6
12/6/2020 10:45:00 AM 5.72 42.296 0.492 8.26 15.49 12.71
12/6/2020 11:00:00 AM 5.74 42.332 0.492 8.27 15.62 12.79
12/6/2020 11:15:00 AM 5.82 42.476 0.492 8.28 15.44 12.85
12/6/2020 11:30:00 AM 5.89 42.602 0.492 8.29 15.46 12.89
12/6/2020 11:45:00 AM 5.95 42.71 0.492 8.3 15.56 12.94
12/6/2020 12:00:00 PM 6 42.8 0.492 8.31 15.49 12.97
12/6/2020 12:15:00 PM 6.08 42.944 0.492 8.32 15.36 13
12/6/2020 12:30:00 PM 6.18 43.124 0.492 8.33 15.32 13.01
12/6/2020 12:45:00 PM 6.18 43.124 0.492 8.34 15.56 13.02
12/6/2020 1:00:00 PM 6.22 43.196 0.492 8.34 15.35 13.05
12/6/2020 1:15:00 PM 6.29 43.322 0.492 8.35 15.32 13.04
12/6/2020 1:30:00 PM 6.42 43.556 0.492 8.36 15.4 13.08
12/6/2020 1:45:00 PM 6.51 43.718 0.492 8.37 15.41 13.12
12/6/2020 2:00:00 PM 6.64 43.952 0.492 8.39 15.38 13.12
12/6/2020 2:15:00 PM 6.77 44.186 0.492 8.4 15.4 13.09
12/6/2020 2:30:00 PM 6.88 44.384 0.492 8.41 15.06 13.03
12/6/2020 2:45:00 PM 7 44.6 0.492 8.42 15.33 13.07
12/6/2020 3:00:00 PM 7.08 44.744 0.492 8.43 15.19 13.04
12/6/2020 3:15:00 PM 7.12 44.816 0.491 8.44 15.34 12.98
12/6/2020 3:30:00 PM 7.11 44.798 0.492 8.44 15.33 12.94
12/6/2020 3:45:00 PM 7.11 44.798 0.491 8.44 15.43 12.81
12/6/2020 4:00:00 PM 7.09 44.762 0.491 8.44 15.4 12.69
12/6/2020 4:15:00 PM 7.05 44.69 0.491 8.43 15.71 12.59
12/6/2020 4:30:00 PM 7.01 44.618 0.492 8.43 15.61 12.51
12/6/2020 4:45:00 PM 6.97 44.546 0.492 8.42 15.3 12.39
12/6/2020 5:00:00 PM 6.93 44.474 0.493 8.41 15.44 12.28
12/6/2020 5:15:00 PM 6.9 44.42 0.494 8.4 15.9 12.2
12/6/2020 5:30:00 PM 6.87 44.366 0.494 8.39 16.04 12.11
12/6/2020 5:45:00 PM 6.84 44.312 0.494 8.38 16.06 12.06
12/6/2020 6:00:00 PM 6.81 44.258 0.495 8.37 15.94 11.98
12/6/2020 6:15:00 PM 6.78 44.204 0.495 8.36 15.75 11.94
12/6/2020 6:30:00 PM 6.74 44.132 0.496 8.35 16.15 11.93
12/6/2020 6:45:00 PM 6.7 44.06 0.496 8.34 15.93 11.88
12/6/2020 7:00:00 PM 6.65 43.97 0.497 8.33 15.97 11.85
12/6/2020 7:15:00 PM 6.6 43.88 0.497 8.32 16.11 11.81
12/6/2020 7:30:00 PM 6.55 43.79 0.498 8.32 16.02 11.81
12/6/2020 7:45:00 PM 6.5 43.7 0.498 8.31 16.08 11.83
12/6/2020 8:00:00 PM 6.43 43.574 0.498 8.3 16.05 11.84
12/6/2020 8:15:00 PM 6.37 43.466 0.499 8.3 16.26 11.83
12/6/2020 8:30:00 PM 6.31 43.358 0.499 8.29 16.16 11.82
12/6/2020 8:45:00 PM 6.24 43.232 0.499 8.29 16.23 11.84
12/6/2020 9:00:00 PM 6.17 43.106 0.5 8.28 16.59 11.86
12/6/2020 9:15:00 PM 6.1 42.98 0.5 8.28 16.73 11.9
12/6/2020 9:30:00 PM 6.03 42.854 0.501 8.27 16.82 11.92
12/6/2020 9:45:00 PM 5.96 42.728 0.501 8.27 16.79 11.9
12/6/2020 10:00:00 PM 5.9 42.62 0.501 8.26 17.03 11.92
12/6/2020 10:15:00 PM 5.82 42.476 0.502 8.26 16.34 11.95
12/6/2020 10:30:00 PM 5.74 42.332 0.502 8.25 16.23 11.95
12/6/2020 10:45:00 PM 5.67 42.206 0.503 8.25 16.62 11.98
12/6/2020 11:00:00 PM 5.61 42.098 0.503 8.25 16.67 11.97
12/6/2020 11:15:00 PM 5.54 41.972 0.503 8.24 16.63 12.01
12/6/2020 11:30:00 PM 5.47 41.846 0.503 8.24 16.92 12.02
12/6/2020 11:45:00 PM 5.41 41.738 0.504 8.23 16.59 12.03
12/7/2020 12:00:00 AM 5.35 41.63 0.504 8.23 17.05 12.07
12/7/2020 12:15:00 AM 5.29 41.522 0.504 8.23 16.87 12.1
12/7/2020 12:30:00 AM 5.23 41.414 0.504 8.23 16.66 12.1
12/7/2020 12:45:00 AM 5.18 41.324 0.505 8.23 17.36 12.15
12/7/2020 1:00:00 AM 5.12 41.216 0.505 8.22 17.65 12.14
12/7/2020 1:15:00 AM 5.07 41.126 0.505 8.23 17.17 12.15
12/7/2020 1:30:00 AM 5.02 41.036 0.505 8.22 16.86 12.18
12/7/2020 1:45:00 AM 4.97 40.946 0.505 8.22 16.96 12.22
12/7/2020 2:00:00 AM 4.93 40.874 0.505 8.22 16.95 12.22
12/7/2020 2:15:00 AM 4.88 40.784 0.505 8.22 16.66 12.24
12/7/2020 2:30:00 AM 4.84 40.712 0.506 8.22 17 12.27
12/7/2020 2:45:00 AM 4.79 40.622 0.506 8.22 16.75 12.29
12/7/2020 3:00:00 AM 4.75 40.55 0.506 8.22 16.59 12.31
12/7/2020 3:15:00 AM 4.7 40.46 0.506 8.22 16.78 12.33
12/7/2020 3:30:00 AM 4.66 40.388 0.506 8.22 16.75 12.34
12/7/2020 3:45:00 AM 4.62 40.316 0.506 8.22 16.68 12.36
12/7/2020 4:00:00 AM 4.58 40.244 0.506 8.22 16.78 12.37
12/7/2020 4:15:00 AM 4.53 40.154 0.506 8.22 16.77 12.38
12/7/2020 4:30:00 AM 4.49 40.082 0.506 8.22 16.8 12.38
12/7/2020 4:45:00 AM 4.45 40.01 0.506 8.22 16.76 12.39
12/7/2020 5:00:00 AM 4.4 39.92 0.507 8.22 16.99 12.4
12/7/2020 5:15:00 AM 4.36 39.848 0.507 8.22 17.36 12.42
12/7/2020 5:30:00 AM 4.32 39.776 0.507 8.22 17.09 12.44
12/7/2020 5:45:00 AM 4.29 39.722 0.507 8.22 16.95 12.44
12/7/2020 6:00:00 AM 4.27 39.686 0.507 8.22 16.76 12.46
12/7/2020 6:15:00 AM 4.24 39.632 0.508 8.22 16.75 12.44
12/7/2020 6:30:00 AM 4.22 39.596 0.508 8.22 16.89 12.47
12/7/2020 6:45:00 AM 4.19 39.542 0.508 8.22 16.82 12.5
12/7/2020 7:00:00 AM 4.17 39.506 0.508 8.22 16.53 12.52
12/7/2020 7:15:00 AM 4.16 39.488 0.508 8.22 16.65 12.54
12/7/2020 7:30:00 AM 4.16 39.488 0.509 8.22 16.3 12.55
12/7/2020 7:45:00 AM 4.16 39.488 0.509 8.22 16.44 12.57
12/7/2020 8:00:00 AM 4.15 39.47 0.509 8.23 16.15 12.59
12/7/2020 8:15:00 AM 4.15 39.47 0.509 8.23 16.16 12.63
12/7/2020 8:30:00 AM 4.16 39.488 0.509 8.23 16.14 12.67
12/7/2020 8:45:00 AM 4.19 39.542 0.508 8.24 16.11 12.76
12/7/2020 9:00:00 AM 4.21 39.578 0.508 8.24 16.11 12.82
12/7/2020 9:15:00 AM 4.23 39.614 0.508 8.25 16.16 12.87
12/7/2020 9:30:00 AM 4.23 39.614 0.508 8.26 16.04 12.89
12/7/2020 9:45:00 AM 4.25 39.65 0.508 8.26 15.97 12.93
12/7/2020 10:00:00 AM 4.3 39.74 0.508 8.27 16.02 12.99
12/7/2020 10:15:00 AM 4.36 39.848 0.508 8.28 16.02 13.06
12/7/2020 10:30:00 AM 4.45 40.01 0.508 8.29 16 13.13
12/7/2020 10:45:00 AM 4.59 40.262 0.507 8.3 16.12 13.22
12/7/2020 11:00:00 AM 4.75 40.55 0.507 8.32 16 13.3
12/7/2020 11:15:00 AM 4.88 40.784 0.506 8.33 16.08 13.37
12/7/2020 11:30:00 AM 4.94 40.892 0.506 8.34 16.11 13.33
12/7/2020 11:45:00 AM 5.01 41.018 0.506 8.35 16 13.38
12/7/2020 12:00:00 PM 5.09 41.162 0.506 8.36 15.71 13.41
12/7/2020 12:15:00 PM 5.18 41.324 0.505 8.37 15.91 13.44
12/7/2020 12:30:00 PM 5.28 41.504 0.505 8.38 15.91 13.46
12/7/2020 12:45:00 PM 5.37 41.666 0.505 8.39 15.89 13.46
12/7/2020 1:00:00 PM 5.46 41.828 0.505 8.39 15.76 13.49
12/7/2020 1:15:00 PM 5.57 42.026 0.504 8.4 15.88 13.47
12/7/2020 1:30:00 PM 5.64 42.152 0.504 8.4 15.84 13.42
12/7/2020 1:45:00 PM 5.71 42.278 0.504 8.41 15.87 13.36
12/7/2020 2:00:00 PM 5.77 42.386 0.504 8.42 15.77 13.4
12/7/2020 2:15:00 PM 5.84 42.512 0.503 8.42 15.82 13.35
12/7/2020 2:30:00 PM 5.94 42.692 0.503 8.43 15.94 13.28
12/7/2020 2:45:00 PM 6 42.8 0.503 8.44 16.07 13.26
12/7/2020 3:00:00 PM 6.05 42.89 0.502 8.44 15.97 13.21
12/7/2020 3:15:00 PM 6.08 42.944 0.502 8.45 15.99 13.13
12/7/2020 3:30:00 PM 6.1 42.98 0.502 8.45 16.02 13.07
12/7/2020 3:45:00 PM 6.1 42.98 0.502 8.44 16.32 12.99
12/7/2020 4:00:00 PM 6.08 42.944 0.502 8.44 15.96 12.92
12/7/2020 4:15:00 PM 6.04 42.872 0.502 8.44 16.07 12.84
12/7/2020 4:30:00 PM 6.02 42.836 0.502 8.44 16.07 12.73
12/7/2020 4:45:00 PM 6 42.8 0.502 8.43 16.06 12.62
12/7/2020 5:00:00 PM 5.97 42.746 0.502 8.42 15.79 12.54
12/7/2020 5:15:00 PM 5.95 42.71 0.502 8.41 15.91 12.45
12/7/2020 5:30:00 PM 5.94 42.692 0.502 8.4 15.9 12.36
12/7/2020 5:45:00 PM 5.93 42.674 0.503 8.39 15.76 12.29
12/7/2020 6:00:00 PM 5.93 42.674 0.503 8.38 15.83 12.22
12/7/2020 6:15:00 PM 5.93 42.674 0.503 8.37 15.88 12.14
12/7/2020 6:30:00 PM 5.93 42.674 0.503 8.37 15.88 12.11
12/7/2020 6:45:00 PM 5.93 42.674 0.503 8.36 15.88 12.08
12/7/2020 7:00:00 PM 5.91 42.638 0.504 8.35 15.87 12.02
12/7/2020 7:15:00 PM 5.9 42.62 0.504 8.35 15.95 12.02
12/7/2020 7:30:00 PM 5.87 42.566 0.504 8.34 15.86 11.98
12/7/2020 7:45:00 PM 5.84 42.512 0.504 8.34 16.06 11.96
12/7/2020 8:00:00 PM 5.81 42.458 0.505 8.33 16.36 11.97
12/7/2020 8:15:00 PM 5.77 42.386 0.505 8.32 16.32 11.95
12/7/2020 8:30:00 PM 5.71 42.278 0.506 8.32 16.09 11.89
12/7/2020 8:45:00 PM 5.66 42.188 0.506 8.31 16.37 11.92
12/7/2020 9:00:00 PM 5.61 42.098 0.506 8.31 16.31 11.93
12/7/2020 9:15:00 PM 5.54 41.972 0.507 8.3 16.47 11.97
12/7/2020 9:30:00 PM 5.48 41.864 0.507 8.3 16.31 12.02
12/7/2020 9:45:00 PM 5.42 41.756 0.508 8.29 16.29 12.01
12/7/2020 10:00:00 PM 5.35 41.63 0.508 8.28 16.33 12.04
12/7/2020 10:15:00 PM 5.28 41.504 0.508 8.28 16.5 12.04
12/7/2020 10:30:00 PM 5.2 41.36 0.508 8.27 16.36 12.06
12/7/2020 10:45:00 PM 5.12 41.216 0.509 8.27 16.49 12.06
12/7/2020 11:00:00 PM 5.05 41.09 0.509 8.26 16.48 12.08
12/7/2020 11:15:00 PM 4.98 40.964 0.509 8.26 16.4 12.11
12/7/2020 11:30:00 PM 4.9 40.82 0.51 8.25 16.58 12.14
12/7/2020 11:45:00 PM 4.84 40.712 0.51 8.25 16.59 12.15
12/8/2020 12:00:00 AM 4.78 40.604 0.51 8.25 16.78 12.18
12/8/2020 12:15:00 AM 4.72 40.496 0.51 8.24 16.92 12.23
12/8/2020 12:30:00 AM 4.67 40.406 0.51 8.24 16.86 12.22
12/8/2020 12:45:00 AM 4.62 40.316 0.51 8.24 16.53 12.27
12/8/2020 1:00:00 AM 4.57 40.226 0.51 8.24 16.72 12.28
12/8/2020 1:15:00 AM 4.53 40.154 0.511 8.24 16.93 12.28
12/8/2020 1:30:00 AM 4.49 40.082 0.511 8.23 16.64 12.29
12/8/2020 1:45:00 AM 4.45 40.01 0.511 8.23 16.66 12.31
12/8/2020 2:00:00 AM 4.42 39.956 0.511 8.23 16.69 12.3
12/8/2020 2:15:00 AM 4.42 39.956 0.511 8.23 16.68 12.34
12/8/2020 2:30:00 AM 4.4 39.92 0.51 8.23 17.04 12.34
12/8/2020 2:45:00 AM 4.38 39.884 0.511 8.23 16.65 12.35
12/8/2020 3:00:00 AM 4.35 39.83 0.511 8.23 16.8 12.37
12/8/2020 3:15:00 AM 4.34 39.812 0.511 8.23 16.64 12.4
12/8/2020 3:30:00 AM 4.34 39.812 0.511 8.23 16.64 12.38
12/8/2020 3:45:00 AM 4.36 39.848 0.511 8.23 16.84 12.38
12/8/2020 4:00:00 AM 4.39 39.902 0.511 8.23 16.7 12.37
12/8/2020 4:15:00 AM 4.38 39.884 0.511 8.23 16.49 12.35
12/8/2020 4:30:00 AM 4.39 39.902 0.511 8.23 16.68 12.39
12/8/2020 4:45:00 AM 4.4 39.92 0.511 8.23 16.55 12.39
12/8/2020 5:00:00 AM 4.42 39.956 0.511 8.23 16.79 12.39
12/8/2020 5:15:00 AM 4.43 39.974 0.51 8.23 16.73 12.38
12/8/2020 5:30:00 AM 4.41 39.938 0.51 8.23 16.79 12.36
12/8/2020 5:45:00 AM 4.41 39.938 0.511 8.23 16.63 12.39
12/8/2020 6:00:00 AM 4.42 39.956 0.511 8.23 16.59 12.37
12/8/2020 6:15:00 AM 4.41 39.938 0.511 8.23 16.56 12.4
12/8/2020 6:30:00 AM 4.38 39.884 0.511 8.23 16.42 12.39
12/8/2020 6:45:00 AM 4.35 39.83 0.511 8.23 16.61 12.41
12/8/2020 7:00:00 AM 4.31 39.758 0.511 8.23 17.63 12.43
12/8/2020 7:15:00 AM 4.27 39.686 0.511 8.23 16.02 12.43
12/8/2020 7:30:00 AM 4.25 39.65 0.512 8.23 16.25 12.46
12/8/2020 7:45:00 AM 4.25 39.65 0.512 8.24 16.18 12.48
12/8/2020 8:00:00 AM 4.24 39.632 0.512 8.24 16.1 12.49
12/8/2020 8:15:00 AM 4.22 39.596 0.512 8.24 15.93 12.55
12/8/2020 8:30:00 AM 4.2 39.56 0.512 8.25 15.87 12.59
12/8/2020 8:45:00 AM 4.19 39.542 0.512 8.25 15.86 12.6
12/8/2020 9:00:00 AM 4.19 39.542 0.512 8.25 15.86 12.67
12/8/2020 9:15:00 AM 4.17 39.506 0.512 8.26 15.77 12.73
12/8/2020 9:30:00 AM 4.18 39.524 0.512 8.27 15.82 12.8
12/8/2020 9:45:00 AM 4.18 39.524 0.512 8.27 15.7 12.85
12/8/2020 10:00:00 AM 4.19 39.542 0.511 8.28 15.76 12.9
12/8/2020 10:15:00 AM 4.24 39.632 0.511 8.29 15.73 12.94
12/8/2020 10:30:00 AM 4.3 39.74 0.511 8.3 15.69 13.02
12/8/2020 10:45:00 AM 4.39 39.902 0.511 8.31 15.67 13.11
12/8/2020 11:00:00 AM 4.47 40.046 0.51 8.32 15.6 13.2
12/8/2020 11:15:00 AM 4.57 40.226 0.51 8.33 15.51 13.29
12/8/2020 11:30:00 AM 4.59 40.262 0.51 8.34 15.66 13.37
12/8/2020 11:45:00 AM 4.66 40.388 0.51 8.35 15.62 13.44
12/8/2020 12:00:00 PM 4.79 40.622 0.51 8.37 15.54 13.48
12/8/2020 12:15:00 PM 4.88 40.784 0.509 8.37 15.71 13.5
12/8/2020 12:30:00 PM 4.96 40.928 0.509 8.38 15.51 13.53
12/8/2020 12:45:00 PM 5.03 41.054 0.509 8.4 15.45 13.58
12/8/2020 1:00:00 PM 5.12 41.216 0.508 8.41 15.38 13.62
12/8/2020 1:15:00 PM 5.16 41.288 0.508 8.42 15.4 13.64
12/8/2020 1:30:00 PM 5.21 41.378 0.508 8.42 15.49 13.63
12/8/2020 1:45:00 PM 5.31 41.558 0.508 8.43 15.5 13.62
12/8/2020 2:00:00 PM 5.39 41.702 0.507 8.44 15.44 13.64
12/8/2020 2:15:00 PM 5.46 41.828 0.507 8.45 15.53 13.63
12/8/2020 2:30:00 PM 5.46 41.828 0.507 8.46 15.52 13.55
12/8/2020 2:45:00 PM 5.48 41.864 0.507 8.46 15.64 13.5
12/8/2020 3:00:00 PM 5.52 41.936 0.506 8.46 15.64 13.43
12/8/2020 3:15:00 PM 5.55 41.99 0.506 8.47 15.73 13.36
12/8/2020 3:30:00 PM 5.58 42.044 0.506 8.47 15.67 13.27
12/8/2020 3:45:00 PM 5.58 42.044 0.506 8.47 15.67 13.23
12/8/2020 4:00:00 PM 5.6 42.08 0.506 8.47 15.79 13.12
12/8/2020 4:15:00 PM 5.62 42.116 0.505 8.46 15.76 13
12/8/2020 4:30:00 PM 5.63 42.134 0.506 8.46 15.75 12.92
12/8/2020 4:45:00 PM 5.64 42.152 0.505 8.45 15.67 12.8
12/8/2020 5:00:00 PM 5.64 42.152 0.506 8.44 17.24 12.72
12/8/2020 5:15:00 PM 5.63 42.134 0.507 8.44 16.15 12.61
12/8/2020 5:30:00 PM 5.62 42.116 0.507 8.43 15.65 12.52
12/8/2020 5:45:00 PM 5.61 42.098 0.507 8.42 15.64 12.45
12/8/2020 6:00:00 PM 5.6 42.08 0.507 8.41 15.75 12.35
12/8/2020 6:15:00 PM 5.59 42.062 0.507 8.4 15.81 12.31
12/8/2020 6:30:00 PM 5.59 42.062 0.508 8.39 15.6 12.26
12/8/2020 6:45:00 PM 5.59 42.062 0.508 8.39 15.74 12.25
12/8/2020 7:00:00 PM 5.59 42.062 0.508 8.38 15.79 12.2
12/8/2020 7:15:00 PM 5.58 42.044 0.508 8.37 15.67 12.16
12/8/2020 7:30:00 PM 5.57 42.026 0.509 8.37 15.76 12.15
12/8/2020 7:45:00 PM 5.55 41.99 0.509 8.36 15.72 12.08
12/8/2020 8:00:00 PM 5.53 41.954 0.509 8.35 15.82 12.11
12/8/2020 8:15:00 PM 5.51 41.918 0.51 8.35 15.87 12.09
12/8/2020 8:30:00 PM 5.49 41.882 0.51 8.34 15.96 12.08
12/8/2020 8:45:00 PM 5.47 41.846 0.51 8.33 16 12.09
12/8/2020 9:00:00 PM 5.46 41.828 0.51 8.33 15.87 12.08
12/8/2020 9:15:00 PM 5.45 41.81 0.511 8.32 15.76 12.1
12/8/2020 9:30:00 PM 5.43 41.774 0.511 8.32 16.21 12.09
12/8/2020 9:45:00 PM 5.42 41.756 0.511 8.31 16.07 12.06
12/8/2020 10:00:00 PM 5.4 41.72 0.512 8.31 15.85 12.06
12/8/2020 10:15:00 PM 5.37 41.666 0.512 8.3 16.04 12.07
12/8/2020 10:30:00 PM 5.33 41.594 0.513 8.3 16.02 12.08
12/8/2020 10:45:00 PM 5.28 41.504 0.513 8.29 16.39 12.1
12/8/2020 11:00:00 PM 5.24 41.432 0.513 8.29 16.29 12.11
12/8/2020 11:15:00 PM 5.21 41.378 0.513 8.28 15.91 12.09
12/8/2020 11:30:00 PM 5.16 41.288 0.514 8.27 15.92 12.08
12/8/2020 11:45:00 PM 5.11 41.198 0.514 8.27 15.92 12.12
12/9/2020 12:00:00 AM 5.06 41.108 0.514 8.27 16.3 12.13
12/9/2020 12:15:00 AM 5 41 0.514 8.26 15.98 12.15
12/9/2020 12:30:00 AM 4.95 40.91 0.514 8.26 16.02 12.18
12/9/2020 12:45:00 AM 4.91 40.838 0.515 8.26 16.12 12.18
12/9/2020 1:00:00 AM 4.86 40.748 0.515 8.26 16.32 12.19
12/9/2020 1:15:00 AM 4.81 40.658 0.515 8.25 16.35 12.23
12/9/2020 1:30:00 AM 4.76 40.568 0.515 8.25 16.27 12.22
12/9/2020 1:45:00 AM 4.73 40.514 0.514 8.25 16.56 12.3
12/9/2020 2:00:00 AM 4.71 40.478 0.515 8.25 16.37 12.31
12/9/2020 2:15:00 AM 4.7 40.46 0.515 8.25 16.53 12.31
12/9/2020 2:30:00 AM 4.69 40.442 0.515 8.25 16.48 12.27
12/9/2020 2:45:00 AM 4.69 40.442 0.515 8.25 16.42 12.31
12/9/2020 3:00:00 AM 4.67 40.406 0.515 8.25 16.36 12.29
12/9/2020 3:15:00 AM 4.65 40.37 0.514 8.25 16.49 12.3
12/9/2020 3:30:00 AM 4.64 40.352 0.514 8.25 16.47 12.28
12/9/2020 3:45:00 AM 4.63 40.334 0.514 8.24 16.46 12.32
12/9/2020 4:00:00 AM 4.62 40.316 0.514 8.24 16.63 12.25
12/9/2020 4:15:00 AM 4.6 40.28 0.514 8.24 16.57 12.27
12/9/2020 4:30:00 AM 4.59 40.262 0.514 8.24 16.67 12.29
12/9/2020 4:45:00 AM 4.57 40.226 0.514 8.24 16.41 12.34
12/9/2020 5:00:00 AM 4.56 40.208 0.514 8.24 16.45 12.34
12/9/2020 5:15:00 AM 4.54 40.172 0.514 8.24 16.53 12.3
12/9/2020 5:30:00 AM 4.54 40.172 0.514 8.24 16.37 12.32
12/9/2020 5:45:00 AM 4.55 40.19 0.514 8.24 16.68 12.34
12/9/2020 6:00:00 AM 4.55 40.19 0.514 8.24 16.89 12.35
12/9/2020 6:15:00 AM 4.56 40.208 0.514 8.24 16.81 12.33
12/9/2020 6:30:00 AM 4.58 40.244 0.514 8.24 16.28 12.34
12/9/2020 6:45:00 AM 4.58 40.244 0.515 8.24 16.29 12.34
12/9/2020 7:00:00 AM 4.59 40.262 0.515 8.24 16.11 12.4
12/9/2020 7:15:00 AM 4.59 40.262 0.515 8.24 16.04 12.4
12/9/2020 7:30:00 AM 4.6 40.28 0.515 8.24 16.22 12.38
12/9/2020 7:45:00 AM 4.6 40.28 0.515 8.24 16.14 12.39
12/9/2020 8:00:00 AM 4.62 40.316 0.515 8.25 15.98 12.42
12/9/2020 8:15:00 AM 4.64 40.352 0.515 8.25 16.14 12.41
12/9/2020 8:30:00 AM 4.66 40.388 0.515 8.25 15.95 12.48
12/9/2020 8:45:00 AM 4.69 40.442 0.515 8.26 15.89 12.5
12/9/2020 9:00:00 AM 4.72 40.496 0.515 8.26 15.85 12.52
12/9/2020 9:15:00 AM 4.76 40.568 0.515 8.27 15.83 12.59
12/9/2020 9:30:00 AM 4.79 40.622 0.515 8.27 15.87 12.65
12/9/2020 9:45:00 AM 4.83 40.694 0.515 8.28 15.71 12.69
12/9/2020 10:00:00 AM 4.86 40.748 0.514 8.29 15.75 12.73
12/9/2020 10:15:00 AM 4.89 40.802 0.514 8.29 15.7 12.72
12/9/2020 10:30:00 AM 4.82 40.676 0.514 8.3 15.85 12.72
12/9/2020 10:45:00 AM 4.76 40.568 0.513 8.3 15.75 12.74
12/9/2020 11:00:00 AM 4.74 40.532 0.513 8.31 15.74 12.8
12/9/2020 11:15:00 AM 4.77 40.586 0.513 8.31 15.55 12.83
12/9/2020 11:30:00 AM 4.83 40.694 0.513 8.32 15.76 12.9
12/9/2020 11:45:00 AM 4.88 40.784 0.512 8.33 15.81 12.96
12/9/2020 12:00:00 PM 4.93 40.874 0.512 8.33 16.15 13.01
12/9/2020 12:15:00 PM 4.96 40.928 0.512 8.34 15.71 13.05
12/9/2020 12:30:00 PM 5 41 0.511 8.35 15.76 13.08
12/9/2020 12:45:00 PM 5.05 41.09 0.511 8.36 15.71 13.11
12/9/2020 1:00:00 PM 5.1 41.18 0.511 8.37 15.99 13.16
12/9/2020 1:15:00 PM 5.17 41.306 0.511 8.37 16 13.19
12/9/2020 1:30:00 PM 5.24 41.432 0.511 8.38 16.12 13.22
12/9/2020 1:45:00 PM 5.32 41.576 0.511 8.39 15.92 13.26
12/9/2020 2:00:00 PM 5.38 41.684 0.511 8.4 15.97 13.3
12/9/2020 2:15:00 PM 5.43 41.774 0.51 8.4 15.87 13.28
12/9/2020 2:30:00 PM 5.49 41.882 0.51 8.41 15.85 13.3
12/9/2020 2:45:00 PM 5.55 41.99 0.51 8.42 15.73 13.28
12/9/2020 3:00:00 PM 5.61 42.098 0.51 8.43 15.87 13.28
12/9/2020 3:15:00 PM 5.65 42.17 0.51 8.43 15.97 13.28
12/9/2020 3:30:00 PM 5.68 42.224 0.509 8.43 15.87 13.24
12/9/2020 3:45:00 PM 5.71 42.278 0.509 8.43 16.03 13.18
12/9/2020 4:00:00 PM 5.73 42.314 0.509 8.43 15.79 13.11
12/9/2020 4:15:00 PM 5.75 42.35 0.509 8.43 16.7 13.05
12/9/2020 4:30:00 PM 5.76 42.368 0.509 8.42 16.9 12.97
12/9/2020 4:45:00 PM 5.76 42.368 0.509 8.42 16.79 12.88
12/9/2020 5:00:00 PM 5.75 42.35 0.509 8.41 16.59 12.78
12/9/2020 5:15:00 PM 5.74 42.332 0.509 8.4 16.32 12.69
12/9/2020 5:30:00 PM 5.74 42.332 0.508 8.4 16.42 12.61
12/9/2020 5:45:00 PM 5.76 42.368 0.508 8.39 16.49 12.55
12/9/2020 6:00:00 PM 5.78 42.404 0.508 8.38 17.42 12.48
12/9/2020 6:15:00 PM 5.8 42.44 0.509 8.37 16.59 12.4
12/9/2020 6:30:00 PM 5.82 42.476 0.509 8.36 16.47 12.35
12/9/2020 6:45:00 PM 5.85 42.53 0.509 8.36 16.51 12.29
12/9/2020 7:00:00 PM 5.86 42.548 0.509 8.35 16.22 12.25
12/9/2020 7:15:00 PM 5.88 42.584 0.509 8.34 16.33 12.21
12/9/2020 7:30:00 PM 5.91 42.638 0.509 8.34 16.47 12.18
12/9/2020 7:45:00 PM 5.96 42.728 0.509 8.33 16.46 12.14
12/9/2020 8:00:00 PM 6 42.8 0.51 8.33 16.49 12.11
12/9/2020 8:15:00 PM 6.04 42.872 0.51 8.33 16.51 12.08
12/9/2020 8:30:00 PM 6.08 42.944 0.51 8.32 16.45 12.05
12/9/2020 8:45:00 PM 6.12 43.016 0.51 8.32 16.48 12.03
12/9/2020 9:00:00 PM 6.16 43.088 0.51 8.31 16.55 12
12/9/2020 9:15:00 PM 6.19 43.142 0.51 8.31 16.65 11.96
12/9/2020 9:30:00 PM 6.22 43.196 0.511 8.3 16.54 11.94
12/9/2020 9:45:00 PM 6.25 43.25 0.511 8.3 16.43 11.91
12/9/2020 10:00:00 PM 6.27 43.286 0.511 8.3 16.53 11.9
12/9/2020 10:15:00 PM 6.29 43.322 0.511 8.29 16.32 11.88
12/9/2020 10:30:00 PM 6.32 43.376 0.512 8.29 16.36 11.85
12/9/2020 10:45:00 PM 6.33 43.394 0.512 8.28 16.53 11.85
12/9/2020 11:00:00 PM 6.34 43.412 0.512 8.28 16.42 11.85
12/9/2020 11:15:00 PM 6.35 43.43 0.512 8.27 16.61 11.82
12/9/2020 11:30:00 PM 6.36 43.448 0.512 8.27 16.56 11.81
12/9/2020 11:45:00 PM 6.36 43.448 0.512 8.27 16.66 11.82
12/10/2020 12:00:00 AM 6.37 43.466 0.512 8.26 16.86 11.82
12/10/2020 12:15:00 AM 6.38 43.484 0.513 8.26 16.78 11.81
12/10/2020 12:30:00 AM 6.38 43.484 0.513 8.26 16.74 11.8
12/10/2020 12:45:00 AM 6.39 43.502 0.513 8.26 16.82 11.8
12/10/2020 1:00:00 AM 6.39 43.502 0.513 8.25 16.79 11.79
12/10/2020 1:15:00 AM 6.4 43.52 0.513 8.25 16.84 11.8
12/10/2020 1:30:00 AM 6.4 43.52 0.513 8.25 17.15 11.8
12/10/2020 1:45:00 AM 6.4 43.52 0.513 8.25 17.13 11.81
12/10/2020 2:00:00 AM 6.4 43.52 0.513 8.25 17.4 11.81
12/10/2020 2:15:00 AM 6.4 43.52 0.513 8.25 17.18 11.8
12/10/2020 2:30:00 AM 6.4 43.52 0.513 8.25 17.24 11.8
12/10/2020 2:45:00 AM 6.4 43.52 0.513 8.25 16.79 11.8
12/10/2020 3:00:00 AM 6.38 43.484 0.513 8.25 16.91 11.82
12/10/2020 3:15:00 AM 6.35 43.43 0.512 8.25 16.91 11.82
12/10/2020 3:30:00 AM 6.31 43.358 0.512 8.25 16.99 11.81
12/10/2020 3:45:00 AM 6.27 43.286 0.512 8.25 17 11.82
12/10/2020 4:00:00 AM 6.24 43.232 0.512 8.25 16.94 11.83
12/10/2020 4:15:00 AM 6.21 43.178 0.512 8.25 17.68 11.83
12/10/2020 4:30:00 AM 6.18 43.124 0.512 8.24 17.25 11.83
12/10/2020 4:45:00 AM 6.16 43.088 0.512 8.25 17.1 11.85
12/10/2020 5:00:00 AM 6.13 43.034 0.512 8.25 17.07 11.87
12/10/2020 5:15:00 AM 6.1 42.98 0.512 8.25 17.01 11.88
12/10/2020 5:30:00 AM 6.07 42.926 0.512 8.25 16.99 11.9
12/10/2020 5:45:00 AM 6.03 42.854 0.512 8.25 16.92 11.91
12/10/2020 6:00:00 AM 6 42.8 0.512 8.25 17.11 11.92
12/10/2020 6:15:00 AM 5.97 42.746 0.512 8.24 17.07 11.93
12/10/2020 6:30:00 AM 5.94 42.692 0.512 8.24 16.87 11.94
12/10/2020 6:45:00 AM 5.92 42.656 0.513 8.24 16.91 11.94
12/10/2020 7:00:00 AM 5.89 42.602 0.513 8.24 17.21 11.97
12/10/2020 7:15:00 AM 5.87 42.566 0.513 8.24 17.24 11.97
12/10/2020 7:30:00 AM 5.87 42.566 0.514 8.25 17.8 11.99
12/10/2020 7:45:00 AM 5.86 42.548 0.514 8.25 19.56 12.02
12/10/2020 8:00:00 AM 5.83 42.494 0.514 8.25 16.91 12.06
12/10/2020 8:15:00 AM 5.82 42.476 0.514 8.25 16.96 12.12
12/10/2020 8:30:00 AM 5.85 42.53 0.514 8.26 17.65 12.18
12/10/2020 8:45:00 AM 5.9 42.62 0.514 8.27 17.06 12.27
12/10/2020 9:00:00 AM 5.95 42.71 0.513 8.27 16.96 12.35
12/10/2020 9:15:00 AM 6.02 42.836 0.514 8.28 16.93 12.44
12/10/2020 9:30:00 AM 6.1 42.98 0.513 8.29 16.74 12.52
12/10/2020 9:45:00 AM 6.18 43.124 0.513 8.31 16.62 12.61
12/10/2020 10:00:00 AM 6.27 43.286 0.512 8.32 16.56 12.69
12/10/2020 10:15:00 AM 6.39 43.502 0.512 8.33 16.67 12.81
12/10/2020 10:30:00 AM 6.43 43.574 0.512 8.35 16.61 12.9
12/10/2020 10:45:00 AM 6.57 43.826 0.512 8.36 16.51 12.96
12/10/2020 11:00:00 AM 6.62 43.916 0.512 8.37 17.74 13.03
12/10/2020 11:15:00 AM 6.73 44.114 0.511 8.38 17.56 13.11
12/10/2020 11:30:00 AM 6.84 44.312 0.511 8.4 17.59 13.14
12/10/2020 11:45:00 AM 6.94 44.492 0.51 8.41 17.66 13.17
12/10/2020 12:00:00 PM 7.01 44.618 0.51 8.42 17.43 13.19
12/10/2020 12:15:00 PM 7.1 44.78 0.51 8.43 17.39 13.21
12/10/2020 12:30:00 PM 7.18 44.924 0.509 8.44 17.39 13.22
12/10/2020 12:45:00 PM 7.25 45.05 0.509 8.45 17.61 13.25
12/10/2020 1:00:00 PM 7.33 45.194 0.509 8.46 17.41 13.25
12/10/2020 1:15:00 PM 7.41 45.338 0.509 8.46 17.46 13.23
12/10/2020 1:30:00 PM 7.48 45.464 0.508 8.47 17.51 13.19
12/10/2020 1:45:00 PM 7.54 45.572 0.508 8.48 17.26 13.19
12/10/2020 2:00:00 PM 7.6 45.68 0.508 8.48 17.16 13.13
12/10/2020 2:15:00 PM 7.65 45.77 0.507 8.49 17.21 13.09
12/10/2020 2:30:00 PM 7.73 45.914 0.507 8.5 17.11 13.06
12/10/2020 2:45:00 PM 7.82 46.076 0.507 8.5 17.25 13.02
12/10/2020 3:00:00 PM 7.87 46.166 0.507 8.51 17.11 12.95
12/10/2020 3:15:00 PM 7.91 46.238 0.506 8.51 17.29 12.88
12/10/2020 3:30:00 PM 7.93 46.274 0.506 8.51 17.17 12.81
12/10/2020 3:45:00 PM 7.94 46.292 0.506 8.51 17.5 12.73
12/10/2020 4:00:00 PM 7.92 46.256 0.506 8.51 17.34 12.65
12/10/2020 4:15:00 PM 7.89 46.202 0.506 8.51 17.4 12.56
12/10/2020 4:30:00 PM 7.85 46.13 0.506 8.5 17.38 12.48
12/10/2020 4:45:00 PM 7.8 46.04 0.506 8.5 17.36 12.37
12/10/2020 5:00:00 PM 7.75 45.95 0.506 8.48 16.7 12.26
12/10/2020 5:15:00 PM 7.69 45.842 0.507 8.48 16.6 12.17
12/10/2020 5:30:00 PM 7.65 45.77 0.507 8.47 16.79 12.07
12/10/2020 5:45:00 PM 7.6 45.68 0.507 8.46 16.79 11.99
12/10/2020 6:00:00 PM 7.56 45.608 0.508 8.45 17.04 11.92
12/10/2020 6:15:00 PM 7.53 45.554 0.508 8.44 16.69 11.87
12/10/2020 6:30:00 PM 7.5 45.5 0.508 8.43 17.46 11.82
12/10/2020 6:45:00 PM 7.47 45.446 0.508 8.42 16.93 11.78
12/10/2020 7:00:00 PM 7.44 45.392 0.508 8.41 16.71 11.75
12/10/2020 7:15:00 PM 7.41 45.338 0.509 8.4 16.82 11.72
12/10/2020 7:30:00 PM 7.38 45.284 0.509 8.4 16.92 11.71
12/10/2020 7:45:00 PM 7.34 45.212 0.509 8.39 17.02 11.7
12/10/2020 8:00:00 PM 7.3 45.14 0.51 8.38 17.1 11.68
12/10/2020 8:15:00 PM 7.26 45.068 0.51 8.37 17.3 11.68
12/10/2020 8:30:00 PM 7.2 44.96 0.511 8.37 17.42 11.66
12/10/2020 8:45:00 PM 7.15 44.87 0.511 8.36 17.1 11.66
12/10/2020 9:00:00 PM 7.1 44.78 0.512 8.35 17.2 11.68
12/10/2020 9:15:00 PM 7.04 44.672 0.512 8.35 17.33 11.69
12/10/2020 9:30:00 PM 6.98 44.564 0.513 8.34 17.23 11.69
12/10/2020 9:45:00 PM 6.92 44.456 0.513 8.33 17.13 11.69
12/10/2020 10:00:00 PM 6.85 44.33 0.514 8.33 17.15 11.72
12/10/2020 10:15:00 PM 6.78 44.204 0.514 8.32 17.24 11.74
12/10/2020 10:30:00 PM 6.7 44.06 0.515 8.31 17.37 11.77
12/10/2020 10:45:00 PM 6.62 43.916 0.515 8.31 17.4 11.79
12/10/2020 11:00:00 PM 6.54 43.772 0.516 8.3 17.46 11.81
12/10/2020 11:15:00 PM 6.45 43.61 0.516 8.29 17.21 11.82
12/10/2020 11:30:00 PM 6.37 43.466 0.517 8.29 17.41 11.84
12/10/2020 11:45:00 PM 6.29 43.322 0.517 8.28 17.29 11.86
12/11/2020 12:00:00 AM 6.21 43.178 0.517 8.28 17.47 11.9
12/11/2020 12:15:00 AM 6.13 43.034 0.518 8.27 17.36 11.93
12/11/2020 12:30:00 AM 6.06 42.908 0.518 8.27 17.53 11.95
12/11/2020 12:45:00 AM 5.98 42.764 0.518 8.26 17.33 11.98
12/11/2020 1:00:00 AM 5.91 42.638 0.518 8.26 17.6 12.01
12/11/2020 1:15:00 AM 5.84 42.512 0.519 8.26 17.6 12.02
12/11/2020 1:30:00 AM 5.77 42.386 0.519 8.26 17.44 12.04
12/11/2020 1:45:00 AM 5.7 42.26 0.519 8.25 17.76 12.05
12/11/2020 2:00:00 AM 5.64 42.152 0.519 8.25 17.67 12.08
12/11/2020 2:15:00 AM 5.58 42.044 0.519 8.25 17.63 12.1
12/11/2020 2:30:00 AM 5.52 41.936 0.519 8.25 17.55 12.14
12/11/2020 2:45:00 AM 5.46 41.828 0.519 8.25 17.66 12.15
12/11/2020 3:00:00 AM 5.41 41.738 0.519 8.25 17.55 12.17
12/11/2020 3:15:00 AM 5.36 41.648 0.519 8.25 18.15 12.19
12/11/2020 3:30:00 AM 5.31 41.558 0.519 8.25 18.76 12.22
12/11/2020 3:45:00 AM 5.26 41.468 0.519 8.24 18.33 12.23
12/11/2020 4:00:00 AM 5.22 41.396 0.519 8.24 17.97 12.25
12/11/2020 4:15:00 AM 5.17 41.306 0.519 8.24 18.17 12.26
12/11/2020 4:30:00 AM 5.13 41.234 0.519 8.24 18.24 12.27
12/11/2020 4:45:00 AM 5.09 41.162 0.519 8.24 18.1 12.29
12/11/2020 5:00:00 AM 5.05 41.09 0.519 8.24 17.92 12.3
12/11/2020 5:15:00 AM 5.01 41.018 0.519 8.24 18.21 12.32
12/11/2020 5:30:00 AM 4.98 40.964 0.519 8.24 17.92 12.34
12/11/2020 5:45:00 AM 4.94 40.892 0.519 8.24 17.92 12.36
12/11/2020 6:00:00 AM 4.9 40.82 0.519 8.24 17.88 12.38
12/11/2020 6:15:00 AM 4.87 40.766 0.519 8.24 17.92 12.39
12/11/2020 6:30:00 AM 4.83 40.694 0.519 8.24 17.94 12.41
12/11/2020 6:45:00 AM 4.8 40.64 0.52 8.24 17.8 12.42
12/11/2020 7:00:00 AM 4.78 40.604 0.52 8.24 17.68 12.43
12/11/2020 7:15:00 AM 4.76 40.568 0.52 8.24 17.79 12.44
12/11/2020 7:30:00 AM 4.75 40.55 0.52 8.24 19.57 12.45
12/11/2020 7:45:00 AM 4.74 40.532 0.52 8.24 17.71 12.48
12/11/2020 8:00:00 AM 4.75 40.55 0.52 8.24 17.45 12.52
12/11/2020 8:15:00 AM 4.78 40.604 0.52 8.25 17.57 12.57
12/11/2020 8:30:00 AM 4.82 40.676 0.52 8.25 17.55 12.63
12/11/2020 8:45:00 AM 4.86 40.748 0.52 8.26 17.57 12.69
12/11/2020 9:00:00 AM 4.93 40.874 0.52 8.27 17.87 12.77
12/11/2020 9:15:00 AM 5.03 41.054 0.519 8.28 17.97 12.85
12/11/2020 9:30:00 AM 5.13 41.234 0.519 8.29 18.19 12.96
12/11/2020 9:45:00 AM 5.22 41.396 0.519 8.3 17.83 13.03
12/11/2020 10:00:00 AM 5.29 41.522 0.518 8.31 19.1 13.09
12/11/2020 10:15:00 AM 5.37 41.666 0.518 8.32 17.72 13.17
12/11/2020 10:30:00 AM 5.49 41.882 0.518 8.33 17.63 13.21
12/11/2020 10:45:00 AM 5.63 42.134 0.518 8.34 18.01 13.24
12/11/2020 11:00:00 AM 5.74 42.332 0.517 8.36 17.64 13.33
12/11/2020 11:15:00 AM 5.85 42.53 0.517 8.37 17.65 13.35
12/11/2020 11:30:00 AM 5.97 42.746 0.516 8.38 17.84 13.39
12/11/2020 11:45:00 AM 6.08 42.944 0.516 8.39 17.57 13.4
12/11/2020 12:00:00 PM 6.21 43.178 0.516 8.4 17.47 13.43
12/11/2020 12:15:00 PM 6.35 43.43 0.515 8.41 17.32 13.45
12/11/2020 12:30:00 PM 6.49 43.682 0.515 8.42 17.61 13.49
12/11/2020 12:45:00 PM 6.64 43.952 0.514 8.43 17.19 13.49
12/11/2020 1:00:00 PM 6.79 44.222 0.514 8.44 17.41 13.5
12/11/2020 1:15:00 PM 6.94 44.492 0.513 8.45 17.14 13.49
12/11/2020 1:30:00 PM 7.08 44.744 0.512 8.46 18.1 13.5
12/11/2020 1:45:00 PM 7.22 44.996 0.512 8.47 17.29 13.5
12/11/2020 2:00:00 PM 7.37 45.266 0.511 8.49 17.44 13.48
12/11/2020 2:15:00 PM 7.52 45.536 0.51 8.49 17.46 13.43
12/11/2020 2:30:00 PM 7.68 45.824 0.51 8.51 17.38 13.42
12/11/2020 2:45:00 PM 7.79 46.022 0.509 8.52 17.61 13.38
12/11/2020 3:00:00 PM 7.88 46.184 0.509 8.52 17.74 13.32
12/11/2020 3:15:00 PM 7.97 46.346 0.508 8.53 17.72 13.23
12/11/2020 3:30:00 PM 8.01 46.418 0.508 8.53 17.55 13.13
12/11/2020 3:45:00 PM 8.05 46.49 0.508 8.53 17.45 12.99
12/11/2020 4:00:00 PM 8.07 46.526 0.508 8.53 17.44 12.84
12/11/2020 4:15:00 PM 8.06 46.508 0.508 8.53 17.51 12.76
12/11/2020 4:30:00 PM 8.06 46.508 0.508 8.52 17.45 12.63
12/11/2020 4:45:00 PM 8.06 46.508 0.507 8.52 17.43 12.49
12/11/2020 5:00:00 PM 8.05 46.49 0.507 8.51 16.94 12.36
12/11/2020 5:15:00 PM 8.05 46.49 0.507 8.5 20.93 12.22
12/11/2020 5:30:00 PM 8.06 46.508 0.507 8.49 21.05 12.1
12/11/2020 5:45:00 PM 8.06 46.508 0.508 8.48 20.69 11.98
12/11/2020 6:00:00 PM 8.07 46.526 0.508 8.47 20.97 11.89
12/11/2020 6:15:00 PM 8.07 46.526 0.508 8.46 19.79 11.8
12/11/2020 6:30:00 PM 8.07 46.526 0.508 8.45 16.76 11.7
12/11/2020 6:45:00 PM 8.06 46.508 0.508 8.44 16.87 11.62
12/11/2020 7:00:00 PM 8.06 46.508 0.509 8.43 16.97 11.55
12/11/2020 7:15:00 PM 8.04 46.472 0.509 8.42 17.63 11.52
12/11/2020 7:30:00 PM 8.02 46.436 0.51 8.41 17.22 11.48
12/11/2020 7:45:00 PM 8 46.4 0.51 8.4 17.57 11.41
12/11/2020 8:00:00 PM 7.97 46.346 0.51 8.39 17.65 11.35
12/11/2020 8:15:00 PM 7.95 46.31 0.51 8.38 17.28 11.38
12/11/2020 8:30:00 PM 7.92 46.256 0.511 8.37 17.33 11.37
12/11/2020 8:45:00 PM 7.87 46.166 0.511 8.37 17.65 11.37
12/11/2020 9:00:00 PM 7.82 46.076 0.512 8.36 17.26 11.37
12/11/2020 9:15:00 PM 7.77 45.986 0.512 8.35 17.59 11.39
12/11/2020 9:30:00 PM 7.7 45.86 0.513 8.34 17.55 11.34
12/11/2020 9:45:00 PM 7.64 45.752 0.513 8.33 17.59 11.37
12/11/2020 10:00:00 PM 7.57 45.626 0.514 8.32 17.64 11.4
12/11/2020 10:15:00 PM 7.5 45.5 0.514 8.32 17.55 11.42
12/11/2020 10:30:00 PM 7.42 45.356 0.515 8.31 17.69 11.42
12/11/2020 10:45:00 PM 7.35 45.23 0.515 8.3 17.62 11.46
12/11/2020 11:00:00 PM 7.27 45.086 0.516 8.29 17.87 11.49
12/11/2020 11:15:00 PM 7.19 44.942 0.516 8.28 18.3 11.51
12/11/2020 11:30:00 PM 7.11 44.798 0.517 8.28 18.18 11.52
12/11/2020 11:45:00 PM 7.04 44.672 0.517 8.27 18.12 11.49
12/12/2020 12:00:00 AM 6.96 44.528 0.517 8.27 17.52 11.5
12/12/2020 12:15:00 AM 6.88 44.384 0.517 8.26 17.96 11.53
12/12/2020 12:30:00 AM 6.81 44.258 0.518 8.26 17.76 11.56
12/12/2020 12:45:00 AM 6.74 44.132 0.518 8.25 17.8 11.57
12/12/2020 1:00:00 AM 6.67 44.006 0.518 8.25 17.95 11.61
12/12/2020 1:15:00 AM 6.6 43.88 0.518 8.25 17.92 11.63
12/12/2020 1:30:00 AM 6.54 43.772 0.518 8.24 17.95 11.65
12/12/2020 1:45:00 AM 6.48 43.664 0.518 8.24 18.03 11.68
12/12/2020 2:00:00 AM 6.41 43.538 0.518 8.24 18.07 11.68
12/12/2020 2:15:00 AM 6.36 43.448 0.518 8.24 18.06 11.68
12/12/2020 2:30:00 AM 6.3 43.34 0.518 8.24 18.38 11.66
12/12/2020 2:45:00 AM 6.25 43.25 0.518 8.24 18.01 11.74
12/12/2020 3:00:00 AM 6.19 43.142 0.518 8.24 18.27 11.79
12/12/2020 3:15:00 AM 6.14 43.052 0.518 8.24 18.5 11.8
12/12/2020 3:30:00 AM 6.09 42.962 0.518 8.24 18.71 11.84
12/12/2020 3:45:00 AM 6.05 42.89 0.518 8.23 18.55 11.87
12/12/2020 4:00:00 AM 6.01 42.818 0.519 8.23 18.11 11.88
12/12/2020 4:15:00 AM 5.98 42.764 0.518 8.23 18.44 11.9
12/12/2020 4:30:00 AM 5.95 42.71 0.518 8.23 18.4 11.91
12/12/2020 4:45:00 AM 5.92 42.656 0.518 8.23 18.45 11.95
12/12/2020 5:00:00 AM 5.89 42.602 0.518 8.23 18.28 11.95
12/12/2020 5:15:00 AM 5.86 42.548 0.518 8.23 18.77 11.95
12/12/2020 5:30:00 AM 5.83 42.494 0.518 8.23 18.9 11.97
12/12/2020 5:45:00 AM 5.8 42.44 0.518 8.23 18.64 11.97
12/12/2020 6:00:00 AM 5.8 42.44 0.518 8.23 18.44 11.98
12/12/2020 6:15:00 AM 5.81 42.458 0.519 8.23 18.49 11.99
12/12/2020 6:30:00 AM 5.82 42.476 0.519 8.23 18.43 11.98
12/12/2020 6:45:00 AM 5.83 42.494 0.519 8.23 18.3 12.02
12/12/2020 7:00:00 AM 5.84 42.512 0.519 8.23 18.5 12.03
12/12/2020 7:15:00 AM 5.85 42.53 0.519 8.23 17.45 12.03
12/12/2020 7:30:00 AM 5.88 42.584 0.519 8.23 17.52 12.02
12/12/2020 7:45:00 AM 5.91 42.638 0.519 8.23 17.46 12.04
12/12/2020 8:00:00 AM 5.95 42.71 0.519 8.23 17.47 12.05
12/12/2020 8:15:00 AM 6 42.8 0.519 8.23 17.33 12.06
12/12/2020 8:30:00 AM 6.06 42.908 0.519 8.24 17.08 12.1
12/12/2020 8:45:00 AM 6.13 43.034 0.519 8.24 17.15 12.14
12/12/2020 9:00:00 AM 6.19 43.142 0.518 8.25 17.1 12.19
12/12/2020 9:15:00 AM 6.27 43.286 0.518 8.25 17.33 12.22
12/12/2020 9:30:00 AM 6.33 43.394 0.518 8.26 17.14 12.26
12/12/2020 9:45:00 AM 6.42 43.556 0.518 8.27 16.96 12.34
12/12/2020 10:00:00 AM 6.51 43.718 0.517 8.28 17.27 12.4
12/12/2020 10:15:00 AM 6.59 43.862 0.517 8.29 17.16 12.45
12/12/2020 10:30:00 AM 6.66 43.988 0.517 8.29 16.95 12.47
12/12/2020 10:45:00 AM 6.76 44.168 0.517 8.3 17.02 12.52
12/12/2020 11:00:00 AM 6.86 44.348 0.516 8.32 16.92 12.59
12/12/2020 11:15:00 AM 6.96 44.528 0.516 8.33 16.85 12.64
12/12/2020 11:30:00 AM 7.09 44.762 0.516 8.34 17.09 12.71
12/12/2020 11:45:00 AM 7.19 44.942 0.515 8.35 16.84 12.78
12/12/2020 12:00:00 PM 7.27 45.086 0.515 8.36 16.88 12.81
12/12/2020 12:15:00 PM 7.38 45.284 0.515 8.37 16.91 12.81
12/12/2020 12:30:00 PM 7.47 45.446 0.514 8.39 16.86 12.81
12/12/2020 12:45:00 PM 7.56 45.608 0.514 8.39 16.84 12.8
12/12/2020 1:00:00 PM 7.66 45.788 0.514 8.4 16.86 12.82
12/12/2020 1:15:00 PM 7.75 45.95 0.513 8.41 16.78 12.82
12/12/2020 1:30:00 PM 7.85 46.13 0.513 8.42 16.81 12.82
12/12/2020 1:45:00 PM 7.94 46.292 0.512 8.42 16.86 12.81
12/12/2020 2:00:00 PM 8.04 46.472 0.512 8.43 16.81 12.78
12/12/2020 2:15:00 PM 8.14 46.652 0.512 8.44 16.86 12.78
12/12/2020 2:30:00 PM 8.24 46.832 0.511 8.45 16.94 12.82
12/12/2020 2:45:00 PM 8.32 46.976 0.511 8.46 16.76 12.77
12/12/2020 3:00:00 PM 8.39 47.102 0.51 8.47 16.75 12.73
12/12/2020 3:15:00 PM 8.46 47.228 0.51 8.47 16.73 12.71
12/12/2020 3:30:00 PM 8.51 47.318 0.51 8.48 16.84 12.65
12/12/2020 3:45:00 PM 8.56 47.408 0.509 8.48 16.79 12.57
12/12/2020 4:00:00 PM 8.61 47.498 0.509 8.48 16.96 12.51
12/12/2020 4:15:00 PM 8.64 47.552 0.509 8.48 16.87 12.4
12/12/2020 4:30:00 PM 8.65 47.57 0.509 8.48 16.93 12.25
12/12/2020 4:45:00 PM 8.67 47.606 0.509 8.47 16.81 12.14
12/12/2020 5:00:00 PM 8.68 47.624 0.509 8.46 16.66 12
12/12/2020 5:15:00 PM 8.7 47.66 0.509 8.45 16.73 11.81
12/12/2020 5:30:00 PM 8.71 47.678 0.509 8.44 17.88 11.78
12/12/2020 5:45:00 PM 8.71 47.678 0.509 8.43 16.68 11.65
12/12/2020 6:00:00 PM 8.72 47.696 0.51 8.43 16.8 11.59
12/12/2020 6:15:00 PM 8.73 47.714 0.51 8.41 16.74 11.5
12/12/2020 6:30:00 PM 8.75 47.75 0.51 8.41 16.67 11.39
12/12/2020 6:45:00 PM 8.76 47.768 0.51 8.4 16.62 11.32
12/12/2020 7:00:00 PM 8.76 47.768 0.51 8.39 16.75 11.29
12/12/2020 7:15:00 PM 8.77 47.786 0.511 8.38 16.91 11.24
12/12/2020 7:30:00 PM 8.79 47.822 0.511 8.37 16.86 11.22
12/12/2020 7:45:00 PM 8.8 47.84 0.511 8.36 16.72 11.17
12/12/2020 8:00:00 PM 8.82 47.876 0.511 8.35 16.86 11.13
12/12/2020 8:15:00 PM 8.82 47.876 0.512 8.34 17.15 11.1
12/12/2020 8:30:00 PM 8.83 47.894 0.512 8.34 17.01 11.05
12/12/2020 8:45:00 PM 8.85 47.93 0.512 8.33 16.61 11.06
12/12/2020 9:00:00 PM 8.86 47.948 0.512 8.32 16.81 11.06
12/12/2020 9:15:00 PM 8.86 47.948 0.512 8.32 16.91 11.03
12/12/2020 9:30:00 PM 8.87 47.966 0.513 8.31 16.86 11.03
12/12/2020 9:45:00 PM 8.87 47.966 0.513 8.31 16.97 11.04
12/12/2020 10:00:00 PM 8.88 47.984 0.513 8.3 16.72 11.04
12/12/2020 10:15:00 PM 8.88 47.984 0.513 8.29 16.98 11.02
12/12/2020 10:30:00 PM 8.88 47.984 0.514 8.29 16.85 11.01
12/12/2020 10:45:00 PM 8.88 47.984 0.514 8.28 16.66 10.99
12/12/2020 11:00:00 PM 8.88 47.984 0.514 8.27 16.78 10.99
12/12/2020 11:15:00 PM 8.87 47.966 0.514 8.27 16.55 10.96
12/12/2020 11:30:00 PM 8.85 47.93 0.515 8.26 16.94 10.96
12/12/2020 11:45:00 PM 8.82 47.876 0.515 8.26 16.91 10.93
12/13/2020 12:00:00 AM 8.78 47.804 0.515 8.25 16.76 10.93
12/13/2020 12:15:00 AM 8.74 47.732 0.515 8.25 16.59 10.96
12/13/2020 12:30:00 AM 8.7 47.66 0.516 8.24 17.06 10.93
12/13/2020 12:45:00 AM 8.67 47.606 0.516 8.24 16.94 10.93
12/13/2020 1:00:00 AM 8.66 47.588 0.516 8.24 16.97 10.96
12/13/2020 1:15:00 AM 8.65 47.57 0.516 8.24 16.81 10.99
12/13/2020 1:30:00 AM 8.64 47.552 0.516 8.23 16.83 10.95
12/13/2020 1:45:00 AM 8.62 47.516 0.516 8.23 16.79 10.96
12/13/2020 2:00:00 AM 8.61 47.498 0.516 8.23 17.01 10.87
12/13/2020 2:15:00 AM 8.6 47.48 0.516 8.23 16.99 11
12/13/2020 2:30:00 AM 8.58 47.444 0.516 8.23 17.08 11.01
12/13/2020 2:45:00 AM 8.55 47.39 0.516 8.23 17.25 11.02
12/13/2020 3:00:00 AM 8.51 47.318 0.517 8.22 17 11.01
12/13/2020 3:15:00 AM 8.48 47.264 0.516 8.22 17.03 10.97
12/13/2020 3:30:00 AM 8.44 47.192 0.516 8.22 17.15 11
12/13/2020 3:45:00 AM 8.41 47.138 0.516 8.22 17.08 11.03
12/13/2020 4:00:00 AM 8.37 47.066 0.516 8.22 17.6 11.02
12/13/2020 4:15:00 AM 8.34 47.012 0.516 8.22 17.33 11.03
12/13/2020 4:30:00 AM 8.31 46.958 0.516 8.22 17.3 10.98
12/13/2020 4:45:00 AM 8.27 46.886 0.516 8.22 17.35 10.99
12/13/2020 5:00:00 AM 8.23 46.814 0.516 8.22 17.15 11.06
12/13/2020 5:15:00 AM 8.19 46.742 0.516 8.22 17.29 10.98
12/13/2020 5:30:00 AM 8.14 46.652 0.516 8.22 17.2 11.02
12/13/2020 5:45:00 AM 8.08 46.544 0.516 8.22 17.36 11.04
12/13/2020 6:00:00 AM 8.03 46.454 0.516 8.22 17.23 11.03
12/13/2020 6:15:00 AM 7.98 46.364 0.516 8.22 17.22 11.07
12/13/2020 6:30:00 AM 7.94 46.292 0.516 8.22 17.1 11.15
12/13/2020 6:45:00 AM 7.89 46.202 0.516 8.22 17.26 11.13
12/13/2020 7:00:00 AM 7.88 46.184 0.517 8.22 17.55 11.18
12/13/2020 7:15:00 AM 7.87 46.166 0.517 8.22 17.44 11.23
12/13/2020 7:30:00 AM 7.87 46.166 0.517 8.22 17.51 11.15
12/13/2020 7:45:00 AM 7.88 46.184 0.517 8.22 17.41 11.21
12/13/2020 8:00:00 AM 7.9 46.22 0.517 8.23 17.53 11.29
12/13/2020 8:15:00 AM 7.89 46.202 0.517 8.23 17.37 11.32
12/13/2020 8:30:00 AM 7.9 46.22 0.517 8.24 17.15 11.41
12/13/2020 8:45:00 AM 7.9 46.22 0.517 8.24 17.06 11.45
12/13/2020 9:00:00 AM 7.93 46.274 0.517 8.25 16.9 11.51
12/13/2020 9:15:00 AM 7.98 46.364 0.517 8.26 16.76 11.59
12/13/2020 9:30:00 AM 8.05 46.49 0.516 8.26 16.89 11.63
12/13/2020 9:45:00 AM 8.13 46.634 0.516 8.28 16.86 11.75
12/13/2020 10:00:00 AM 8.25 46.85 0.515 8.29 16.72 11.9
12/13/2020 10:15:00 AM 8.35 47.03 0.515 8.31 16.67 12.06
12/13/2020 10:30:00 AM 8.5 47.3 0.514 8.33 16.62 12.15
12/13/2020 10:45:00 AM 8.64 47.552 0.514 8.35 16.49 12.21
12/13/2020 11:00:00 AM 8.76 47.768 0.513 8.37 16.36 12.4
12/13/2020 11:15:00 AM 8.84 47.912 0.513 8.38 16.5 12.43
12/13/2020 11:30:00 AM 8.91 48.038 0.512 8.4 16.6 12.64
12/13/2020 11:45:00 AM 8.98 48.164 0.512 8.42 16.51 12.75
12/13/2020 12:00:00 PM 9.04 48.272 0.511 8.44 16.98 12.81
12/13/2020 12:15:00 PM 9.1 48.38 0.511 8.46 16.33 12.83
12/13/2020 12:30:00 PM 9.16 48.488 0.51 8.47 16.5 12.9
12/13/2020 12:45:00 PM 9.22 48.596 0.509 8.49 16.53 12.96
12/13/2020 1:00:00 PM 9.28 48.704 0.509 8.5 16.46 12.99
12/13/2020 1:15:00 PM 9.36 48.848 0.508 8.52 16.41 12.99
12/13/2020 1:30:00 PM 9.41 48.938 0.508 8.53 16.3 13.04
12/13/2020 1:45:00 PM 9.41 48.938 0.508 8.54 16.29 13
12/13/2020 2:00:00 PM 9.4 48.92 0.507 8.54 16.4 12.96
12/13/2020 2:15:00 PM 9.42 48.956 0.507 8.55 16.34 12.91
12/13/2020 2:30:00 PM 9.43 48.974 0.506 8.56 16.33 12.89
12/13/2020 2:45:00 PM 9.44 48.992 0.506 8.57 16.39 12.86
12/13/2020 3:00:00 PM 9.48 49.064 0.505 8.57 16.54 12.81
12/13/2020 3:15:00 PM 9.48 49.064 0.505 8.58 16.24 12.77
12/13/2020 3:30:00 PM 9.49 49.082 0.504 8.59 16.14 12.69
12/13/2020 3:45:00 PM 9.49 49.082 0.504 8.59 16.25 12.59
12/13/2020 4:00:00 PM 9.49 49.082 0.504 8.59 16.22 12.46
12/13/2020 4:15:00 PM 9.5 49.1 0.503 8.59 16.01 12.33
12/13/2020 4:30:00 PM 9.48 49.064 0.503 8.58 16.24 12.2
12/13/2020 4:45:00 PM 9.45 49.01 0.503 8.58 16.29 12.06
12/13/2020 5:00:00 PM 9.44 48.992 0.504 8.57 25.22 11.89
12/13/2020 5:15:00 PM 9.42 48.956 0.504 8.56 23.31 11.82
12/13/2020 5:30:00 PM 9.39 48.902 0.504 8.56 21.62 11.71
12/13/2020 5:45:00 PM 9.36 48.848 0.504 8.55 21.78 11.61
12/13/2020 6:00:00 PM 9.31 48.758 0.505 8.53 21.18 11.53
12/13/2020 6:15:00 PM 9.26 48.668 0.505 8.52 21.22 11.46
12/13/2020 6:30:00 PM 9.21 48.578 0.506 8.51 20.95 11.38
12/13/2020 6:45:00 PM 9.16 48.488 0.506 8.49 20.85 11.33
12/13/2020 7:00:00 PM 9.1 48.38 0.507 8.48 21.79 11.28
12/13/2020 7:15:00 PM 9.03 48.254 0.508 8.47 22 11.26
12/13/2020 7:30:00 PM 8.97 48.146 0.508 8.46 20.91 11.23
12/13/2020 7:45:00 PM 8.9 48.02 0.509 8.44 20.61 11.19
12/13/2020 8:00:00 PM 8.83 47.894 0.509 8.43 20.61 11.16
12/13/2020 8:15:00 PM 8.75 47.75 0.51 8.42 20.13 11.17
12/13/2020 8:30:00 PM 8.68 47.624 0.511 8.41 19.98 11.19
12/13/2020 8:45:00 PM 8.6 47.48 0.511 8.4 20.03 11.2
12/13/2020 9:00:00 PM 8.52 47.336 0.512 8.39 19.9 11.21
12/13/2020 9:15:00 PM 8.45 47.21 0.512 8.38 20.01 11.22
12/13/2020 9:30:00 PM 8.37 47.066 0.513 8.37 20.22 11.22
12/13/2020 9:45:00 PM 8.3 46.94 0.514 8.36 20.07 11.23
12/13/2020 10:00:00 PM 8.24 46.832 0.515 8.35 20.14 11.23
12/13/2020 10:15:00 PM 8.15 46.67 0.516 8.34 20 11.24
12/13/2020 10:30:00 PM 8.08 46.544 0.516 8.33 20.02 11.27
12/13/2020 10:45:00 PM 8.02 46.436 0.517 8.32 19.81 11.27
12/13/2020 11:00:00 PM 7.95 46.31 0.517 8.31 19.77 11.3
12/13/2020 11:15:00 PM 7.86 46.148 0.518 8.3 20.1 11.31
12/13/2020 11:30:00 PM 7.77 45.986 0.518 8.3 19.96 11.34
12/13/2020 11:45:00 PM 7.69 45.842 0.519 8.29 20.12 11.35
12/14/2020 12:00:00 AM 7.61 45.698 0.519 8.28 20.02 11.34
12/14/2020 12:15:00 AM 7.52 45.536 0.519 8.28 19.98 11.33
12/14/2020 12:30:00 AM 7.44 45.392 0.519 8.28 19.9 11.39
12/14/2020 12:45:00 AM 7.38 45.284 0.519 8.27 20.22 11.42
12/14/2020 1:00:00 AM 7.31 45.158 0.52 8.27 19.66 11.46
12/14/2020 1:15:00 AM 7.24 45.032 0.52 8.26 19.82 11.48
12/14/2020 1:30:00 AM 7.18 44.924 0.52 8.26 20.16 11.49
12/14/2020 1:45:00 AM 7.13 44.834 0.52 8.26 19.88 11.44
12/14/2020 2:00:00 AM 7.09 44.762 0.52 8.26 20.15 11.52
12/14/2020 2:15:00 AM 7.04 44.672 0.52 8.26 19.88 11.51
12/14/2020 2:30:00 AM 7 44.6 0.52 8.25 19.77 11.49
12/14/2020 2:45:00 AM 6.97 44.546 0.52 8.25 20 11.53
12/14/2020 3:00:00 AM 6.94 44.492 0.52 8.25 19.97 11.57
12/14/2020 3:15:00 AM 6.91 44.438 0.52 8.25 19.75 11.59
12/14/2020 3:30:00 AM 6.89 44.402 0.52 8.25 19.84 11.58
12/14/2020 3:45:00 AM 6.87 44.366 0.52 8.25 20.3 11.63
12/14/2020 4:00:00 AM 6.84 44.312 0.52 8.25 20.34 11.6
12/14/2020 4:15:00 AM 6.82 44.276 0.52 8.25 20.14 11.65
12/14/2020 4:30:00 AM 6.81 44.258 0.52 8.25 19.99 11.61
12/14/2020 4:45:00 AM 6.8 44.24 0.52 8.25 20.69 11.58
12/14/2020 5:00:00 AM 6.79 44.222 0.52 8.25 19.85 11.63
12/14/2020 5:15:00 AM 6.79 44.222 0.52 8.25 19.92 11.61
12/14/2020 5:30:00 AM 6.79 44.222 0.52 8.25 19.91 11.46
12/14/2020 5:45:00 AM 6.79 44.222 0.52 8.25 19.82 11.65
12/14/2020 6:00:00 AM 6.79 44.222 0.52 8.25 19.76 11.66
12/14/2020 6:15:00 AM 6.79 44.222 0.519 8.24 19.82 11.66
12/14/2020 6:30:00 AM 6.75 44.15 0.517 8.25 19.71 11.68
12/14/2020 6:45:00 AM 6.75 44.15 0.516 8.24 19.88 11.69
12/14/2020 7:00:00 AM 6.74 44.132 0.515 8.24 19.92 11.67
12/14/2020 7:15:00 AM 6.75 44.15 0.515 8.24 17.43 11.68
12/14/2020 7:30:00 AM 6.74 44.132 0.515 8.24 16.15 11.68
12/14/2020 7:45:00 AM 6.74 44.132 0.514 8.24 16.3 11.67
12/14/2020 8:00:00 AM 6.74 44.132 0.513 8.24 16.2 11.65
12/14/2020 8:15:00 AM 6.74 44.132 0.512 8.24 15.97 11.63
12/14/2020 8:30:00 AM 6.74 44.132 0.511 8.24 15.93 11.61
12/14/2020 8:45:00 AM 6.72 44.096 0.509 8.24 16.01 11.64
12/14/2020 9:00:00 AM 6.7 44.06 0.508 8.24 16.09 11.62
12/14/2020 9:15:00 AM 6.67 44.006 0.507 8.24 16.05 11.67
12/14/2020 9:30:00 AM 6.61 43.898 0.506 8.25 16.18 11.71
12/14/2020 9:45:00 AM 6.55 43.79 0.505 8.25 16.37 11.58
12/14/2020 10:00:00 AM 6.47 43.646 0.503 8.25 16.33 11.78
12/14/2020 10:15:00 AM 6.41 43.538 0.502 8.25 16.39 11.82
12/14/2020 10:30:00 AM 6.35 43.43 0.501 8.25 16.37 11.88
12/14/2020 10:45:00 AM 6.29 43.322 0.5 8.26 16.27 11.91
12/14/2020 11:00:00 AM 6.19 43.142 0.499 8.26 16.23 11.95
12/14/2020 11:15:00 AM 6.09 42.962 0.498 8.26 16.27 12.02
12/14/2020 11:30:00 AM 6.01 42.818 0.497 8.26 16.41 12.1
12/14/2020 11:45:00 AM 5.97 42.746 0.496 8.27 16.37 12.16
12/14/2020 12:00:00 PM 5.95 42.71 0.495 8.27 16.45 12.22
12/14/2020 12:15:00 PM 5.93 42.674 0.494 8.28 16.46 12.27
12/14/2020 12:30:00 PM 5.93 42.674 0.493 8.28 16.85 12.31
12/14/2020 12:45:00 PM 5.93 42.674 0.492 8.28 16.79 12.33
12/14/2020 1:00:00 PM 5.95 42.71 0.491 8.28 17.28 12.37
12/14/2020 1:15:00 PM 5.99 42.782 0.489 8.29 16.94 12.45
12/14/2020 1:30:00 PM 6.03 42.854 0.488 8.3 17.43 12.53
12/14/2020 1:45:00 PM 6.08 42.944 0.487 8.31 17.14 12.61
12/14/2020 2:00:00 PM 6.13 43.034 0.486 8.32 17.16 12.68
12/14/2020 2:15:00 PM 6.16 43.088 0.484 8.32 17.07 12.7
12/14/2020 2:30:00 PM 6.2 43.16 0.483 8.33 17.1 12.73
12/14/2020 2:45:00 PM 6.24 43.232 0.481 8.33 17.05 12.78
12/14/2020 3:00:00 PM 6.28 43.304 0.48 8.34 17.63 12.83
12/14/2020 3:15:00 PM 6.31 43.358 0.479 8.34 17.55 12.84
12/14/2020 3:30:00 PM 6.31 43.358 0.477 8.34 17.83 12.85
12/14/2020 3:45:00 PM 6.32 43.376 0.476 8.34 18.36 12.82
12/14/2020 4:00:00 PM 6.32 43.376 0.475 8.34 18.74 12.76
12/14/2020 4:15:00 PM 6.29 43.322 0.475 8.33 18.51 12.67
12/14/2020 4:30:00 PM 6.27 43.286 0.475 8.32 19.76 12.58
12/14/2020 4:45:00 PM 6.25 43.25 0.475 8.31 19.08 12.49
12/14/2020 5:00:00 PM 6.22 43.196 0.475 8.3 18.43 12.38
12/14/2020 5:15:00 PM 6.18 43.124 0.476 8.3 18.98 12.3
12/14/2020 5:30:00 PM 6.14 43.052 0.476 8.29 19.22 12.26
12/14/2020 5:45:00 PM 6.11 42.998 0.477 8.28 19.57 12.21
12/14/2020 6:00:00 PM 6.1 42.98 0.478 8.28 19.05 12.14
12/14/2020 6:15:00 PM 6.1 42.98 0.478 8.27 18.65 12.11
12/14/2020 6:30:00 PM 6.11 42.998 0.442 8.27 18.78 12.06
12/14/2020 6:45:00 PM 6.11 42.998 0.479 8.27 18.32 12.04
12/14/2020 7:00:00 PM 6.09 42.962 0.479 8.26 18.08 12.01
12/14/2020 7:15:00 PM 6.08 42.944 0.478 8.26 18.35 11.99
12/14/2020 7:30:00 PM 6.06 42.908 0.477 8.25 18.29 11.95
12/14/2020 7:45:00 PM 6.05 42.89 0.476 8.25 18.42 11.94
12/14/2020 8:00:00 PM 6.06 42.908 0.474 8.24 18.36 11.91
12/14/2020 8:15:00 PM 6.07 42.926 0.472 8.24 17.92 11.89
12/14/2020 8:30:00 PM 6.07 42.926 0.47 8.23 18.16 11.87
12/14/2020 8:45:00 PM 6.05 42.89 0.468 8.23 17.97 11.86
12/14/2020 9:00:00 PM 6.02 42.836 0.466 8.22 18.04 11.85
12/14/2020 9:15:00 PM 5.98 42.764 0.464 8.22 18.63 11.85
12/14/2020 9:30:00 PM 5.94 42.692 0.464 8.21 18.23 11.86
12/14/2020 9:45:00 PM 5.91 42.638 0.463 8.2 17.9 11.85
12/14/2020 10:00:00 PM 5.87 42.566 0.462 8.2 18.13 11.86
12/14/2020 10:15:00 PM 5.8 42.44 0.462 8.19 17.82 11.85
12/14/2020 10:30:00 PM 5.73 42.314 0.463 8.19 17.83 11.86
12/14/2020 10:45:00 PM 5.65 42.17 0.463 8.18 17.95 11.87
12/14/2020 11:00:00 PM 5.57 42.026 0.465 8.18 18.27 11.89
12/14/2020 11:15:00 PM 5.52 41.936 0.466 8.18 18.07 11.91
12/14/2020 11:30:00 PM 5.48 41.864 0.467 8.18 17.82 11.96
12/14/2020 11:45:00 PM 5.43 41.774 0.468 8.17 17.91 11.97
12/15/2020 12:00:00 AM 5.38 41.684 0.469 8.17 17.77 12.01
12/15/2020 12:15:00 AM 5.32 41.576 0.47 8.17 17.81 12.02
12/15/2020 12:30:00 AM 5.27 41.486 0.471 8.17 17.82 12.05
12/15/2020 12:45:00 AM 5.23 41.414 0.472 8.17 17.84 12.05
12/15/2020 1:00:00 AM 5.18 41.324 0.474 8.17 17.81 12.08
12/15/2020 1:15:00 AM 5.13 41.234 0.474 8.17 17.75 12.11
12/15/2020 1:30:00 AM 5.07 41.126 0.475 8.17 17.99 12.12
12/15/2020 1:45:00 AM 5.02 41.036 0.476 8.17 17.8 12.14
12/15/2020 2:00:00 AM 4.97 40.946 0.477 8.17 17.69 12.16
12/15/2020 2:15:00 AM 4.92 40.856 0.477 8.17 17.89 12.18
12/15/2020 2:30:00 AM 4.88 40.784 0.477 8.17 17.84 12.2
12/15/2020 2:45:00 AM 4.82 40.676 0.478 8.17 17.69 12.23
12/15/2020 3:00:00 AM 4.78 40.604 0.478 8.17 17.83 12.26
12/15/2020 3:15:00 AM 4.72 40.496 0.479 8.17 17.84 12.28
12/15/2020 3:30:00 AM 4.67 40.406 0.48 8.17 17.64 12.29
12/15/2020 3:45:00 AM 4.61 40.298 0.48 8.17 17.67 12.34
12/15/2020 4:00:00 AM 4.56 40.208 0.481 8.17 17.52 12.35
12/15/2020 4:15:00 AM 4.5 40.1 0.482 8.17 17.65 12.38
12/15/2020 4:30:00 AM 4.45 40.01 0.483 8.18 17.34 12.39
12/15/2020 4:45:00 AM 4.4 39.92 0.484 8.18 17.29 12.4
12/15/2020 5:00:00 AM 4.36 39.848 0.484 8.18 17.37 12.41
12/15/2020 5:15:00 AM 4.31 39.758 0.485 8.18 17.22 12.44
12/15/2020 5:30:00 AM 4.27 39.686 0.486 8.18 17.16 12.48
12/15/2020 5:45:00 AM 4.23 39.614 0.487 8.18 17.32 12.5
12/15/2020 6:00:00 AM 4.2 39.56 0.487 8.18 17.23 12.53
12/15/2020 6:15:00 AM 4.16 39.488 0.488 8.18 17.05 12.55
12/15/2020 6:30:00 AM 4.12 39.416 0.488 8.19 17.06 12.56
12/15/2020 6:45:00 AM 4.09 39.362 0.489 8.19 17.74 12.58
12/15/2020 7:00:00 AM 4.06 39.308 0.489 8.19 17.39 12.61
12/15/2020 7:15:00 AM 4.04 39.272 0.49 8.19 17.13 12.63
12/15/2020 7:30:00 AM 4.01 39.218 0.49 8.19 17.32 12.65
12/15/2020 7:45:00 AM 4 39.2 0.49 8.19 17 12.68
12/15/2020 8:00:00 AM 4.01 39.218 0.49 8.2 16.62 12.72
12/15/2020 8:15:00 AM 4.03 39.254 0.491 8.2 16.72 12.76
12/15/2020 8:30:00 AM 4.05 39.29 0.491 8.21 16.45 12.83
12/15/2020 8:45:00 AM 4.06 39.308 0.491 8.22 16.27 12.93
12/15/2020 9:00:00 AM 4.06 39.308 0.491 8.23 16.38 12.97
12/15/2020 9:15:00 AM 4.1 39.38 0.492 8.23 17.77 13.06
12/15/2020 9:30:00 AM 4.15 39.47 0.492 8.25 16.16 13.16
12/15/2020 9:45:00 AM 4.23 39.614 0.492 8.26 16.35 13.26
12/15/2020 10:00:00 AM 4.3 39.74 0.492 8.27 16.23 13.37
12/15/2020 10:15:00 AM 4.34 39.812 0.493 8.29 16.28 13.45
12/15/2020 10:30:00 AM 4.4 39.92 0.493 8.3 16.25 13.56
12/15/2020 10:45:00 AM 4.47 40.046 0.493 8.32 16.06 13.65
12/15/2020 11:00:00 AM 4.52 40.136 0.493 8.33 15.97 13.73
12/15/2020 11:15:00 AM 4.62 40.316 0.493 8.35 16.11 13.82
12/15/2020 11:30:00 AM 4.73 40.514 0.493 8.36 15.94 13.91
12/15/2020 11:45:00 AM 4.84 40.712 0.493 8.38 16.07 13.97
12/15/2020 12:00:00 PM 4.93 40.874 0.494 8.4 16.26 14.01
12/15/2020 12:15:00 PM 5 41 0.494 8.41 16.16 14.04
12/15/2020 12:30:00 PM 5.1 41.18 0.494 8.42 15.88 14.07
12/15/2020 12:45:00 PM 5.16 41.288 0.494 8.44 15.94 14.11
12/15/2020 1:00:00 PM 5.25 41.45 0.494 8.45 16.03 14.11
12/15/2020 1:15:00 PM 5.32 41.576 0.494 8.46 15.8 14.14
12/15/2020 1:30:00 PM 5.39 41.702 0.494 8.47 15.75 14.15
12/15/2020 1:45:00 PM 5.47 41.846 0.494 8.48 15.69 14.16
12/15/2020 2:00:00 PM 5.55 41.99 0.494 8.5 15.76 14.13
12/15/2020 2:15:00 PM 5.63 42.134 0.494 8.51 15.89 14.13
12/15/2020 2:30:00 PM 5.69 42.242 0.493 8.52 15.81 14.1
12/15/2020 2:45:00 PM 5.76 42.368 0.493 8.53 15.84 14.1
12/15/2020 3:00:00 PM 5.82 42.476 0.493 8.54 15.65 14.08
12/15/2020 3:15:00 PM 5.88 42.584 0.493 8.55 15.64 14.03
12/15/2020 3:30:00 PM 5.91 42.638 0.493 8.56 15.53 13.97
12/15/2020 3:45:00 PM 5.93 42.674 0.493 8.57 15.57 13.9
12/15/2020 4:00:00 PM 5.95 42.71 0.493 8.57 15.52 13.79
12/15/2020 4:15:00 PM 5.95 42.71 0.493 8.57 15.53 13.68
12/15/2020 4:30:00 PM 5.95 42.71 0.493 8.57 15.57 13.57
12/15/2020 4:45:00 PM 5.93 42.674 0.493 8.57 15.51 13.42
12/15/2020 5:00:00 PM 5.92 42.656 0.494 8.55 14.53 13.26
12/15/2020 5:15:00 PM 5.91 42.638 0.494 8.55 14.69 13.14
12/15/2020 5:30:00 PM 5.91 42.638 0.495 8.55 14.62 13.03
12/15/2020 5:45:00 PM 5.92 42.656 0.496 8.54 14.49 12.91
12/15/2020 6:00:00 PM 5.92 42.656 0.496 8.52 14.58 12.8
12/15/2020 6:15:00 PM 5.93 42.674 0.496 8.51 14.47 12.71
12/15/2020 6:30:00 PM 5.93 42.674 0.497 8.5 14.64 12.62
12/15/2020 6:45:00 PM 5.93 42.674 0.497 8.49 14.57 12.53
12/15/2020 7:00:00 PM 5.93 42.674 0.498 8.48 14.72 12.47
12/15/2020 7:15:00 PM 5.91 42.638 0.499 8.46 14.63 12.42
12/15/2020 7:30:00 PM 5.9 42.62 0.499 8.45 14.81 12.37
12/15/2020 7:45:00 PM 5.87 42.566 0.5 8.44 14.71 12.35
12/15/2020 8:00:00 PM 5.84 42.512 0.5 8.43 15.03 12.34
12/15/2020 8:15:00 PM 5.8 42.44 0.501 8.42 14.94 12.32
12/15/2020 8:30:00 PM 5.76 42.368 0.502 8.41 15.07 12.3
12/15/2020 8:45:00 PM 5.71 42.278 0.502 8.4 15.05 12.28
12/15/2020 9:00:00 PM 5.67 42.206 0.503 8.39 14.91 12.27
12/15/2020 9:15:00 PM 5.61 42.098 0.504 8.38 14.87 12.28
12/15/2020 9:30:00 PM 5.55 41.99 0.505 8.37 14.93 12.29
12/15/2020 9:45:00 PM 5.49 41.882 0.506 8.36 14.85 12.3
12/15/2020 10:00:00 PM 5.43 41.774 0.506 8.35 14.95 12.32
12/15/2020 10:15:00 PM 5.37 41.666 0.507 8.34 14.83 12.3
12/15/2020 10:30:00 PM 5.31 41.558 0.508 8.32 15.2 12.31
12/15/2020 10:45:00 PM 5.25 41.45 0.509 8.32 14.93 12.32
12/15/2020 11:00:00 PM 5.21 41.378 0.51 8.31 14.94 12.32
12/15/2020 11:15:00 PM 5.16 41.288 0.51 8.3 14.9 12.31
12/15/2020 11:30:00 PM 5.11 41.198 0.511 8.29 15 12.32
12/15/2020 11:45:00 PM 5.06 41.108 0.511 8.28 14.89 12.34
12/16/2020 12:00:00 AM 5.01 41.018 0.512 8.28 14.73 12.35
12/16/2020 12:15:00 AM 4.97 40.946 0.512 8.27 14.93 12.36
12/16/2020 12:30:00 AM 4.92 40.856 0.512 8.27 14.89 12.39
12/16/2020 12:45:00 AM 4.88 40.784 0.513 8.27 14.86 12.4
12/16/2020 1:00:00 AM 4.84 40.712 0.513 8.26 14.8 12.42
12/16/2020 1:15:00 AM 4.81 40.658 0.513 8.26 14.84 12.44
12/16/2020 1:30:00 AM 4.76 40.568 0.513 8.26 14.83 12.46
12/16/2020 1:45:00 AM 4.7 40.46 0.513 8.26 15.17 12.48
12/16/2020 2:00:00 AM 4.65 40.37 0.513 8.26 15.06 12.49
12/16/2020 2:15:00 AM 4.6 40.28 0.514 8.26 15.06 12.5
12/16/2020 2:30:00 AM 4.54 40.172 0.514 8.25 15.04 12.53
12/16/2020 2:45:00 AM 4.48 40.064 0.514 8.25 14.84 12.52
12/16/2020 3:00:00 AM 4.41 39.938 0.514 8.25 14.87 12.53
12/16/2020 3:15:00 AM 4.35 39.83 0.514 8.25 14.93 12.56
12/16/2020 3:30:00 AM 4.31 39.758 0.514 8.25 14.73 12.59
12/16/2020 3:45:00 AM 4.25 39.65 0.514 8.25 15.05 12.64
12/16/2020 4:00:00 AM 4.21 39.578 0.514 8.25 15.01 12.65
12/16/2020 4:15:00 AM 4.16 39.488 0.515 8.25 15 12.68
12/16/2020 4:30:00 AM 4.12 39.416 0.514 8.25 15.05 12.68
12/16/2020 4:45:00 AM 4.07 39.326 0.514 8.25 15.01 12.71
12/16/2020 5:00:00 AM 4.02 39.236 0.515 8.25 15.05 12.74
12/16/2020 5:15:00 AM 3.99 39.182 0.515 8.25 14.96 12.74
12/16/2020 5:30:00 AM 3.97 39.146 0.514 8.25 15.01 12.76
12/16/2020 5:45:00 AM 3.94 39.092 0.515 8.25 17.62 12.77
12/16/2020 6:00:00 AM 3.92 39.056 0.515 8.25 15.2 12.78
12/16/2020 6:15:00 AM 3.91 39.038 0.515 8.25 14.93 12.79
12/16/2020 6:30:00 AM 3.91 39.038 0.515 8.25 15.11 12.8
12/16/2020 6:45:00 AM 3.91 39.038 0.515 8.25 15.19 12.79
12/16/2020 7:00:00 AM 3.9 39.02 0.515 8.25 15.19 12.8
12/16/2020 7:15:00 AM 3.9 39.02 0.515 8.25 18.85 12.8
12/16/2020 7:30:00 AM 3.89 39.002 0.516 8.25 15.26 12.79
12/16/2020 7:45:00 AM 3.89 39.002 0.516 8.25 15.13 12.81
12/16/2020 8:00:00 AM 3.9 39.02 0.516 8.26 16.23 12.83
12/16/2020 8:15:00 AM 3.91 39.038 0.516 8.26 14.91 12.84
12/16/2020 8:30:00 AM 3.92 39.056 0.516 8.26 14.99 12.88
12/16/2020 8:45:00 AM 3.94 39.092 0.516 8.27 15.26 12.92
12/16/2020 9:00:00 AM 3.95 39.11 0.517 8.27 15.17 12.95
12/16/2020 9:15:00 AM 3.95 39.11 0.517 8.27 14.79 13
12/16/2020 9:30:00 AM 3.96 39.128 0.517 8.28 15.06 13.05
12/16/2020 9:45:00 AM 3.97 39.146 0.517 8.29 14.98 13.1
12/16/2020 10:00:00 AM 3.99 39.182 0.517 8.3 15.07 13.19
12/16/2020 10:15:00 AM 4.01 39.218 0.517 8.3 15.04 13.25
12/16/2020 10:30:00 AM 4.03 39.254 0.517 8.31 15.08 13.32
12/16/2020 10:45:00 AM 4.06 39.308 0.517 8.32 15.12 13.37
12/16/2020 11:00:00 AM 4.08 39.344 0.517 8.33 15.25 13.41
12/16/2020 11:15:00 AM 4.1 39.38 0.516 8.34 15.47 13.48
12/16/2020 11:30:00 AM 4.11 39.398 0.516 8.35 15.42 13.53
12/16/2020 11:45:00 AM 4.12 39.416 0.516 8.36 15.39 13.55
12/16/2020 12:00:00 PM 4.12 39.416 0.516 8.36 15.15 13.57
12/16/2020 12:15:00 PM 4.1 39.38 0.516 8.37 15.08 13.6
12/16/2020 12:30:00 PM 4.04 39.272 0.515 8.38 15.11 13.63
12/16/2020 12:45:00 PM 3.96 39.128 0.514 8.38 14.99 13.66
12/16/2020 1:00:00 PM 3.86 38.948 0.514 8.39 15.03 13.69
12/16/2020 1:15:00 PM 3.82 38.876 0.513 8.4 14.99 13.76
12/16/2020 1:30:00 PM 3.82 38.876 0.513 8.41 14.83 13.78
12/16/2020 1:45:00 PM 3.85 38.93 0.513 8.42 14.97 13.82
12/16/2020 2:00:00 PM 3.84 38.912 0.512 8.42 14.93 13.83
12/16/2020 2:15:00 PM 3.75 38.75 0.512 8.43 14.59 13.81
12/16/2020 2:30:00 PM 3.58 38.444 0.511 8.43 15.35 13.81
12/16/2020 2:45:00 PM 3.38 38.084 0.509 8.43 14.97 13.8
12/16/2020 3:00:00 PM 3.25 37.85 0.508 8.43 15.02 13.75
12/16/2020 3:15:00 PM 3.13 37.634 0.508 8.43 15.23 13.73
12/16/2020 3:30:00 PM 2.97 37.346 0.507 8.43 15.46 13.71
12/16/2020 3:45:00 PM 2.78 37.004 0.506 8.43 16.3 13.67
12/16/2020 4:00:00 PM 2.64 36.752 0.506 8.43 16.35 13.61
12/16/2020 4:15:00 PM 2.39 36.302 0.504 8.43 16.71 13.59
12/16/2020 4:30:00 PM 2.1 35.78 0.503 8.42 15.12 13.58
12/16/2020 4:45:00 PM 1.7 35.06 0.501 8.42 15.31 13.57
12/16/2020 5:00:00 PM 1.32 34.376 0.499 8.41 22.03 13.56
12/16/2020 5:15:00 PM 1.11 33.998 0.498 8.4 15.17 13.58
12/16/2020 5:30:00 PM 0.83 33.494 0.497 8.39 15.18 13.62
12/16/2020 5:45:00 PM 0.67 33.206 0.496 8.39 15.08 13.62
12/16/2020 6:00:00 PM 0.64 33.152 0.496 8.39 15.28 13.64
12/16/2020 6:15:00 PM 0.7 33.26 0.495 8.38 14.9 13.69
12/16/2020 6:30:00 PM 0.78 33.404 0.495 8.38 15.03 13.71
12/16/2020 6:45:00 PM 0.74 33.332 0.494 8.38 15.03 13.74
12/16/2020 7:00:00 PM 0.74 33.332 0.494 8.38 15.21 13.78
12/16/2020 7:15:00 PM 0.81 33.458 0.495 8.37 15.19 13.79
12/16/2020 7:30:00 PM 0.86 33.548 0.495 8.37 14.82 13.83
12/16/2020 7:45:00 PM 0.81 33.458 0.494 8.37 14.87 13.82
12/16/2020 8:00:00 PM 0.67 33.206 0.493 8.36 14.84 13.84
12/16/2020 8:15:00 PM 0.63 33.134 0.494 8.36 14.98 13.85
12/16/2020 8:30:00 PM 0.7 33.26 0.494 8.35 15.02 13.8
12/16/2020 8:45:00 PM 0.8 33.44 0.495 8.35 15.02 13.8
12/16/2020 9:00:00 PM 0.61 33.098 0.494 8.34 15.13 13.89
12/16/2020 9:15:00 PM 0.67 33.206 0.494 8.34 15.12 13.82
12/16/2020 9:30:00 PM 0.66 33.188 0.494 8.33 15.08 13.83
12/16/2020 9:45:00 PM 0.65 33.17 0.494 8.33 14.96 13.84
12/16/2020 10:00:00 PM 0.58 33.044 0.495 8.32 15.18 13.9
12/16/2020 10:15:00 PM 0.59 33.062 0.495 8.32 15.14 13.87
12/16/2020 10:30:00 PM 0.57 33.026 0.495 8.31 15.24 13.85
12/16/2020 10:45:00 PM 0.54 32.972 0.495 8.31 15.32 13.88
12/16/2020 11:00:00 PM 0.2 32.36 0.494 8.3 15.07 13.93
12/16/2020 11:15:00 PM 0 32 0.493 8.3 15.31 13.88
12/16/2020 11:30:00 PM -0.06 31.892 0.493 8.3 15 13.94
12/16/2020 11:45:00 PM -0.08 31.856 0.493 8.29 15.17 13.73
12/17/2020 12:00:00 AM -0.08 31.856 0.493 8.29 14.89 13.85
12/17/2020 12:15:00 AM -0.09 31.838 0.492 8.28 15.08 13.88
12/17/2020 12:30:00 AM -0.09 31.838 0.492 8.28 15.16 13.97
12/17/2020 12:45:00 AM -0.09 31.838 0.493 8.28 14.82 14.04
12/17/2020 1:00:00 AM -0.08 31.856 0.492 8.27 14.89 14.04
12/17/2020 1:15:00 AM -0.08 31.856 0.492 8.27 15.02 14.02
12/17/2020 1:30:00 AM -0.08 31.856 0.492 8.26 15.18 14.05
12/17/2020 1:45:00 AM -0.08 31.856 0.492 8.26 15.21 14.05
12/17/2020 2:00:00 AM -0.08 31.856 0.491 8.26 15.34 14.07
12/17/2020 2:15:00 AM -0.08 31.856 0.491 8.26 18.82 14.18
12/17/2020 2:30:00 AM -0.08 31.856 0.491 8.24 20.28 14.22
12/17/2020 2:45:00 AM -0.09 31.838 0.491 8.24 22.83 14.27
12/17/2020 3:00:00 AM -0.09 31.838 0.492 8.23 19.09 14.27
12/17/2020 3:15:00 AM -0.09 31.838 0.492 8.24 21.12 14.21
12/17/2020 3:30:00 AM -0.09 31.838 0.493 8.24 19.07 14.21
12/17/2020 3:45:00 AM -0.09 31.838 0.493 8.24 19.4 14.2
12/17/2020 4:00:00 AM -0.09 31.838 0.494 8.24 21.03 14.22
12/17/2020 4:15:00 AM -0.09 31.838 0.494 8.24 22.55 14.19
12/17/2020 4:30:00 AM -0.09 31.838 0.494 8.23 23.45 14.2
12/17/2020 4:45:00 AM -0.09 31.838 0.495 8.23 21.57 14.21
12/17/2020 5:00:00 AM -0.09 31.838 0.495 8.23 20.63 14.21
12/17/2020 5:15:00 AM -0.08 31.856 0.496 8.24 21.3 14.24
12/17/2020 5:30:00 AM -0.08 31.856 0.496 8.23 19.83 14.23
12/17/2020 5:45:00 AM -0.08 31.856 0.496 8.23 19.34 14.24
12/17/2020 6:00:00 AM -0.08 31.856 0.495 8.23 18.51 14.23
12/17/2020 6:15:00 AM -0.08 31.856 0.495 8.23 18.53 14.24
12/17/2020 6:30:00 AM -0.08 31.856 0.494 8.23 18.31 14.23
12/17/2020 6:45:00 AM -0.09 31.838 0.494 8.23 18.08 14.23
12/17/2020 7:00:00 AM -0.09 31.838 0.494 8.23 17.98 14.23
12/17/2020 7:15:00 AM -0.09 31.838 0.494 8.23 17.78 14.23
12/17/2020 7:30:00 AM -0.09 31.838 0.494 8.23 17.93 14.24
12/17/2020 7:45:00 AM -0.08 31.856 0.494 8.23 17.74 14.24
12/17/2020 8:00:00 AM -0.08 31.856 0.494 8.23 17.83 14.26
12/17/2020 8:15:00 AM -0.07 31.874 0.495 8.24 18.48 14.28
12/17/2020 8:30:00 AM -0.06 31.892 0.495 8.24 18.88 14.3
12/17/2020 8:45:00 AM -0.06 31.892 0.495 8.24 25.74 14.32
12/17/2020 9:00:00 AM -0.07 31.874 0.495 8.25 227.19 14.33
12/17/2020 9:15:00 AM -0.07 31.874 0.495 8.24 68.68 14.36
12/17/2020 9:30:00 AM -0.06 31.892 0.495 8.24 70.42 14.4
12/17/2020 9:45:00 AM -0.06 31.892 0.495 8.25 71.24 14.4
12/17/2020 10:00:00 AM -0.05 31.91 0.494 8.26 51.23 14.38
12/17/2020 10:15:00 AM -0.04 31.928 0.494 8.28 16.33 14.38
12/17/2020 10:30:00 AM -0.01 31.982 0.494 8.29 18.33 14.42
12/17/2020 10:45:00 AM 0.05 32.09 0.494 8.29 15.47 14.49
12/17/2020 11:00:00 AM 0.17 32.306 0.494 8.3 15.88 14.5
12/17/2020 11:15:00 AM 0.35 32.63 0.496 8.31 15.8 14.48
12/17/2020 11:30:00 AM 0.63 33.134 0.499 8.33 16.99 14.55
12/17/2020 11:45:00 AM 0.92 33.656 0.502 8.35 16.77 14.58
12/17/2020 12:00:00 PM 1.16 34.088 0.504 8.36 16.14 14.58
12/17/2020 12:15:00 PM 1.37 34.466 0.506 8.37 15.89 14.51
12/17/2020 12:30:00 PM 1.69 35.042 0.506 8.38 16.25 14.5
12/17/2020 12:45:00 PM 1.97 35.546 0.507 8.39 16.2 14.47
12/17/2020 1:00:00 PM 2.2 35.96 0.505 8.4 18.15 14.47
12/17/2020 1:15:00 PM 2.42 36.356 0.503 8.41 15.99 14.44
12/17/2020 1:30:00 PM 2.63 36.734 0.501 8.41 16.52 14.42
12/17/2020 1:45:00 PM 2.8 37.04 0.5 8.42 16.78 14.42
12/17/2020 2:00:00 PM 2.98 37.364 0.5 8.43 16.82 14.36
12/17/2020 2:15:00 PM 3.13 37.634 0.5 8.44 16.19 14.29
12/17/2020 2:30:00 PM 3.31 37.958 0.501 8.44 16.46 14.26
12/17/2020 2:45:00 PM 3.49 38.282 0.502 8.45 16.44 14.2
12/17/2020 3:00:00 PM 3.62 38.516 0.502 8.46 16.82 14.13
12/17/2020 3:15:00 PM 3.72 38.696 0.503 8.46 16.98 14.04
12/17/2020 3:30:00 PM 3.8 38.84 0.503 8.47 17.41 13.95
12/17/2020 3:45:00 PM 3.87 38.966 0.503 8.46 17.17 13.86
12/17/2020 4:00:00 PM 3.92 39.056 0.503 8.46 17.12 13.77
12/17/2020 4:15:00 PM 3.95 39.11 0.502 8.45 17.8 13.67
12/17/2020 4:30:00 PM 3.96 39.128 0.502 8.45 18.5 13.57
12/17/2020 4:45:00 PM 3.98 39.164 0.501 8.44 17.82 13.46
12/17/2020 5:00:00 PM 4.01 39.218 0.501 8.43 19.03 13.36
12/17/2020 5:15:00 PM 4.05 39.29 0.501 8.42 18.12 13.22
12/17/2020 5:30:00 PM 4.09 39.362 0.501 8.4 17.42 13.11
12/17/2020 5:45:00 PM 4.12 39.416 0.501 8.39 18.02 13.01
12/17/2020 6:00:00 PM 4.15 39.47 0.5 8.38 17.93 12.92
12/17/2020 6:15:00 PM 4.18 39.524 0.5 8.37 17.99 12.84
12/17/2020 6:30:00 PM 4.21 39.578 0.501 8.36 19.06 12.78
12/17/2020 6:45:00 PM 4.22 39.596 0.501 8.35 18.75 12.71
12/17/2020 7:00:00 PM 4.23 39.614 0.501 8.34 19.13 12.64
12/17/2020 7:15:00 PM 4.23 39.614 0.501 8.33 19.25 12.59
12/17/2020 7:30:00 PM 4.23 39.614 0.501 8.33 19.25 12.63
12/17/2020 7:45:00 PM 4.22 39.596 0.502 8.32 20.26 12.63
12/17/2020 8:00:00 PM 4.21 39.578 0.502 8.32 18.84 12.61
12/17/2020 8:15:00 PM 4.2 39.56 0.502 8.31 19.01 12.61
12/17/2020 8:30:00 PM 4.17 39.506 0.502 8.31 18.69 12.6
12/17/2020 8:45:00 PM 4.15 39.47 0.502 8.3 19.34 12.6
12/17/2020 9:00:00 PM 4.12 39.416 0.502 8.3 19.29 12.59
12/17/2020 9:15:00 PM 4.07 39.326 0.503 8.3 19 12.61
12/17/2020 9:30:00 PM 4.03 39.254 0.502 8.29 19.22 12.61
12/17/2020 9:45:00 PM 3.99 39.182 0.502 8.29 20.17 12.63
12/17/2020 10:00:00 PM 3.94 39.092 0.502 8.29 19.99 12.63
12/17/2020 10:15:00 PM 3.9 39.02 0.502 8.28 20.98 12.64
12/17/2020 10:30:00 PM 3.85 38.93 0.502 8.28 20.34 12.65
12/17/2020 10:45:00 PM 3.8 38.84 0.502 8.28 20.49 12.67
12/17/2020 11:00:00 PM 3.75 38.75 0.502 8.27 20.78 12.69
12/17/2020 11:15:00 PM 3.7 38.66 0.502 8.27 21.2 12.72
12/17/2020 11:30:00 PM 3.66 38.588 0.502 8.27 21.32 12.75
12/17/2020 11:45:00 PM 3.61 38.498 0.502 8.26 20.77 12.78
12/18/2020 12:00:00 AM 3.56 38.408 0.502 8.26 21.36 12.8
12/18/2020 12:15:00 AM 3.51 38.318 0.502 8.26 20.79 12.82
12/18/2020 12:30:00 AM 3.47 38.246 0.502 8.26 21.42 12.84
12/18/2020 12:45:00 AM 3.41 38.138 0.502 8.26 21.16 12.87
12/18/2020 1:00:00 AM 3.34 38.012 0.502 8.26 19.79 12.88
12/18/2020 1:15:00 AM 3.28 37.904 0.501 8.25 20.91 12.9
12/18/2020 1:30:00 AM 3.21 37.778 0.501 8.25 20.75 12.92
12/18/2020 1:45:00 AM 3.13 37.634 0.5 8.25 19.86 12.94
12/18/2020 2:00:00 AM 3.06 37.508 0.5 8.25 21.26 12.97
12/18/2020 2:15:00 AM 2.99 37.382 0.499 8.25 21.41 13.02
12/18/2020 2:30:00 AM 2.92 37.256 0.499 8.25 21.78 13.03
12/18/2020 2:45:00 AM 2.85 37.13 0.498 8.25 22.66 13.06
12/18/2020 3:00:00 AM 2.79 37.022 0.497 8.24 21.71 13.08
12/18/2020 3:15:00 AM 2.73 36.914 0.497 8.24 22.26 13.11
12/18/2020 3:30:00 AM 2.68 36.824 0.497 8.24 22.04 13.12
12/18/2020 3:45:00 AM 2.62 36.716 0.498 8.24 23.3 13.14
12/18/2020 4:00:00 AM 2.55 36.59 0.498 8.24 22.73 13.17
12/18/2020 4:15:00 AM 2.49 36.482 0.499 8.24 21.22 13.21
12/18/2020 4:30:00 AM 2.44 36.392 0.499 8.24 22.99 13.23
12/18/2020 4:45:00 AM 2.4 36.32 0.5 8.24 21.13 13.26
12/18/2020 5:00:00 AM 2.37 36.266 0.5 8.24 22.2 13.29
12/18/2020 5:15:00 AM 2.34 36.212 0.501 8.24 22.43 13.29
12/18/2020 5:30:00 AM 2.32 36.176 0.501 8.24 22.09 13.3
12/18/2020 5:45:00 AM 2.3 36.14 0.502 8.24 21.97 13.32
12/18/2020 6:00:00 AM 2.28 36.104 0.503 8.24 22.33 13.34
12/18/2020 6:15:00 AM 2.25 36.05 0.503 8.24 22.44 13.36
12/18/2020 6:30:00 AM 2.22 35.996 0.504 8.24 21.24 13.39
12/18/2020 6:45:00 AM 2.2 35.96 0.504 8.24 21.79 13.38
12/18/2020 7:00:00 AM 2.19 35.942 0.505 8.24 19.62 13.42
12/18/2020 7:15:00 AM 2.18 35.924 0.505 8.24 20.51 13.39
12/18/2020 7:30:00 AM 2.17 35.906 0.506 8.24 20.31 13.42
12/18/2020 7:45:00 AM 2.17 35.906 0.506 8.24 20.5 13.44
12/18/2020 8:00:00 AM 2.17 35.906 0.507 8.24 19.8 13.47
12/18/2020 8:15:00 AM 2.19 35.942 0.507 8.24 20.4 13.5
12/18/2020 8:30:00 AM 2.22 35.996 0.507 8.25 20.62 13.56
12/18/2020 8:45:00 AM 2.26 36.068 0.507 8.25 19.64 13.62
12/18/2020 9:00:00 AM 2.32 36.176 0.507 8.26 19.72 13.7
12/18/2020 9:15:00 AM 2.39 36.302 0.507 8.27 19.51 13.77
12/18/2020 9:30:00 AM 2.43 36.374 0.507 8.28 19.35 13.82
12/18/2020 9:45:00 AM 2.48 36.464 0.507 8.29 19.63 13.86
12/18/2020 10:00:00 AM 2.55 36.59 0.507 8.3 19.03 13.91
12/18/2020 10:15:00 AM 2.66 36.788 0.507 8.31 17.75 13.98
12/18/2020 10:30:00 AM 2.8 37.04 0.506 8.32 18.5 14.08
12/18/2020 10:45:00 AM 2.93 37.274 0.506 8.33 19.22 14.18
12/18/2020 11:00:00 AM 3.09 37.562 0.505 8.35 16.78 14.21
12/18/2020 11:15:00 AM 3.21 37.778 0.505 8.36 17.53 14.29
12/18/2020 11:30:00 AM 3.34 38.012 0.505 8.38 16.88 14.34
12/18/2020 11:45:00 AM 3.48 38.264 0.504 8.39 17.05 14.4
12/18/2020 12:00:00 PM 3.62 38.516 0.504 8.41 17.09 14.44
12/18/2020 12:15:00 PM 3.75 38.75 0.503 8.42 16.94 14.44
12/18/2020 12:30:00 PM 3.9 39.02 0.503 8.43 17.25 14.49
12/18/2020 12:45:00 PM 4.04 39.272 0.503 8.45 16.77 14.54
12/18/2020 1:00:00 PM 4.15 39.47 0.502 8.46 17.74 14.55
12/18/2020 1:15:00 PM 4.22 39.596 0.502 8.47 18.49 14.55
12/18/2020 1:30:00 PM 4.29 39.722 0.502 8.48 18.38 14.51
12/18/2020 1:45:00 PM 4.32 39.776 0.502 8.49 17.86 14.48
12/18/2020 2:00:00 PM 4.35 39.83 0.502 8.49 18.04 14.42
12/18/2020 2:15:00 PM 4.33 39.794 0.502 8.49 19.32 14.35
12/18/2020 2:30:00 PM 4.41 39.938 0.502 8.49 19.35 14.3
12/18/2020 2:45:00 PM 4.5 40.1 0.502 8.5 18.57 14.32
12/18/2020 3:00:00 PM 4.57 40.226 0.502 8.5 18.7 14.29
12/18/2020 3:15:00 PM 4.62 40.316 0.502 8.5 17.76 14.22
12/18/2020 3:30:00 PM 4.69 40.442 0.502 8.5 18.16 14.12
12/18/2020 3:45:00 PM 4.75 40.55 0.502 8.5 18.84 14.05
12/18/2020 4:00:00 PM 4.78 40.604 0.502 8.5 18.95 13.95
12/18/2020 4:15:00 PM 4.77 40.586 0.502 8.49 18.94 13.8
12/18/2020 4:30:00 PM 4.73 40.514 0.503 8.48 18.52 13.68
12/18/2020 4:45:00 PM 4.73 40.514 0.503 8.47 18.94 13.58
12/18/2020 5:00:00 PM 4.7 40.46 0.503 8.46 18.6 13.45
12/18/2020 5:15:00 PM 4.68 40.424 0.505 8.45 17.49 13.36
12/18/2020 5:30:00 PM 4.66 40.388 0.505 8.43 18 13.23
12/18/2020 5:45:00 PM 4.64 40.352 0.506 8.42 17.63 13.14
12/18/2020 6:00:00 PM 4.62 40.316 0.506 8.41 17.83 13.03
12/18/2020 6:15:00 PM 4.59 40.262 0.506 8.4 17.82 12.96
12/18/2020 6:30:00 PM 4.56 40.208 0.507 8.39 17.82 12.89
12/18/2020 6:45:00 PM 4.54 40.172 0.507 8.38 17.87 12.81
12/18/2020 7:00:00 PM 4.52 40.136 0.507 8.37 17.93 12.78
12/18/2020 7:15:00 PM 4.49 40.082 0.508 8.36 18.19 12.74
12/18/2020 7:30:00 PM 4.45 40.01 0.508 8.35 18.21 12.71
12/18/2020 7:45:00 PM 4.42 39.956 0.508 8.34 18.35 12.69
12/18/2020 8:00:00 PM 4.38 39.884 0.509 8.34 18.11 12.68
12/18/2020 8:15:00 PM 4.34 39.812 0.509 8.33 18.15 12.67
12/18/2020 8:30:00 PM 4.3 39.74 0.509 8.32 18.21 12.67
12/18/2020 8:45:00 PM 4.25 39.65 0.509 8.32 18.26 12.67
12/18/2020 9:00:00 PM 4.2 39.56 0.509 8.31 18.6 12.68
12/18/2020 9:15:00 PM 4.13 39.434 0.51 8.31 18.74 12.69
12/18/2020 9:30:00 PM 4.06 39.308 0.51 8.31 18.97 12.7
12/18/2020 9:45:00 PM 3.97 39.146 0.51 8.3 18.77 12.72
12/18/2020 10:00:00 PM 3.88 38.984 0.51 8.3 19.41 12.73
12/18/2020 10:15:00 PM 3.79 38.822 0.51 8.29 19.84 12.76
12/18/2020 10:30:00 PM 3.69 38.642 0.51 8.29 19.83 12.81
12/18/2020 10:45:00 PM 3.58 38.444 0.51 8.29 20.22 12.84
12/18/2020 11:00:00 PM 3.48 38.264 0.51 8.29 20.43 12.88
12/18/2020 11:15:00 PM 3.38 38.084 0.511 8.29 20.79 12.92
12/18/2020 11:30:00 PM 3.28 37.904 0.511 8.28 20.93 12.94
12/18/2020 11:45:00 PM 3.18 37.724 0.511 8.28 20.08 12.98
12/19/2020 12:00:00 AM 3.08 37.544 0.512 8.28 20.32 13.04
12/19/2020 12:15:00 AM 2.98 37.364 0.512 8.28 19.78 13.1
12/19/2020 12:30:00 AM 2.89 37.202 0.512 8.28 19.66 13.12
12/19/2020 12:45:00 AM 2.8 37.04 0.512 8.28 19.81 13.17
12/19/2020 1:00:00 AM 2.71 36.878 0.513 8.27 19.65 13.19
12/19/2020 1:15:00 AM 2.62 36.716 0.513 8.27 19.78 13.22
12/19/2020 1:30:00 AM 2.53 36.554 0.513 8.27 20.21 13.27
12/19/2020 1:45:00 AM 2.45 36.41 0.513 8.27 20.59 13.31
12/19/2020 2:00:00 AM 2.37 36.266 0.513 8.27 20.82 13.35
12/19/2020 2:15:00 AM 2.29 36.122 0.513 8.27 20.78 13.38
12/19/2020 2:30:00 AM 2.21 35.978 0.514 8.26 21.28 13.41
12/19/2020 2:45:00 AM 2.13 35.834 0.514 8.26 21.17 13.43
12/19/2020 3:00:00 AM 2.04 35.672 0.514 8.26 21.68 13.45
12/19/2020 3:15:00 AM 1.96 35.528 0.514 8.26 21.47 13.49
12/19/2020 3:30:00 AM 1.88 35.384 0.514 8.26 22.59 13.54
12/19/2020 3:45:00 AM 1.81 35.258 0.514 8.26 22.47 13.57
12/19/2020 4:00:00 AM 1.73 35.114 0.514 8.26 22.37 13.61
12/19/2020 4:15:00 AM 1.66 34.988 0.515 8.26 23.01 13.65
12/19/2020 4:30:00 AM 1.58 34.844 0.515 8.26 23.12 13.68
12/19/2020 4:45:00 AM 1.51 34.718 0.515 8.26 23.11 13.71
12/19/2020 5:00:00 AM 1.44 34.592 0.515 8.26 23.61 13.73
12/19/2020 5:15:00 AM 1.38 34.484 0.515 8.26 24.1 13.76
12/19/2020 5:30:00 AM 1.31 34.358 0.516 8.26 23.14 13.8
12/19/2020 5:45:00 AM 1.25 34.25 0.516 8.26 22.69 13.83
12/19/2020 6:00:00 AM 1.19 34.142 0.516 8.26 22.48 13.86
12/19/2020 6:15:00 AM 1.14 34.052 0.517 8.26 22.47 13.89
12/19/2020 6:30:00 AM 1.08 33.944 0.517 8.26 22.67 13.91
12/19/2020 6:45:00 AM 1.04 33.872 0.518 8.26 23.09 13.94
12/19/2020 7:00:00 AM 0.99 33.782 0.518 8.26 19.39 13.96
12/19/2020 7:15:00 AM 0.95 33.71 0.518 8.26 19.27 13.98
12/19/2020 7:30:00 AM 0.91 33.638 0.518 8.26 19.06 14.01
12/19/2020 7:45:00 AM 0.87 33.566 0.519 8.27 18.77 14.04
12/19/2020 8:00:00 AM 0.84 33.512 0.519 8.27 18.62 14.07
12/19/2020 8:15:00 AM 0.83 33.494 0.519 8.27 18.57 14.12
12/19/2020 8:30:00 AM 0.82 33.476 0.519 8.28 18.32 14.17
12/19/2020 8:45:00 AM 0.82 33.476 0.519 8.28 18.26 14.23
12/19/2020 9:00:00 AM 0.83 33.494 0.519 8.29 17.94 14.29
12/19/2020 9:15:00 AM 0.85 33.53 0.52 8.29 17.48 14.35
12/19/2020 9:30:00 AM 0.88 33.584 0.52 8.28 16.99 14.42
12/19/2020 9:45:00 AM 0.93 33.674 0.52 8.29 17.17 14.47
12/19/2020 10:00:00 AM 0.99 33.782 0.52 8.3 16.89 14.53
12/19/2020 10:15:00 AM 1.1 33.98 0.52 8.32 17.05 14.59
12/19/2020 10:30:00 AM 1.22 34.196 0.519 8.33 16.7 14.65
12/19/2020 10:45:00 AM 1.37 34.466 0.519 8.34 17.34 14.69
12/19/2020 11:00:00 AM 1.53 34.754 0.518 8.35 17.71 14.76
12/19/2020 11:15:00 AM 1.67 35.006 0.518 8.36 17.51 14.82
12/19/2020 11:30:00 AM 1.83 35.294 0.517 8.37 17.21 14.86
12/19/2020 11:45:00 AM 1.97 35.546 0.517 8.38 17.32 14.88
12/19/2020 12:00:00 PM 2.13 35.834 0.517 8.39 16.91 14.93
12/19/2020 12:15:00 PM 2.27 36.086 0.516 8.4 17.19 14.95
12/19/2020 12:30:00 PM 2.41 36.338 0.516 8.41 17.06 14.96
12/19/2020 12:45:00 PM 2.55 36.59 0.516 8.42 16.95 14.96
12/19/2020 1:00:00 PM 2.68 36.824 0.515 8.43 16.65 14.99
12/19/2020 1:15:00 PM 2.8 37.04 0.515 8.44 16.41 15.02
12/19/2020 1:30:00 PM 2.91 37.238 0.515 8.45 16.58 15.02
12/19/2020 1:45:00 PM 3.01 37.418 0.514 8.46 16.42 15.01
12/19/2020 2:00:00 PM 3.09 37.562 0.514 8.47 16.74 14.98
12/19/2020 2:15:00 PM 3.17 37.706 0.514 8.47 16.34 14.94
12/19/2020 2:30:00 PM 3.24 37.832 0.514 8.48 16.5 14.9
12/19/2020 2:45:00 PM 3.3 37.94 0.513 8.49 16.22 14.87
12/19/2020 3:00:00 PM 3.37 38.066 0.513 8.49 16.42 14.83
12/19/2020 3:15:00 PM 3.42 38.156 0.513 8.5 16.48 14.78
12/19/2020 3:30:00 PM 3.47 38.246 0.513 8.5 16.15 14.71
12/19/2020 3:45:00 PM 3.51 38.318 0.513 8.5 16.1 14.63
12/19/2020 4:00:00 PM 3.54 38.372 0.513 8.5 16.09 14.54
12/19/2020 4:15:00 PM 3.57 38.426 0.513 8.5 16.19 14.42
12/19/2020 4:30:00 PM 3.59 38.462 0.513 8.5 16.15 14.29
12/19/2020 4:45:00 PM 3.61 38.498 0.515 8.49 15.41 14.14
12/19/2020 5:00:00 PM 3.64 38.552 0.515 8.47 15.53 14
12/19/2020 5:15:00 PM 3.68 38.624 0.516 8.46 15.59 13.85
12/19/2020 5:30:00 PM 3.72 38.696 0.516 8.45 15.71 13.71
12/19/2020 5:45:00 PM 3.77 38.786 0.516 8.43 16.33 13.57
12/19/2020 6:00:00 PM 3.81 38.858 0.517 8.42 16.34 13.45
12/19/2020 6:15:00 PM 3.82 38.876 0.517 8.4 16.12 13.34
12/19/2020 6:30:00 PM 3.83 38.894 0.517 8.39 15.9 13.24
12/19/2020 6:45:00 PM 3.83 38.894 0.518 8.38 16.08 13.15
12/19/2020 7:00:00 PM 3.83 38.894 0.518 8.37 16.26 13.08
12/19/2020 7:15:00 PM 3.83 38.894 0.519 8.36 16.23 13.02
12/19/2020 7:30:00 PM 3.83 38.894 0.519 8.35 16.25 12.97
12/19/2020 7:45:00 PM 3.82 38.876 0.519 8.34 16.46 12.93
12/19/2020 8:00:00 PM 3.8 38.84 0.52 8.34 16.29 12.9
12/19/2020 8:15:00 PM 3.79 38.822 0.52 8.33 16.59 12.88
12/19/2020 8:30:00 PM 3.78 38.804 0.52 8.33 16.4 12.87
12/19/2020 8:45:00 PM 3.76 38.768 0.52 8.32 15.98 12.86
12/19/2020 9:00:00 PM 3.73 38.714 0.52 8.32 15.94 12.86
12/19/2020 9:15:00 PM 3.71 38.678 0.52 8.32 16 12.86
12/19/2020 9:30:00 PM 3.69 38.642 0.52 8.31 15.98 12.86
12/19/2020 9:45:00 PM 3.68 38.624 0.52 8.31 16.03 12.87
12/19/2020 10:00:00 PM 3.67 38.606 0.52 8.31 16.45 12.87
12/19/2020 10:15:00 PM 3.65 38.57 0.52 8.3 16.22 12.88
12/19/2020 10:30:00 PM 3.62 38.516 0.52 8.3 16.44 12.89
12/19/2020 10:45:00 PM 3.6 38.48 0.52 8.3 16.22 12.91
12/19/2020 11:00:00 PM 3.57 38.426 0.52 8.3 16.7 12.92
12/19/2020 11:15:00 PM 3.55 38.39 0.519 8.29 16.18 12.94
12/19/2020 11:30:00 PM 3.52 38.336 0.519 8.29 16.56 12.94
12/19/2020 11:45:00 PM 3.49 38.282 0.519 8.29 16.62 12.95
12/20/2020 12:00:00 AM 3.48 38.264 0.519 8.29 16.54 12.96
12/20/2020 12:15:00 AM 3.46 38.228 0.519 8.29 16.64 12.97
12/20/2020 12:30:00 AM 3.44 38.192 0.519 8.28 16.57 12.97
12/20/2020 12:45:00 AM 3.43 38.174 0.519 8.28 16.52 12.98
12/20/2020 1:00:00 AM 3.41 38.138 0.519 8.28 35.35 12.99
12/20/2020 1:15:00 AM 3.39 38.102 0.518 8.28 16.7 12.99
12/20/2020 1:30:00 AM 3.37 38.066 0.518 8.27 15.78 13
12/20/2020 1:45:00 AM 3.36 38.048 0.518 8.27 15.36 13.01
12/20/2020 2:00:00 AM 3.35 38.03 0.518 8.27 15.87 13.02
12/20/2020 2:15:00 AM 3.34 38.012 0.518 8.27 15.7 13.01
12/20/2020 2:30:00 AM 3.32 37.976 0.518 8.27 15.58 13.02
12/20/2020 2:45:00 AM 3.3 37.94 0.518 8.27 16.05 13.03
12/20/2020 3:00:00 AM 3.28 37.904 0.518 8.27 15.99 13.02
12/20/2020 3:15:00 AM 3.27 37.886 0.518 8.26 16.67 13.03
12/20/2020 3:30:00 AM 3.28 37.904 0.518 8.26 17.08 13.03
12/20/2020 3:45:00 AM 3.28 37.904 0.518 8.26 17.02 13.03
12/20/2020 4:00:00 AM 3.29 37.922 0.518 8.26 16.97 13.02
12/20/2020 4:15:00 AM 3.29 37.922 0.518 8.26 17.69 13.02
12/20/2020 4:30:00 AM 3.3 37.94 0.518 8.26 17.26 13.03
12/20/2020 4:45:00 AM 3.3 37.94 0.518 8.26 18.78 13.02
12/20/2020 5:00:00 AM 3.31 37.958 0.518 8.26 16.53 13.02
12/20/2020 5:15:00 AM 3.33 37.994 0.518 8.26 16.38 13.02
12/20/2020 5:30:00 AM 3.34 38.012 0.518 8.26 16.4 13.03
12/20/2020 5:45:00 AM 3.35 38.03 0.518 8.26 16.35 13.02
12/20/2020 6:00:00 AM 3.37 38.066 0.518 8.26 16.32 13.01
12/20/2020 6:15:00 AM 3.39 38.102 0.518 8.26 16.46 13
12/20/2020 6:30:00 AM 3.41 38.138 0.518 8.26 16.3 13
12/20/2020 6:45:00 AM 3.44 38.192 0.518 8.26 16.28 12.99
12/20/2020 7:00:00 AM 3.46 38.228 0.518 8.26 16.43 12.98
12/20/2020 7:15:00 AM 3.48 38.264 0.519 8.26 16.46 12.97
12/20/2020 7:30:00 AM 3.51 38.318 0.519 8.26 15.08 12.97
12/20/2020 7:45:00 AM 3.53 38.354 0.519 8.26 14.86 12.96
12/20/2020 8:00:00 AM 3.55 38.39 0.519 8.26 14.84 12.96
12/20/2020 8:15:00 AM 3.58 38.444 0.519 8.26 14.54 12.97
12/20/2020 8:30:00 AM 3.62 38.516 0.519 8.27 14.81 12.99
12/20/2020 8:45:00 AM 3.67 38.606 0.519 8.27 14.81 13.04
12/20/2020 9:00:00 AM 3.73 38.714 0.519 8.28 14.9 13.09
12/20/2020 9:15:00 AM 3.79 38.822 0.519 8.29 14.83 13.13
12/20/2020 9:30:00 AM 3.87 38.966 0.518 8.29 14.65 13.2
12/20/2020 9:45:00 AM 3.95 39.11 0.518 8.3 16.22 13.28
12/20/2020 10:00:00 AM 4.06 39.308 0.517 8.31 15.11 13.35
12/20/2020 10:15:00 AM 4.19 39.542 0.517 8.33 14.69 13.45
12/20/2020 10:30:00 AM 4.32 39.776 0.516 8.34 14.61 13.53
12/20/2020 10:45:00 AM 4.45 40.01 0.516 8.35 14.52 13.6
12/20/2020 11:00:00 AM 4.53 40.154 0.515 8.37 14.34 13.67
12/20/2020 11:15:00 AM 4.61 40.298 0.515 8.38 14.6 13.7
12/20/2020 11:30:00 AM 4.67 40.406 0.514 8.39 14.34 13.72
12/20/2020 11:45:00 AM 4.78 40.604 0.514 8.4 14.08 13.77
12/20/2020 12:00:00 PM 4.9 40.82 0.513 8.42 14.15 13.82
12/20/2020 12:15:00 PM 5.01 41.018 0.512 8.43 13.86 13.87
12/20/2020 12:30:00 PM 5.11 41.198 0.511 8.45 14.04 13.92
12/20/2020 12:45:00 PM 5.2 41.36 0.511 8.46 13.95 13.97
12/20/2020 1:00:00 PM 5.27 41.486 0.51 8.47 14.09 13.95
12/20/2020 1:15:00 PM 5.33 41.594 0.51 8.48 14.22 13.95
12/20/2020 1:30:00 PM 5.4 41.72 0.51 8.49 14.62 13.94
12/20/2020 1:45:00 PM 5.48 41.864 0.509 8.49 14.69 13.92
12/20/2020 2:00:00 PM 5.56 42.008 0.509 8.5 14.69 13.92
12/20/2020 2:15:00 PM 5.62 42.116 0.508 8.5 14.91 13.89
12/20/2020 2:30:00 PM 5.7 42.26 0.508 8.51 14.88 13.87
12/20/2020 2:45:00 PM 5.76 42.368 0.508 8.51 14.89 13.86
12/20/2020 3:00:00 PM 5.8 42.44 0.508 8.51 14.93 13.83
12/20/2020 3:15:00 PM 5.81 42.458 0.507 8.51 15.04 13.75
12/20/2020 3:30:00 PM 5.85 42.53 0.507 8.51 15.26 13.69
12/20/2020 3:45:00 PM 5.87 42.566 0.507 8.51 15.08 13.6
12/20/2020 4:00:00 PM 5.9 42.62 0.507 8.51 15.03 13.51
12/20/2020 4:15:00 PM 5.94 42.692 0.507 8.51 14.89 13.41
12/20/2020 4:30:00 PM 5.98 42.764 0.507 8.5 15.29 13.29
12/20/2020 4:45:00 PM 6 42.8 0.507 8.49 14.79 13.16
12/20/2020 5:00:00 PM 6.02 42.836 0.507 8.48 14.51 13.03
12/20/2020 5:15:00 PM 6.03 42.854 0.507 8.47 14.81 12.9
12/20/2020 5:30:00 PM 6.02 42.836 0.508 8.46 15.02 12.78
12/20/2020 5:45:00 PM 6.01 42.818 0.508 8.44 15.1 12.67
12/20/2020 6:00:00 PM 6.01 42.818 0.508 8.43 15.11 12.56
12/20/2020 6:15:00 PM 6 42.8 0.508 8.42 14.98 12.47
12/20/2020 6:30:00 PM 6.01 42.818 0.509 8.4 15.42 12.38
12/20/2020 6:45:00 PM 6.03 42.854 0.509 8.39 15.29 12.31
12/20/2020 7:00:00 PM 6.03 42.854 0.509 8.38 15.45 12.25
12/20/2020 7:15:00 PM 6.04 42.872 0.509 8.37 14.52 12.19
12/20/2020 7:30:00 PM 6.05 42.89 0.509 8.36 16.47 12.15
12/20/2020 7:45:00 PM 6.05 42.89 0.51 8.35 16.49 12.11
12/20/2020 8:00:00 PM 6.06 42.908 0.51 8.34 14 12.08
12/20/2020 8:15:00 PM 6.06 42.908 0.51 8.33 14.23 12.05
12/20/2020 8:30:00 PM 6.06 42.908 0.509 8.33 15.78 12.03
12/20/2020 8:45:00 PM 6.07 42.926 0.51 8.32 14.24 12.01
12/20/2020 9:00:00 PM 6.07 42.926 0.509 8.32 14.14 11.98
12/20/2020 9:15:00 PM 6.07 42.926 0.51 8.31 14.66 11.97
12/20/2020 9:30:00 PM 6.07 42.926 0.509 8.31 14.16 11.97
12/20/2020 9:45:00 PM 6.07 42.926 0.509 8.3 14.24 11.95
12/20/2020 10:00:00 PM 6.07 42.926 0.509 8.3 14.17 11.94
12/20/2020 10:15:00 PM 6.06 42.908 0.509 8.29 13.82 11.95
12/20/2020 10:30:00 PM 6.05 42.89 0.509 8.29 13.8 11.95
12/20/2020 10:45:00 PM 6.04 42.872 0.508 8.29 13.86 11.95
12/20/2020 11:00:00 PM 6.02 42.836 0.508 8.28 13.92 11.96
12/20/2020 11:15:00 PM 6 42.8 0.508 8.28 14.13 11.96
12/20/2020 11:30:00 PM 5.98 42.764 0.509 8.28 13.75 11.96
12/20/2020 11:45:00 PM 5.97 42.746 0.508 8.27 14.02 11.97
12/21/2020 12:00:00 AM 5.95 42.71 0.508 8.27 13.97 11.97
12/21/2020 12:15:00 AM 5.93 42.674 0.508 8.27 14.16 11.98
12/21/2020 12:30:00 AM 5.91 42.638 0.508 8.26 14.16 11.98
12/21/2020 12:45:00 AM 5.9 42.62 0.508 8.26 14.25 11.98
12/21/2020 1:00:00 AM 5.88 42.584 0.508 8.26 14.05 11.98
12/21/2020 1:15:00 AM 5.87 42.566 0.508 8.26 14.15 11.98
12/21/2020 1:30:00 AM 5.86 42.548 0.508 8.25 14.26 11.98
12/21/2020 1:45:00 AM 5.84 42.512 0.508 8.25 14.4 11.98
12/21/2020 2:00:00 AM 5.84 42.512 0.508 8.25 14.48 11.98
12/21/2020 2:15:00 AM 5.83 42.494 0.507 8.25 419.86 11.98
12/21/2020 2:30:00 AM 5.82 42.476 0.507 8.24 15.04 11.98
12/21/2020 2:45:00 AM 5.81 42.458 0.507 8.24 15.28 11.97
12/21/2020 3:00:00 AM 5.81 42.458 0.507 8.24 15.31 11.95
12/21/2020 3:15:00 AM 5.8 42.44 0.507 8.24 15.42 11.97
12/21/2020 3:30:00 AM 5.79 42.422 0.506 8.24 15.06 11.97
12/21/2020 3:45:00 AM 5.79 42.422 0.506 8.24 15.25 11.96
12/21/2020 4:00:00 AM 5.78 42.404 0.506 8.23 15.4 11.97
12/21/2020 4:15:00 AM 5.77 42.386 0.506 8.23 15.31 11.97
12/21/2020 4:30:00 AM 5.77 42.386 0.505 8.23 15.26 11.98
12/21/2020 4:45:00 AM 5.76 42.368 0.505 8.23 15.43 11.98
12/21/2020 5:00:00 AM 5.74 42.332 0.505 8.23 15.45 11.98
12/21/2020 5:15:00 AM 5.73 42.314 0.505 8.23 15.33 11.98
12/21/2020 5:30:00 AM 5.72 42.296 0.505 8.23 15.43 11.99
12/21/2020 5:45:00 AM 5.72 42.296 0.505 8.23 15.44 11.99
12/21/2020 6:00:00 AM 5.72 42.296 0.505 8.23 15.52 12
12/21/2020 6:15:00 AM 5.72 42.296 0.505 8.23 15.27 12
12/21/2020 6:30:00 AM 5.72 42.296 0.505 8.23 15.44 12
12/21/2020 6:45:00 AM 5.71 42.278 0.505 8.23 15.45 12
12/21/2020 7:00:00 AM 5.71 42.278 0.504 8.23 15.31 12
12/21/2020 7:15:00 AM 5.72 42.296 0.506 8.23 14.06 11.97
12/21/2020 7:30:00 AM 5.72 42.296 0.506 8.24 14.04 11.95
12/21/2020 7:45:00 AM 5.72 42.296 0.505 8.24 14.22 10.17
12/21/2020 8:00:00 AM 5.73 42.314 0.506 8.24 13.85 11.98
12/21/2020 8:15:00 AM 5.74 42.332 0.505 8.24 13.89 12.04
12/21/2020 8:30:00 AM 5.75 42.35 0.505 8.24 13.57 12.08
12/21/2020 8:45:00 AM 5.8 42.44 0.505 8.25 13.52 12.17
12/21/2020 9:00:00 AM 5.83 42.494 0.505 8.26 13.49 12.24
12/21/2020 9:15:00 AM 5.86 42.548 0.504 8.27 13.6 12.3
12/21/2020 9:30:00 AM 5.88 42.584 0.504 8.27 13.35 12.38
12/21/2020 9:45:00 AM 5.95 42.71 0.504 8.28 13.38 12.5
12/21/2020 10:00:00 AM 6.02 42.836 0.503 8.3 13.44 12.61
12/21/2020 10:15:00 AM 6.08 42.944 0.503 8.31 13.27 12.71
12/21/2020 10:30:00 AM 6.14 43.052 0.503 8.33 13.42 12.81
12/21/2020 10:45:00 AM 6.18 43.124 0.502 8.34 13.14 12.9
12/21/2020 11:00:00 AM 6.25 43.25 0.502 8.36 13.08 12.97
12/21/2020 11:15:00 AM 6.3 43.34 0.501 8.37 13.1 13.06
12/21/2020 11:30:00 AM 6.38 43.484 0.501 8.39 12.94 13.17
12/21/2020 11:45:00 AM 6.47 43.646 0.5 8.4 13.07 13.29
12/21/2020 12:00:00 PM 6.57 43.826 0.5 8.42 12.89 13.38
12/21/2020 12:15:00 PM 6.64 43.952 0.499 8.44 13.01 13.45
12/21/2020 12:30:00 PM 6.72 44.096 0.498 8.46 13.16 13.52
12/21/2020 12:45:00 PM 6.79 44.222 0.497 8.47 13.09 13.56
12/21/2020 1:00:00 PM 6.84 44.312 0.497 8.49 13.38 13.58
12/21/2020 1:15:00 PM 6.9 44.42 0.496 8.5 13.14 13.62
12/21/2020 1:30:00 PM 6.95 44.51 0.495 8.52 13.28 13.64
12/21/2020 1:45:00 PM 7 44.6 0.495 8.53 13.07 13.67
12/21/2020 2:00:00 PM 7.05 44.69 0.494 8.54 13.2 13.69
12/21/2020 2:15:00 PM 7.08 44.744 0.493 8.55 13.21 13.67
12/21/2020 2:30:00 PM 7.11 44.798 0.493 8.55 13.25 13.64
12/21/2020 2:45:00 PM 7.14 44.852 0.493 8.56 13.24 13.62
12/21/2020 3:00:00 PM 7.16 44.888 0.492 8.56 13.17 13.61
12/21/2020 3:15:00 PM 7.17 44.906 0.492 8.56 13.38 13.54
12/21/2020 3:30:00 PM 7.18 44.924 0.492 8.56 13.35 13.47
12/21/2020 3:45:00 PM 7.2 44.96 0.491 8.55 13.63 13.37
12/21/2020 4:00:00 PM 7.2 44.96 0.491 8.55 13.41 13.25
12/21/2020 4:15:00 PM 7.19 44.942 0.491 8.54 13.33 13.09
12/21/2020 4:30:00 PM 7.18 44.924 0.491 8.53 13.27 12.96
12/21/2020 4:45:00 PM 7.17 44.906 0.491 8.51 13.31 12.81
12/21/2020 5:00:00 PM 7.16 44.888 0.492 8.5 13.34 12.65
12/21/2020 5:15:00 PM 7.16 44.888 0.492 8.48 13.52 12.51
12/21/2020 5:30:00 PM 7.16 44.888 0.492 8.46 13.71 12.37
12/21/2020 5:45:00 PM 7.15 44.87 0.492 8.45 13.69 12.25
12/21/2020 6:00:00 PM 7.15 44.87 0.492 8.43 13.43 12.14
12/21/2020 6:15:00 PM 7.14 44.852 0.493 8.41 13.74 12.03
12/21/2020 6:30:00 PM 7.13 44.834 0.493 8.39 13.53 11.93
12/21/2020 6:45:00 PM 7.12 44.816 0.493 8.37 13.81 11.83
12/21/2020 7:00:00 PM 7.11 44.798 0.493 8.36 13.95 11.78
12/21/2020 7:15:00 PM 7.09 44.762 0.493 8.34 14.06 11.72
12/21/2020 7:30:00 PM 7.06 44.708 0.493 8.33 13.97 11.69
12/21/2020 7:45:00 PM 7.02 44.636 0.494 8.32 14.16 11.66
12/21/2020 8:00:00 PM 6.98 44.564 0.494 8.31 14.35 11.62
12/21/2020 8:15:00 PM 6.93 44.474 0.494 8.3 14.4 11.6
12/21/2020 8:30:00 PM 6.89 44.402 0.494 8.29 14.27 11.59
12/21/2020 8:45:00 PM 6.86 44.348 0.494 8.28 14.43 11.58
12/21/2020 9:00:00 PM 6.83 44.294 0.494 8.27 14.32 11.57
12/21/2020 9:15:00 PM 6.78 44.204 0.494 8.26 14.7 11.56
12/21/2020 9:30:00 PM 6.74 44.132 0.493 8.26 14.83 11.57
12/21/2020 9:45:00 PM 6.69 44.042 0.493 8.25 14.76 11.58
12/21/2020 10:00:00 PM 6.64 43.952 0.493 8.25 14.59 11.58
12/21/2020 10:15:00 PM 6.6 43.88 0.493 8.24 14.89 11.58
12/21/2020 10:30:00 PM 6.56 43.808 0.493 8.24 14.81 11.58
12/21/2020 10:45:00 PM 6.52 43.736 0.493 8.23 14.71 11.6
12/21/2020 11:00:00 PM 6.48 43.664 0.493 8.23 14.83 11.61
12/21/2020 11:15:00 PM 6.43 43.574 0.492 8.22 14.78 11.52
12/21/2020 11:30:00 PM 6.39 43.502 0.492 8.22 15.12 11.55
12/21/2020 11:45:00 PM 6.35 43.43 0.492 8.22 14.86 11.58
12/22/2020 12:00:00 AM 6.31 43.358 0.491 8.21 14.91 11.63
12/22/2020 12:15:00 AM 6.28 43.304 0.491 8.21 15.14 11.65
12/22/2020 12:30:00 AM 6.25 43.25 0.491 8.21 15.29 11.64
12/22/2020 12:45:00 AM 6.22 43.196 0.491 8.21 15.22 11.66
12/22/2020 1:00:00 AM 6.19 43.142 0.491 8.2 15.42 11.64
12/22/2020 1:15:00 AM 6.15 43.07 0.491 8.2 15.6 11.66
12/22/2020 1:30:00 AM 6.12 43.016 0.491 8.2 15.7 11.65
12/22/2020 1:45:00 AM 6.08 42.944 0.49 8.2 15.88 11.68
12/22/2020 2:00:00 AM 6.05 42.89 0.49 8.19 15.75 11.72
12/22/2020 2:15:00 AM 6.03 42.854 0.49 8.19 15.59 11.75
12/22/2020 2:30:00 AM 6.01 42.818 0.489 8.19 15.89 11.75
12/22/2020 2:45:00 AM 5.99 42.782 0.489 8.19 15.72 11.75
12/22/2020 3:00:00 AM 5.98 42.764 0.488 8.19 15.51 11.74
12/22/2020 3:15:00 AM 5.96 42.728 0.488 8.19 15.67 11.7
12/22/2020 3:30:00 AM 5.94 42.692 0.488 8.19 15.9 11.7
12/22/2020 3:45:00 AM 5.93 42.674 0.487 8.18 15.58 11.75
12/22/2020 4:00:00 AM 5.92 42.656 0.487 8.18 15.73 11.78
12/22/2020 4:15:00 AM 5.9 42.62 0.486 8.18 16.02 11.8
12/22/2020 4:30:00 AM 5.89 42.602 0.486 8.18 16.01 11.8
12/22/2020 4:45:00 AM 5.89 42.602 0.486 8.18 15.59 11.81
12/22/2020 5:00:00 AM 5.88 42.584 0.485 8.18 15.95 11.81
12/22/2020 5:15:00 AM 5.87 42.566 0.485 8.18 15.83 11.78
12/22/2020 5:30:00 AM 5.87 42.566 0.485 8.18 15.85 11.8
12/22/2020 5:45:00 AM 5.87 42.566 0.484 8.18 15.58 11.78
12/22/2020 6:00:00 AM 5.87 42.566 0.484 8.18 16.23 11.8
12/22/2020 6:15:00 AM 5.88 42.584 0.484 8.18 16.24 11.78
12/22/2020 6:30:00 AM 5.88 42.584 0.484 8.18 16.45 11.78
12/22/2020 6:45:00 AM 5.88 42.584 0.485 8.18 16.22 11.78
12/22/2020 7:00:00 AM 5.88 42.584 0.485 8.18 16.49 11.75
12/22/2020 7:15:00 AM 5.89 42.602 0.485 8.18 14.99 11.84
12/22/2020 7:30:00 AM 5.89 42.602 0.485 8.18 15.1 11.84
12/22/2020 7:45:00 AM 5.89 42.602 0.485 8.18 15.11 11.85
12/22/2020 8:00:00 AM 5.9 42.62 0.485 8.18 15.16 11.86
12/22/2020 8:15:00 AM 5.92 42.656 0.485 8.19 14.87 11.88
12/22/2020 8:30:00 AM 5.94 42.692 0.486 8.19 14.98 11.94
12/22/2020 8:45:00 AM 5.98 42.764 0.485 8.2 14.66 11.99
12/22/2020 9:00:00 AM 6.01 42.818 0.485 8.21 14.58 12.1
12/22/2020 9:15:00 AM 6.05 42.89 0.485 8.22 14.52 12.14
12/22/2020 9:30:00 AM 6.06 42.908 0.485 8.23 14.55 12.3
12/22/2020 9:45:00 AM 6.12 43.016 0.485 8.24 14.18 12.35
12/22/2020 10:00:00 AM 6.19 43.142 0.484 8.25 14.31 12.49
12/22/2020 10:15:00 AM 6.26 43.268 0.484 8.27 14.4 12.53
12/22/2020 10:30:00 AM 6.28 43.304 0.484 8.28 14.21 12.67
12/22/2020 10:45:00 AM 6.33 43.394 0.483 8.29 14.23 12.64
12/22/2020 11:00:00 AM 6.36 43.448 0.483 8.31 14.24 12.84
12/22/2020 11:15:00 AM 6.54 43.772 0.482 8.32 14.02 12.96
12/22/2020 11:30:00 AM 6.62 43.916 0.481 8.34 14.03 13.08
12/22/2020 11:45:00 AM 6.69 44.042 0.48 8.36 13.97 13.17
12/22/2020 12:00:00 PM 6.66 43.988 0.48 8.38 14.11 13.22
12/22/2020 12:15:00 PM 6.69 44.042 0.479 8.39 14.28 13.24
12/22/2020 12:30:00 PM 6.76 44.168 0.478 8.39 13.87 13.28
12/22/2020 12:45:00 PM 6.85 44.33 0.478 8.41 13.92 13.35
12/22/2020 1:00:00 PM 6.87 44.366 0.477 8.42 13.95 13.38
12/22/2020 1:15:00 PM 6.97 44.546 0.476 8.43 13.86 13.41
12/22/2020 1:30:00 PM 7.05 44.69 0.475 8.44 14.17 13.47
12/22/2020 1:45:00 PM 7.07 44.726 0.474 8.45 14.4 13.46
12/22/2020 2:00:00 PM 7.09 44.762 0.473 8.46 14.41 13.49
12/22/2020 2:15:00 PM 7.12 44.816 0.473 8.46 14.32 13.47
12/22/2020 2:30:00 PM 7.17 44.906 0.472 8.47 14.84 13.45
12/22/2020 2:45:00 PM 7.2 44.96 0.471 8.47 14.84 13.43
12/22/2020 3:00:00 PM 7.23 45.014 0.47 8.47 14.95 13.32
12/22/2020 3:15:00 PM 7.23 45.014 0.47 8.47 14.83 13.29
12/22/2020 3:30:00 PM 7.24 45.032 0.469 8.46 14.68 13.23
12/22/2020 3:45:00 PM 7.25 45.05 0.469 8.46 15.15 13.15
12/22/2020 4:00:00 PM 7.24 45.032 0.468 8.45 14.96 13.08
12/22/2020 4:15:00 PM 7.23 45.014 0.468 8.44 15.64 12.97
12/22/2020 4:30:00 PM 7.19 44.942 0.467 8.42 15.68 12.75
12/22/2020 4:45:00 PM 7.17 44.906 0.467 8.4 15.65 12.67
12/22/2020 5:00:00 PM 7.18 44.924 0.466 8.38 16.73 12.52
12/22/2020 5:15:00 PM 7.15 44.87 0.465 8.36 17.03 12.37
12/22/2020 5:30:00 PM 7.12 44.816 0.464 8.34 17.37 12.24
12/22/2020 5:45:00 PM 7.1 44.78 0.462 8.32 17.8 12.14
12/22/2020 6:00:00 PM 7.06 44.708 0.461 8.29 18.24 12.03
12/22/2020 6:15:00 PM 7.03 44.654 0.459 8.27 18.79 11.93
12/22/2020 6:30:00 PM 6.99 44.582 0.456 8.25 19.15 11.83
12/22/2020 6:45:00 PM 6.95 44.51 0.454 8.24 20.14 11.79
12/22/2020 7:00:00 PM 6.89 44.402 0.451 8.22 20.34 11.73
12/22/2020 7:15:00 PM 6.82 44.276 0.449 8.21 20.51 11.74
12/22/2020 7:30:00 PM 6.73 44.114 0.447 8.2 21.67 11.77
12/22/2020 7:45:00 PM 6.65 43.97 0.446 8.19 21.99 11.77
12/22/2020 8:00:00 PM 6.56 43.808 0.444 8.18 20.94 11.8
12/22/2020 8:15:00 PM 6.48 43.664 0.443 8.18 22.27 11.8
12/22/2020 8:30:00 PM 6.4 43.52 0.442 8.17 22.18 11.8
12/22/2020 8:45:00 PM 6.34 43.412 0.441 8.16 23.04 11.8
12/22/2020 9:00:00 PM 6.28 43.304 0.441 8.16 22.91 11.81
12/22/2020 9:15:00 PM 6.19 43.142 0.44 8.15 23.04 11.81
12/22/2020 9:30:00 PM 6.13 43.034 0.44 8.15 23.65 11.82
12/22/2020 9:45:00 PM 6.06 42.908 0.44 8.14 23.48 11.84
12/22/2020 10:00:00 PM 5.99 42.782 0.44 8.14 22.77 11.85
12/22/2020 10:15:00 PM 5.92 42.656 0.44 8.13 23.39 11.86
12/22/2020 10:30:00 PM 5.87 42.566 0.439 8.13 23.49 11.88
12/22/2020 10:45:00 PM 5.83 42.494 0.439 8.12 23.88 11.87
12/22/2020 11:00:00 PM 5.81 42.458 0.438 8.12 23.09 11.89
12/22/2020 11:15:00 PM 5.77 42.386 0.438 8.12 23.52 11.89
12/22/2020 11:30:00 PM 5.75 42.35 0.437 8.11 23.94 11.9
12/22/2020 11:45:00 PM 5.69 42.242 0.436 8.11 23.88 11.91
12/23/2020 12:00:00 AM 5.66 42.188 0.436 8.1 23.92 11.92
12/23/2020 12:15:00 AM 5.61 42.098 0.435 8.1 24.36 11.94
12/23/2020 12:30:00 AM 5.55 41.99 0.435 8.1 23.92 11.96
12/23/2020 12:45:00 AM 5.5 41.9 0.435 8.1 23.79 11.96
12/23/2020 1:00:00 AM 5.44 41.792 0.435 8.1 23.27 11.94
12/23/2020 1:15:00 AM 5.39 41.702 0.435 8.1 23.78 11.95
12/23/2020 1:30:00 AM 5.33 41.594 0.434 8.09 23.72 12.03
12/23/2020 1:45:00 AM 5.26 41.468 0.434 8.09 24.11 12.07
12/23/2020 2:00:00 AM 5.21 41.378 0.434 8.09 27.21 12.1
12/23/2020 2:15:00 AM 5.14 41.252 0.434 8.09 23.49 12.14
12/23/2020 2:30:00 AM 5.08 41.144 0.434 8.09 24.44 12.15
12/23/2020 2:45:00 AM 5.02 41.036 0.434 8.09 24.06 12.17
12/23/2020 3:00:00 AM 4.96 40.928 0.435 8.09 23.7 12.2
12/23/2020 3:15:00 AM 4.91 40.838 0.435 8.09 22.92 12.23
12/23/2020 3:30:00 AM 4.86 40.748 0.435 8.09 23 12.26
12/23/2020 3:45:00 AM 4.82 40.676 0.436 8.09 23.66 12.27
12/23/2020 4:00:00 AM 4.77 40.586 0.437 8.09 23.38 12.29
12/23/2020 4:15:00 AM 4.73 40.514 0.437 8.1 23.68 12.32
12/23/2020 4:30:00 AM 4.69 40.442 0.438 8.1 23.46 12.34
12/23/2020 4:45:00 AM 4.65 40.37 0.439 8.1 23.31 12.36
12/23/2020 5:00:00 AM 4.61 40.298 0.371 8.1 23.55 12.39
12/23/2020 5:15:00 AM 4.57 40.226 0.44 8.1 23.09 12.4
12/23/2020 5:30:00 AM 4.52 40.136 0.442 8.1 22.16 12.41
12/23/2020 5:45:00 AM 4.49 40.082 0.443 8.1 22.07 12.41
12/23/2020 6:00:00 AM 4.45 40.01 0.444 8.11 22.79 12.42
12/23/2020 6:15:00 AM 4.41 39.938 0.445 8.11 22.24 12.42
12/23/2020 6:30:00 AM 4.37 39.866 0.446 8.11 22.05 12.44
12/23/2020 6:45:00 AM 4.34 39.812 0.447 8.11 22.32 12.46
12/23/2020 7:00:00 AM 4.3 39.74 0.449 8.11 22.34 12.49
12/23/2020 7:15:00 AM 4.26 39.668 0.45 8.11 20.61 12.51
12/23/2020 7:30:00 AM 4.23 39.614 0.451 8.12 20.51 12.54
12/23/2020 7:45:00 AM 4.2 39.56 0.452 8.12 20.09 12.57
12/23/2020 8:00:00 AM 4.17 39.506 0.453 8.12 20.55 12.61
12/23/2020 8:15:00 AM 4.15 39.47 0.454 8.13 20.14 12.65
12/23/2020 8:30:00 AM 4.13 39.434 0.454 8.13 20.09 12.7
12/23/2020 8:45:00 AM 4.12 39.416 0.455 8.14 19.85 12.76
12/23/2020 9:00:00 AM 4.13 39.434 0.456 8.15 19.28 12.83
12/23/2020 9:15:00 AM 4.13 39.434 0.457 8.15 19.57 12.9
12/23/2020 9:30:00 AM 4.14 39.452 0.457 8.16 20.36 12.97
12/23/2020 9:45:00 AM 4.17 39.506 0.458 8.17 18.71 13.06
12/23/2020 10:00:00 AM 4.21 39.578 0.459 8.18 18.94 13.14
12/23/2020 10:15:00 AM 4.28 39.704 0.459 8.19 17.82 13.24
12/23/2020 10:30:00 AM 4.36 39.848 0.46 8.21 18.81 13.35
12/23/2020 10:45:00 AM 4.46 40.028 0.46 8.22 19.29 13.46
12/23/2020 11:00:00 AM 4.55 40.19 0.461 8.24 17.93 13.58
12/23/2020 11:15:00 AM 4.65 40.37 0.461 8.26 18.54 13.69
12/23/2020 11:30:00 AM 4.76 40.568 0.461 8.28 17.81 13.8
12/23/2020 11:45:00 AM 4.88 40.784 0.461 8.3 18.35 13.87
12/23/2020 12:00:00 PM 4.98 40.964 0.462 8.31 18.36 13.92
12/23/2020 12:15:00 PM 5.11 41.198 0.462 8.33 18.33 14
12/23/2020 12:30:00 PM 5.23 41.414 0.462 8.35 18.14 14.09
12/23/2020 12:45:00 PM 5.33 41.594 0.463 8.37 18.29 14.12
12/23/2020 1:00:00 PM 5.45 41.81 0.463 8.38 18.5 14.17
12/23/2020 1:15:00 PM 5.54 41.972 0.463 8.4 18.82 14.19
12/23/2020 1:30:00 PM 5.67 42.206 0.464 8.42 18.5 14.21
12/23/2020 1:45:00 PM 5.78 42.404 0.464 8.43 18.67 14.24
12/23/2020 2:00:00 PM 5.9 42.62 0.464 8.45 18.13 14.26
12/23/2020 2:15:00 PM 6.01 42.818 0.464 8.46 18.55 14.24
12/23/2020 2:30:00 PM 6.1 42.98 0.465 8.47 18.37 14.2
12/23/2020 2:45:00 PM 6.2 43.16 0.465 8.48 18.2 14.14
12/23/2020 3:00:00 PM 6.28 43.304 0.465 8.48 18.64 14.08
12/23/2020 3:15:00 PM 6.33 43.394 0.466 8.49 18.18 13.97
12/23/2020 3:30:00 PM 6.39 43.502 0.466 8.48 18.99 13.88
12/23/2020 3:45:00 PM 6.45 43.61 0.467 8.48 18.75 13.8
12/23/2020 4:00:00 PM 6.48 43.664 0.467 8.48 18.33 13.68
12/23/2020 4:15:00 PM 6.5 43.7 0.468 8.47 19.08 13.53
12/23/2020 4:30:00 PM 6.51 43.718 0.468 8.45 18.92 13.35
12/23/2020 4:45:00 PM 6.52 43.736 0.469 8.43 19.36 13.18
12/23/2020 5:00:00 PM 6.54 43.772 0.47 8.41 19.29 12.99
12/23/2020 5:15:00 PM 6.55 43.79 0.473 8.39 19.18 12.82
12/23/2020 5:30:00 PM 6.56 43.808 0.474 8.37 18.68 12.66
12/23/2020 5:45:00 PM 6.56 43.808 0.474 8.35 18.87 12.53
12/23/2020 6:00:00 PM 6.55 43.79 0.475 8.33 18.67 12.41
12/23/2020 6:15:00 PM 6.54 43.772 0.475 8.32 18.67 12.29
12/23/2020 6:30:00 PM 6.52 43.736 0.475 8.3 18.66 12.21
12/23/2020 6:45:00 PM 6.49 43.682 0.476 8.29 18.94 12.13
12/23/2020 7:00:00 PM 6.47 43.646 0.476 8.27 18.79 12.07
12/23/2020 7:15:00 PM 6.44 43.592 0.476 8.26 19.21 12.02
12/23/2020 7:30:00 PM 6.4 43.52 0.476 8.25 19.12 11.99
12/23/2020 7:45:00 PM 6.36 43.448 0.476 8.24 19.52 11.96
12/23/2020 8:00:00 PM 6.32 43.376 0.476 8.24 19.04 11.94
12/23/2020 8:15:00 PM 6.27 43.286 0.476 8.23 19.48 11.92
12/23/2020 8:30:00 PM 6.23 43.214 0.476 8.22 19.37 11.92
12/23/2020 8:45:00 PM 6.18 43.124 0.476 8.22 19.3 11.92
12/23/2020 9:00:00 PM 6.14 43.052 0.476 8.22 19.18 11.93
12/23/2020 9:15:00 PM 6.09 42.962 0.476 8.21 19.3 11.94
12/23/2020 9:30:00 PM 6.04 42.872 0.476 8.21 19.38 11.97
12/23/2020 9:45:00 PM 5.99 42.782 0.476 8.2 19.25 11.99
12/23/2020 10:00:00 PM 5.94 42.692 0.476 8.2 19.45 11.99
12/23/2020 10:15:00 PM 5.9 42.62 0.476 8.2 19.36 12
12/23/2020 10:30:00 PM 5.86 42.548 0.477 8.19 19.4 12.01
12/23/2020 10:45:00 PM 5.82 42.476 0.477 8.19 19.61 12.02
12/23/2020 11:00:00 PM 5.79 42.422 0.477 8.19 19.35 12.02
12/23/2020 11:15:00 PM 5.75 42.35 0.477 8.18 19.78 12.04
12/23/2020 11:30:00 PM 5.73 42.314 0.478 8.18 20.03 12.05
12/23/2020 11:45:00 PM 5.69 42.242 0.478 8.18 19.57 12.05
12/24/2020 12:00:00 AM 5.66 42.188 0.478 8.18 19.74 12.04
12/24/2020 12:15:00 AM 5.63 42.134 0.479 8.17 19.65 12.05
12/24/2020 12:30:00 AM 5.6 42.08 0.479 8.17 19.84 12.06
12/24/2020 12:45:00 AM 5.59 42.062 0.479 8.17 19.9 12.07
12/24/2020 1:00:00 AM 5.58 42.044 0.479 8.17 20.35 12.07
12/24/2020 1:15:00 AM 5.59 42.062 0.479 8.17 19.96 12.08
12/24/2020 1:30:00 AM 5.59 42.062 0.479 8.17 20.24 12.07
12/24/2020 1:45:00 AM 5.6 42.08 0.48 8.17 20.05 12.07
12/24/2020 2:00:00 AM 5.62 42.116 0.48 8.17 20.17 12.07
12/24/2020 2:15:00 AM 5.64 42.152 0.48 8.17 20.2 12.06
12/24/2020 2:30:00 AM 5.66 42.188 0.48 8.16 20.14 12.07
12/24/2020 2:45:00 AM 5.68 42.224 0.479 8.16 20.39 12.06
12/24/2020 3:00:00 AM 5.7 42.26 0.48 8.16 19.67 12.04
12/24/2020 3:15:00 AM 5.72 42.296 0.48 8.16 19.93 12.04
12/24/2020 3:30:00 AM 5.73 42.314 0.48 8.16 19.92 12.03
12/24/2020 3:45:00 AM 5.75 42.35 0.479 8.16 20.18 12.03
12/24/2020 4:00:00 AM 5.76 42.368 0.479 8.16 20.28 12.03
12/24/2020 4:15:00 AM 5.78 42.404 0.48 8.16 18.95 12.03
12/24/2020 4:30:00 AM 5.8 42.44 0.48 8.16 20.37 12.02
12/24/2020 4:45:00 AM 5.81 42.458 0.48 8.16 20.91 12
12/24/2020 5:00:00 AM 5.83 42.494 0.48 8.16 20.82 12.01
12/24/2020 5:15:00 AM 5.85 42.53 0.48 8.16 19.95 12.01
12/24/2020 5:30:00 AM 5.86 42.548 0.48 8.17 20.3 12.01
12/24/2020 5:45:00 AM 5.88 42.584 0.481 8.16 20.61 12
12/24/2020 6:00:00 AM 5.89 42.602 0.481 8.16 20.73 11.99
12/24/2020 6:15:00 AM 5.91 42.638 0.481 8.17 20.32 11.98
12/24/2020 6:30:00 AM 5.94 42.692 0.481 8.17 20.46 11.98
12/24/2020 6:45:00 AM 5.96 42.728 0.482 8.16 20.44 11.96
12/24/2020 7:00:00 AM 5.99 42.782 0.482 8.17 20.3 11.95
12/24/2020 7:15:00 AM 6.02 42.836 0.482 8.17 21.01 11.94
12/24/2020 7:30:00 AM 6.06 42.908 0.482 8.16 18.23 11.91
12/24/2020 7:45:00 AM 6.09 42.962 0.482 8.17 18.38 11.91
12/24/2020 8:00:00 AM 6.12 43.016 0.482 8.17 17.71 11.9
12/24/2020 8:15:00 AM 6.16 43.088 0.482 8.17 18.1 11.9
12/24/2020 8:30:00 AM 6.2 43.16 0.482 8.17 17.89 11.91
12/24/2020 8:45:00 AM 6.25 43.25 0.482 8.18 18.35 11.93
12/24/2020 9:00:00 AM 6.3 43.34 0.482 8.18 18.29 11.96
12/24/2020 9:15:00 AM 6.35 43.43 0.482 8.18 18.1 11.98
12/24/2020 9:30:00 AM 6.4 43.52 0.482 8.19 17.55 12
12/24/2020 9:45:00 AM 6.45 43.61 0.482 8.19 17.86 11.99
12/24/2020 10:00:00 AM 6.5 43.7 0.481 8.19 17.82 12.04
12/24/2020 10:15:00 AM 6.56 43.808 0.481 8.2 17.84 12.07
12/24/2020 10:30:00 AM 6.63 43.934 0.48 8.21 18.11 12.13
12/24/2020 10:45:00 AM 6.71 44.078 0.48 8.22 17.54 12.2
12/24/2020 11:00:00 AM 6.78 44.204 0.48 8.23 18.24 12.27
12/24/2020 11:15:00 AM 6.85 44.33 0.479 8.23 18.2 12.31
12/24/2020 11:30:00 AM 6.91 44.438 0.479 8.24 18.15 12.31
12/24/2020 11:45:00 AM 6.98 44.564 0.478 8.24 18.22 12.33
12/24/2020 12:00:00 PM 7.04 44.672 0.477 8.25 18.05 12.39
12/24/2020 12:15:00 PM 7.1 44.78 0.476 8.26 18.56 12.37
12/24/2020 12:30:00 PM 7.17 44.906 0.475 8.26 18.1 12.38
12/24/2020 12:45:00 PM 7.24 45.032 0.473 8.26 18.56 12.34
12/24/2020 1:00:00 PM 7.29 45.122 0.471 8.26 19.38 12.31
12/24/2020 1:15:00 PM 7.35 45.23 0.469 8.25 19.44 12.24
12/24/2020 1:30:00 PM 7.39 45.302 0.466 8.25 20.1 12.18
12/24/2020 1:45:00 PM 7.44 45.392 0.463 8.24 19.96 12.08
12/24/2020 2:00:00 PM 7.48 45.464 0.458 8.23 21.41 12.02
12/24/2020 2:15:00 PM 7.51 45.518 0.451 8.21 25.02 11.93
12/24/2020 2:30:00 PM 7.53 45.554 0.445 8.19 31.17 11.84
12/24/2020 2:45:00 PM 7.56 45.608 0.437 8.17 38.78 11.73
12/24/2020 3:00:00 PM 7.6 45.68 0.43 8.14 45.02 11.68
12/24/2020 3:15:00 PM 7.62 45.716 0.422 8.12 57.47 11.61
12/24/2020 3:30:00 PM 7.64 45.752 0.414 8.1 62.27 11.53
12/24/2020 3:45:00 PM 7.68 45.824 0.406 8.08 72.42 11.48
12/24/2020 4:00:00 PM 7.68 45.824 0.397 8.06 101.59 11.42
12/24/2020 4:15:00 PM 7.68 45.824 0.388 8.04 100.82 11.45
12/24/2020 4:30:00 PM 7.68 45.824 0.377 8.02 126.98 11.41
12/24/2020 4:45:00 PM 7.66 45.788 0.361 8 121.45 11.33
12/24/2020 5:00:00 PM 7.62 45.716 0.343 7.97 151.21 11.25
12/24/2020 5:15:00 PM 7.6 45.68 0.328 7.95 184.79 11.18
12/24/2020 5:30:00 PM 7.6 45.68 0.319 7.93 192.01 11.15
12/24/2020 5:45:00 PM 7.63 45.734 0.314 7.9 195.84 11.09
12/24/2020 6:00:00 PM 7.66 45.788 0.307 7.88 206.25 11.04
12/24/2020 6:15:00 PM 7.66 45.788 0.296 7.87 218.7 11.03
12/24/2020 6:30:00 PM 7.67 45.806 0.287 7.85 189.15 11.02
12/24/2020 6:45:00 PM 7.69 45.842 0.274 7.84 197.37 11.04
12/24/2020 7:00:00 PM 7.67 45.806 0.264 7.83 190.64 11.03
12/24/2020 7:15:00 PM 7.64 45.752 0.254 7.83 210.13 11
12/24/2020 7:30:00 PM 7.62 45.716 0.245 7.81 215.72 10.99
12/24/2020 7:45:00 PM 7.64 45.752 0.238 7.79 217.16 10.96
12/24/2020 8:00:00 PM 7.68 45.824 0.233 7.79 222.88 10.95
12/24/2020 8:15:00 PM 7.8 46.04 0.227 7.77 240.78 10.91
12/24/2020 8:30:00 PM 7.94 46.292 0.219 7.76 225.72 10.83
12/24/2020 8:45:00 PM 8.06 46.508 0.213 7.76 226.96 10.77
12/24/2020 9:00:00 PM 8.14 46.652 0.21 7.73 246.19 10.71
12/24/2020 9:15:00 PM 8.18 46.724 0.21 7.73 234.23 10.66
12/24/2020 9:30:00 PM 8.22 46.796 0.209 7.72 254.98 10.65
12/24/2020 9:45:00 PM 8.29 46.922 0.207 7.72 250.54 10.67
12/24/2020 10:00:00 PM 8.35 47.03 0.202 7.71 217.26 10.68
12/24/2020 10:15:00 PM 8.43 47.174 0.199 7.72 195.6 10.69
12/24/2020 10:30:00 PM 8.51 47.318 0.197 7.7 199.2 10.66
12/24/2020 10:45:00 PM 8.59 47.462 0.196 7.68 178.01 10.63
12/24/2020 11:00:00 PM 8.65 47.57 0.195 7.68 170.1 10.59
12/24/2020 11:15:00 PM 8.74 47.732 0.194 7.67 193.58 10.56
12/24/2020 11:30:00 PM 8.85 47.93 0.195 7.66 165.18 10.53
12/24/2020 11:45:00 PM 8.96 48.128 0.196 7.65 163.69 10.5
12/25/2020 12:00:00 AM 9.07 48.326 0.195 7.67 151.33 10.46
12/25/2020 12:15:00 AM 9.16 48.488 0.196 7.65 151.49 10.41
12/25/2020 12:30:00 AM 9.24 48.632 0.198 7.66 152.51 10.38
12/25/2020 12:45:00 AM 9.3 48.74 0.201 7.65 134.42 10.35
12/25/2020 1:00:00 AM 9.44 48.992 0.197 7.65 157.51 10.38
12/25/2020 1:15:00 AM 9.47 49.046 0.195 7.66 126.24 10.38
12/25/2020 1:30:00 AM 9.52 49.136 0.191 7.67 156.81 10.38
12/25/2020 1:45:00 AM 9.56 49.208 0.191 7.68 128.72 10.38
12/25/2020 2:00:00 AM 9.55 49.19 0.187 7.71 133.55 10.39
12/25/2020 2:15:00 AM 9.65 49.37 0.19 7.69 138.32 10.37
12/25/2020 2:30:00 AM 9.96 49.928 0.177 7.7 217.79 10.26
12/25/2020 2:45:00 AM 10.27 50.486 0.164 7.7 293.68 10.09
12/25/2020 3:00:00 AM 10.35 50.63 0.165 7.68 281.41 9.98
12/25/2020 3:15:00 AM 10.33 50.594 0.164 7.69 292.93 9.9
12/25/2020 3:30:00 AM 10.31 50.558 0.163 7.68 290.66 9.88
12/25/2020 3:45:00 AM 10.3 50.54 0.157 7.67 288.74 9.89
12/25/2020 4:00:00 AM 10.32 50.576 0.153 7.65 281.01 9.87
12/25/2020 4:15:00 AM 10.32 50.576 0.152 7.62 275.16 9.84
12/25/2020 4:30:00 AM 10.31 50.558 0.152 7.6 257.38 9.84
12/25/2020 4:45:00 AM 10.29 50.522 0.153 7.59 262.24 9.81
12/25/2020 5:00:00 AM 10.22 50.396 0.154 7.58 202.1 9.82
12/25/2020 5:15:00 AM 10.14 50.252 0.157 7.56 203.28 9.86
12/25/2020 5:30:00 AM 10.03 50.054 0.161 7.55 211.73 9.86
12/25/2020 5:45:00 AM 9.91 49.838 0.165 7.53 168.36 9.92
12/25/2020 6:00:00 AM 9.78 49.604 0.171 7.56 153.58 9.97
12/25/2020 6:15:00 AM 9.65 49.37 0.176 7.55 173.49 10.02
12/25/2020 6:30:00 AM 9.51 49.118 0.181 7.54 118.01 10.03
12/25/2020 6:45:00 AM 9.39 48.902 0.187 7.55 117.8 10.07
12/25/2020 7:00:00 AM 9.27 48.686 0.194 7.55 120.83 10.15
12/25/2020 7:15:00 AM 9.15 48.47 0.201 7.55 105.85 10.22
12/25/2020 7:30:00 AM 9.04 48.272 0.207 7.54 99.84 10.27
12/25/2020 7:45:00 AM 8.93 48.074 0.214 7.55 94.87 10.33
12/25/2020 8:00:00 AM 8.81 47.858 0.219 7.57 89.87 10.38
12/25/2020 8:15:00 AM 8.68 47.624 0.225 7.55 88.65 10.45
12/25/2020 8:30:00 AM 8.57 47.426 0.23 7.56 83.68 10.52
12/25/2020 8:45:00 AM 8.46 47.228 0.235 7.56 77.36 10.58
12/25/2020 9:00:00 AM 8.37 47.066 0.241 7.57 74.46 10.63
12/25/2020 9:15:00 AM 8.27 46.886 0.246 7.57 73.17 10.67
12/25/2020 9:30:00 AM 8.19 46.742 0.251 7.58 71.88 10.7
12/25/2020 9:45:00 AM 8.11 46.598 0.255 7.58 114.12 10.75
12/25/2020 10:00:00 AM 8.04 46.472 0.261 7.58 77.8 10.79
12/25/2020 10:15:00 AM 7.98 46.364 0.264 7.58 70.91 10.83
12/25/2020 10:30:00 AM 7.92 46.256 0.269 7.59 91.66 10.88
12/25/2020 10:45:00 AM 7.88 46.184 0.274 7.6 75.85 10.92
12/25/2020 11:00:00 AM 7.84 46.112 0.277 7.6 72.64 10.97
12/25/2020 11:15:00 AM 7.8 46.04 0.283 7.61 66.31 11
12/25/2020 11:30:00 AM 7.77 45.986 0.286 7.61 55.14 11
12/25/2020 11:45:00 AM 7.73 45.914 0.29 7.62 53.18 11.06
12/25/2020 12:00:00 PM 7.69 45.842 0.294 7.64 121.4 11.06
12/25/2020 12:15:00 PM 7.67 45.806 0.297 7.63 89.84 11.09
12/25/2020 12:30:00 PM 7.65 45.77 0.301 7.63 43.38 11.1
12/25/2020 12:45:00 PM 7.63 45.734 0.304 7.63 46.69 11.12
12/25/2020 1:00:00 PM 7.61 45.698 0.307 7.64 39.24 11.18
12/25/2020 1:15:00 PM 7.59 45.662 0.31 7.65 42.1 11.2
12/25/2020 1:30:00 PM 7.56 45.608 0.314 7.65 40.61 11.21
12/25/2020 1:45:00 PM 7.56 45.608 0.317 7.65 39.56 11.23
12/25/2020 2:00:00 PM 7.53 45.554 0.32 7.66 39.68 11.25
12/25/2020 2:15:00 PM 7.5 45.5 0.323 7.66 38.33 11.27
12/25/2020 2:30:00 PM 7.48 45.464 0.325 7.67 38.31 11.3
12/25/2020 2:45:00 PM 7.48 45.464 0.327 7.67 34.46 11.31
12/25/2020 3:00:00 PM 7.47 45.446 0.329 7.68 35.74 11.34
12/25/2020 3:15:00 PM 7.44 45.392 0.331 7.68 38.34 11.35
12/25/2020 3:30:00 PM 7.4 45.32 0.333 7.69 35.65 11.36
12/25/2020 3:45:00 PM 7.37 45.266 0.335 7.69 47.63 11.39
12/25/2020 4:00:00 PM 7.34 45.212 0.337 7.69 35.65 11.4
12/25/2020 4:15:00 PM 7.31 45.158 0.339 7.7 36.33 11.42
12/25/2020 4:30:00 PM 7.28 45.104 0.341 7.7 34.18 11.43
12/25/2020 4:45:00 PM 7.26 45.068 0.343 7.71 33.68 11.42
12/25/2020 5:00:00 PM 7.23 45.014 0.344 7.71 32.27 11.44
12/25/2020 5:15:00 PM 7.2 44.96 0.346 7.71 42.69 11.44
12/25/2020 5:30:00 PM 7.17 44.906 0.347 7.71 31.84 11.45
12/25/2020 5:45:00 PM 7.14 44.852 0.349 7.72 33.09 11.46
12/25/2020 6:00:00 PM 7.1 44.78 0.35 7.72 99.26 11.43
12/25/2020 6:15:00 PM 7.05 44.69 0.351 7.72 33.34 11.41
12/25/2020 6:30:00 PM 7.01 44.618 0.353 7.73 33.16 11.43
12/25/2020 6:45:00 PM 6.95 44.51 0.354 7.73 30.27 11.44
12/25/2020 7:00:00 PM 6.91 44.438 0.355 7.73 32.64 11.46
12/25/2020 7:15:00 PM 6.85 44.33 0.357 7.73 30.78 11.42
12/25/2020 7:30:00 PM 6.79 44.222 0.358 7.74 30.99 11.5
12/25/2020 7:45:00 PM 6.73 44.114 0.359 7.74 32.35 11.5
12/25/2020 8:00:00 PM 6.67 44.006 0.36 7.74 31.92 11.5
12/25/2020 8:15:00 PM 6.61 43.898 0.361 7.74 33.53 11.52
12/25/2020 8:30:00 PM 6.56 43.808 0.362 7.74 31.42 11.55
12/25/2020 8:45:00 PM 6.5 43.7 0.363 7.75 31.92 11.58
12/25/2020 9:00:00 PM 6.44 43.592 0.364 7.75 31.75 11.59
12/25/2020 9:15:00 PM 6.38 43.484 0.365 7.75 31.45 11.61
12/25/2020 9:30:00 PM 6.34 43.412 0.366 7.75 36.65 11.62
12/25/2020 9:45:00 PM 6.3 43.34 0.368 7.76 33.78 11.64
12/25/2020 10:00:00 PM 6.24 43.232 0.368 7.76 33.48 11.66
12/25/2020 10:15:00 PM 6.21 43.178 0.369 7.77 30.55 11.69
12/25/2020 10:30:00 PM 6.17 43.106 0.37 7.77 102.69 11.71
12/25/2020 10:45:00 PM 6.13 43.034 0.371 7.77 133.11 11.72
12/25/2020 11:00:00 PM 6.09 42.962 0.372 7.78 106.07 11.74
12/25/2020 11:15:00 PM 6.05 42.89 0.373 7.78 37.35 11.76
12/25/2020 11:30:00 PM 6.02 42.836 0.374 7.78 41.43 11.78
12/25/2020 11:45:00 PM 5.98 42.764 0.374 7.78 42.28 11.78
12/26/2020 12:00:00 AM 5.95 42.71 0.376 7.78 40.74 11.81
12/26/2020 12:15:00 AM 5.92 42.656 0.377 7.79 40.65 11.8
12/26/2020 12:30:00 AM 5.87 42.566 0.378 7.79 32.08 11.8
12/26/2020 12:45:00 AM 5.83 42.494 0.379 7.79 29.64 11.83
12/26/2020 1:00:00 AM 5.79 42.422 0.379 7.79 31.15 11.85
12/26/2020 1:15:00 AM 5.76 42.368 0.38 7.79 29.92 11.85
12/26/2020 1:30:00 AM 5.73 42.314 0.381 7.79 29.19 11.86
12/26/2020 1:45:00 AM 5.7 42.26 0.382 7.8 31.66 11.86
12/26/2020 2:00:00 AM 5.67 42.206 0.382 7.8 31.02 11.83
12/26/2020 2:15:00 AM 5.64 42.152 0.383 7.8 32.69 11.81
12/26/2020 2:30:00 AM 5.61 42.098 0.384 7.8 33.67 11.9
12/26/2020 2:45:00 AM 5.58 42.044 0.385 7.8 32.48 11.96
12/26/2020 3:00:00 AM 5.55 41.99 0.385 7.8 30.97 11.97
12/26/2020 3:15:00 AM 5.51 41.918 0.386 7.81 30.59 12
12/26/2020 3:30:00 AM 5.48 41.864 0.387 7.81 30.51 12.01
12/26/2020 3:45:00 AM 5.45 41.81 0.388 7.81 27.58 12.05
12/26/2020 4:00:00 AM 5.42 41.756 0.389 7.81 28.69 12.06
12/26/2020 4:15:00 AM 5.4 41.72 0.389 7.82 28.59 11.99
12/26/2020 4:30:00 AM 5.37 41.666 0.39 7.82 28.92 12.01
12/26/2020 4:45:00 AM 5.36 41.648 0.39 7.82 36.34 12.03
12/26/2020 5:00:00 AM 5.35 41.63 0.39 7.82 36.7 12.08
12/26/2020 5:15:00 AM 5.34 41.612 0.391 7.82 36.77 12.09
12/26/2020 5:30:00 AM 5.33 41.594 0.392 7.82 128.09 12.1
12/26/2020 5:45:00 AM 5.33 41.594 0.393 7.83 57.84 12.1
12/26/2020 6:00:00 AM 5.33 41.594 0.393 7.83 28.53 12.11
12/26/2020 6:15:00 AM 5.32 41.576 0.394 7.83 27.98 12.12
12/26/2020 6:30:00 AM 5.3 41.54 0.395 7.83 28.27 12.13
12/26/2020 6:45:00 AM 5.29 41.522 0.395 7.84 31.9 12.11
12/26/2020 7:00:00 AM 5.27 41.486 0.396 7.84 29.28 12.05
12/26/2020 7:15:00 AM 5.25 41.45 0.396 7.83 28.92 12.08
12/26/2020 7:30:00 AM 5.24 41.432 0.397 7.83 30.14 12.08
12/26/2020 7:45:00 AM 5.24 41.432 0.398 7.84 29.6 12.11
12/26/2020 8:00:00 AM 5.25 41.45 0.398 7.84 48.85 12.1
12/26/2020 8:15:00 AM 5.26 41.468 0.398 7.84 44.96 12.12
12/26/2020 8:30:00 AM 5.27 41.486 0.399 7.84 45.04 12.13
12/26/2020 8:45:00 AM 5.29 41.522 0.399 7.84 46.31 12.12
12/26/2020 9:00:00 AM 5.29 41.522 0.4 7.85 45.41 12.16
12/26/2020 9:15:00 AM 5.3 41.54 0.4 7.85 43.15 12.19
12/26/2020 9:30:00 AM 5.31 41.558 0.4 7.85 31.5 12.23
12/26/2020 9:45:00 AM 5.32 41.576 0.401 7.86 29.84 12.25
12/26/2020 10:00:00 AM 5.32 41.576 0.401 7.86 29.95 12.26
12/26/2020 10:15:00 AM 5.33 41.594 0.402 7.86 31.22 12.28
12/26/2020 10:30:00 AM 5.39 41.702 0.402 7.87 30.91 12.3
12/26/2020 10:45:00 AM 5.46 41.828 0.402 7.87 30.55 12.31
12/26/2020 11:00:00 AM 5.55 41.99 0.402 7.87 30.78 12.3
12/26/2020 11:15:00 AM 5.63 42.134 0.403 7.88 30.97 12.31
12/26/2020 11:30:00 AM 5.68 42.224 0.403 7.88 31.01 12.3
12/26/2020 11:45:00 AM 5.76 42.368 0.403 7.89 31.51 12.34
12/26/2020 12:00:00 PM 5.85 42.53 0.404 7.89 31.67 12.35
12/26/2020 12:15:00 PM 5.93 42.674 0.404 7.9 32.49 12.36
12/26/2020 12:30:00 PM 5.98 42.764 0.403 7.9 32.22 12.36
12/26/2020 12:45:00 PM 6.07 42.926 0.404 7.9 31.32 12.35
12/26/2020 1:00:00 PM 6.16 43.088 0.406 7.91 26.07 12.28
12/26/2020 1:15:00 PM 6.24 43.232 0.406 7.91 26.03 12.26
12/26/2020 1:30:00 PM 6.31 43.358 0.406 7.92 30.96 12.24
12/26/2020 1:45:00 PM 6.33 43.394 0.407 7.92 26.97 12.32
12/26/2020 2:00:00 PM 6.35 43.43 0.407 7.92 25.97 12.3
12/26/2020 2:15:00 PM 6.38 43.484 0.407 7.92 86.5 12.29
12/26/2020 2:30:00 PM 6.39 43.502 0.408 7.92 95.72 12.26
12/26/2020 2:45:00 PM 6.41 43.538 0.408 7.92 89.97 12.25
12/26/2020 3:00:00 PM 6.4 43.52 0.408 7.93 105.86 12.22
12/26/2020 3:15:00 PM 6.4 43.52 0.409 7.93 115.08 12.22
12/26/2020 3:30:00 PM 6.4 43.52 0.409 7.93 118.06 12.17
12/26/2020 3:45:00 PM 6.39 43.502 0.409 7.92 84.07 12.15
12/26/2020 4:00:00 PM 6.39 43.502 0.41 7.92 91.58 12.1
12/26/2020 4:15:00 PM 6.37 43.466 0.41 7.92 94.05 12
12/26/2020 4:30:00 PM 6.34 43.412 0.41 7.92 109.08 12
12/26/2020 4:45:00 PM 6.32 43.376 0.41 7.92 114.73 12.04
12/26/2020 5:00:00 PM 6.29 43.322 0.411 7.92 82.55 11.89
12/26/2020 5:15:00 PM 6.25 43.25 0.411 7.91 147.23 11.99
12/26/2020 5:30:00 PM 6.24 43.232 0.411 7.91 187.73 11.96
12/26/2020 5:45:00 PM 6.21 43.178 0.411 7.92 51.63 12.01
12/26/2020 6:00:00 PM 6.17 43.106 0.412 7.91 106.34 12.05
12/26/2020 6:15:00 PM 6.13 43.034 0.412 7.92 28.55 12.06
12/26/2020 6:30:00 PM 6.07 42.926 0.412 7.92 25.37 12.06
12/26/2020 6:45:00 PM 6.02 42.836 0.412 7.91 25.48 12.08
12/26/2020 7:00:00 PM 5.97 42.746 0.413 7.91 27.62 12.08
12/26/2020 7:15:00 PM 5.92 42.656 0.413 7.92 31.21 12.09
12/26/2020 7:30:00 PM 5.87 42.566 0.413 7.92 27.35 12.09
12/26/2020 7:45:00 PM 5.83 42.494 0.414 7.92 31.17 12.09
12/26/2020 8:00:00 PM 5.78 42.404 0.414 7.91 31.09 12.11
12/26/2020 8:15:00 PM 5.73 42.314 0.414 7.91 32.08 12.11
12/26/2020 8:30:00 PM 5.69 42.242 0.414 7.91 33.65 12.11
12/26/2020 8:45:00 PM 5.65 42.17 0.415 7.91 33.63 12.11
12/26/2020 9:00:00 PM 5.6 42.08 0.415 7.91 34.54 12.14
12/26/2020 9:15:00 PM 5.55 41.99 0.415 7.92 32.99 12.15
12/26/2020 9:30:00 PM 5.5 41.9 0.416 7.92 30.53 12.18
12/26/2020 9:45:00 PM 5.45 41.81 0.414 7.92 30.83 12.19
12/26/2020 10:00:00 PM 5.4 41.72 0.415 7.92 33.75 12.22
12/26/2020 10:15:00 PM 5.36 41.648 0.415 7.92 31.83 12.24
12/26/2020 10:30:00 PM 5.34 41.612 0.416 7.92 27.37 12.24
12/26/2020 10:45:00 PM 5.31 41.558 0.416 7.92 30.29 12.25
12/26/2020 11:00:00 PM 5.3 41.54 0.417 7.92 29.71 12.26
12/26/2020 11:15:00 PM 5.29 41.522 0.417 7.92 28.15 12.27
12/26/2020 11:30:00 PM 5.28 41.504 0.417 7.93 30.43 12.27
12/26/2020 11:45:00 PM 5.28 41.504 0.418 7.93 31.4 12.26
12/27/2020 12:00:00 AM 5.29 41.522 0.418 7.92 28.54 12.27
12/27/2020 12:15:00 AM 5.3 41.54 0.418 7.93 28.32 12.28
12/27/2020 12:30:00 AM 5.3 41.54 0.418 7.93 28.67 12.27
12/27/2020 12:45:00 AM 5.3 41.54 0.419 7.93 29.47 12.29
12/27/2020 1:00:00 AM 5.3 41.54 0.419 7.93 31.12 12.3
12/27/2020 1:15:00 AM 5.29 41.522 0.42 7.93 30.36 12.29
12/27/2020 1:30:00 AM 5.28 41.504 0.408 7.93 29.65 12.3
12/27/2020 1:45:00 AM 5.26 41.468 0.379 7.91 27.47 12.3
12/27/2020 2:00:00 AM 5.25 41.45 0.373 7.93 28.04 12.32
12/27/2020 2:15:00 AM 5.24 41.432 0.372 7.93 27.53 12.32
12/27/2020 2:30:00 AM 5.23 41.414 0.38 7.94 27.76 12.32
12/27/2020 2:45:00 AM 5.22 41.396 0.376 7.94 27.86 12.32
12/27/2020 3:00:00 AM 5.22 41.396 0.413 7.94 29.62 12.33
12/27/2020 3:15:00 AM 5.21 41.378 0.4 7.94 30.77 12.33
12/27/2020 3:30:00 AM 5.21 41.378 0.398 7.94 26.01 12.33
12/27/2020 3:45:00 AM 5.2 41.36 0.398 7.94 28.47 12.34
12/27/2020 4:00:00 AM 5.2 41.36 0.398 7.94 25.9 12.33
12/27/2020 4:15:00 AM 5.2 41.36 0.387 7.94 27.57 12.34
12/27/2020 4:30:00 AM 5.2 41.36 0.373 7.94 29.19 12.35
12/27/2020 4:45:00 AM 5.2 41.36 0.374 7.94 31.58 12.35
12/27/2020 5:00:00 AM 5.2 41.36 0.425 7.92 30.25 12.34
12/27/2020 5:15:00 AM 5.21 41.378 0.425 7.94 27.36 12.35
12/27/2020 5:30:00 AM 5.23 41.414 0.426 7.95 28.04 12.36
12/27/2020 5:45:00 AM 5.24 41.432 0.426 7.95 28.39 12.36
12/27/2020 6:00:00 AM 5.25 41.45 0.426 7.95 27.38 12.35
12/27/2020 6:15:00 AM 5.26 41.468 0.426 7.95 27.69 12.36
12/27/2020 6:30:00 AM 5.27 41.486 0.427 7.95 27.65 12.35
12/27/2020 6:45:00 AM 5.27 41.486 0.427 7.95 29.31 12.35
12/27/2020 7:00:00 AM 5.27 41.486 0.427 7.95 27.38 12.36
12/27/2020 7:15:00 AM 5.27 41.486 0.428 7.96 26.18 12.35
12/27/2020 7:30:00 AM 5.26 41.468 0.428 7.96 163.37 12.34
12/27/2020 7:45:00 AM 5.25 41.45 0.428 7.96 31.24 12.35
12/27/2020 8:00:00 AM 5.24 41.432 0.429 7.96 30.37 12.36
12/27/2020 8:15:00 AM 5.24 41.432 0.429 7.96 32.02 12.36
12/27/2020 8:30:00 AM 5.25 41.45 0.429 7.96 30.35 12.38
12/27/2020 8:45:00 AM 5.27 41.486 0.429 7.96 29.89 12.38
12/27/2020 9:00:00 AM 5.29 41.522 0.43 7.97 30.31 12.39
12/27/2020 9:15:00 AM 5.32 41.576 0.43 7.97 29.96 12.42
12/27/2020 9:30:00 AM 5.35 41.63 0.43 7.97 29.44 12.44
12/27/2020 9:45:00 AM 5.4 41.72 0.43 7.97 29.5 12.46
12/27/2020 10:00:00 AM 5.45 41.81 0.431 7.98 30.12 12.47
12/27/2020 10:15:00 AM 5.5 41.9 0.431 7.98 29.34 12.48
12/27/2020 10:30:00 AM 5.56 42.008 0.431 7.98 29.92 12.5
12/27/2020 10:45:00 AM 5.64 42.152 0.431 7.98 30.67 12.48
12/27/2020 11:00:00 AM 5.72 42.296 0.431 7.99 31.4 12.51
12/27/2020 11:15:00 AM 5.79 42.422 0.431 7.99 31.53 12.53
12/27/2020 11:30:00 AM 5.88 42.584 0.432 8 30.22 12.53
12/27/2020 11:45:00 AM 5.98 42.764 0.431 8 29.63 12.53
12/27/2020 12:00:00 PM 6.1 42.98 0.432 8 31.33 12.52
12/27/2020 12:15:00 PM 6.22 43.196 0.432 8.01 30.53 12.49
12/27/2020 12:30:00 PM 6.37 43.466 0.432 8.01 30.05 12.48
12/27/2020 12:45:00 PM 6.5 43.7 0.432 8.01 30.6 12.48
12/27/2020 1:00:00 PM 6.62 43.916 0.432 8.02 30.49 12.46
12/27/2020 1:15:00 PM 6.75 44.15 0.432 8.02 31.26 12.42
12/27/2020 1:30:00 PM 6.88 44.384 0.432 8.02 31.86 12.37
12/27/2020 1:45:00 PM 6.97 44.546 0.432 8.02 31.19 12.35
12/27/2020 2:00:00 PM 7.05 44.69 0.432 8.03 31.37 12.33
12/27/2020 2:15:00 PM 7.11 44.798 0.432 8.03 31.41 12.3
12/27/2020 2:30:00 PM 7.17 44.906 0.432 8.03 32.45 12.28
12/27/2020 2:45:00 PM 7.23 45.014 0.432 8.03 31.32 12.24
12/27/2020 3:00:00 PM 7.29 45.122 0.432 8.04 32.14 12.23
12/27/2020 3:15:00 PM 7.31 45.158 0.432 8.04 32.34 12.19
12/27/2020 3:30:00 PM 7.33 45.194 0.432 8.04 32.43 12.14
12/27/2020 3:45:00 PM 7.33 45.194 0.432 8.03 33.26 12.11
12/27/2020 4:00:00 PM 7.33 45.194 0.432 8.03 32.95 12.07
12/27/2020 4:15:00 PM 7.32 45.176 0.432 8.03 32.95 12.04
12/27/2020 4:30:00 PM 7.3 45.14 0.432 8.03 33.36 12.02
12/27/2020 4:45:00 PM 7.28 45.104 0.432 8.02 33.3 11.99
12/27/2020 5:00:00 PM 7.25 45.05 0.432 8.02 33.38 11.96
12/27/2020 5:15:00 PM 7.21 44.978 0.433 8.02 33.89 11.92
12/27/2020 5:30:00 PM 7.17 44.906 0.433 8.02 38.62 11.93
12/27/2020 5:45:00 PM 7.12 44.816 0.433 8.02 56.64 11.92
12/27/2020 6:00:00 PM 7.07 44.726 0.433 8.01 45.22 11.9
12/27/2020 6:15:00 PM 7.02 44.636 0.433 8.01 45.75 11.91
12/27/2020 6:30:00 PM 6.96 44.528 0.434 8.01 32.91 11.91
12/27/2020 6:45:00 PM 6.9 44.42 0.434 8.01 33.56 11.91
12/27/2020 7:00:00 PM 6.83 44.294 0.434 8.01 33.83 11.92
12/27/2020 7:15:00 PM 6.75 44.15 0.434 8.01 32.37 11.94
12/27/2020 7:30:00 PM 6.68 44.024 0.434 8.01 33.77 11.96
12/27/2020 7:45:00 PM 6.61 43.898 0.434 8 33.92 11.98
12/27/2020 8:00:00 PM 6.54 43.772 0.435 8 33.81 11.99
12/27/2020 8:15:00 PM 6.48 43.664 0.435 8 34.81 12
12/27/2020 8:30:00 PM 6.43 43.574 0.435 8 35.69 12
12/27/2020 8:45:00 PM 6.38 43.484 0.435 8 35.89 12
12/27/2020 9:00:00 PM 6.34 43.412 0.435 8 36.39 12.01
12/27/2020 9:15:00 PM 6.29 43.322 0.436 8 38.76 12
12/27/2020 9:30:00 PM 6.24 43.232 0.436 8 38.4 12.01
12/27/2020 9:45:00 PM 6.2 43.16 0.436 8 36.82 12.03
12/27/2020 10:00:00 PM 6.16 43.088 0.436 8 37.92 12.04
12/27/2020 10:15:00 PM 6.13 43.034 0.436 8 37.84 12.06
12/27/2020 10:30:00 PM 6.11 42.998 0.437 8 37.05 12.05
12/27/2020 10:45:00 PM 6.09 42.962 0.437 7.99 30.13 12.1
12/27/2020 11:00:00 PM 6.07 42.926 0.437 8 30.61 12.12
12/27/2020 11:15:00 PM 6.06 42.908 0.437 8 30.16 12.13
12/27/2020 11:30:00 PM 6.05 42.89 0.438 8 30.2 12.12
12/27/2020 11:45:00 PM 6.04 42.872 0.438 8 30.88 12.12
12/28/2020 12:00:00 AM 6.04 42.872 0.439 8 31.25 12.13
12/28/2020 12:15:00 AM 6.03 42.854 0.439 8 31.38 12.14
12/28/2020 12:30:00 AM 6.02 42.836 0.439 8 30.93 12.14
12/28/2020 12:45:00 AM 6.02 42.836 0.439 8 31.39 12.14
12/28/2020 1:00:00 AM 6.02 42.836 0.439 8 31.84 12.12
12/28/2020 1:15:00 AM 6.02 42.836 0.44 8 39.45 12.12
12/28/2020 1:30:00 AM 6.02 42.836 0.44 8 34.63 12.14
12/28/2020 1:45:00 AM 6.02 42.836 0.44 8.01 34.94 12.12
12/28/2020 2:00:00 AM 6.02 42.836 0.44 8.01 64.59 12.13
12/28/2020 2:15:00 AM 6.02 42.836 0.44 8.01 32.22 12.14
12/28/2020 2:30:00 AM 6.02 42.836 0.44 8.01 32.87 12.14
12/28/2020 2:45:00 AM 6.02 42.836 0.441 8.01 33.23 12.13
12/28/2020 3:00:00 AM 6.03 42.854 0.441 8.01 32.83 12.14
12/28/2020 3:15:00 AM 6.03 42.854 0.441 8.01 32.08 12.14
12/28/2020 3:30:00 AM 6.03 42.854 0.441 8.01 32.86 12.14
12/28/2020 3:45:00 AM 6.03 42.854 0.441 8.01 32.55 12.14
12/28/2020 4:00:00 AM 6.03 42.854 0.442 8.01 32.62 12.14
12/28/2020 4:15:00 AM 6.03 42.854 0.442 8.01 33.46 12.14
12/28/2020 4:30:00 AM 6.04 42.872 0.442 8.01 33.87 12.13
12/28/2020 4:45:00 AM 6.04 42.872 0.442 8.01 37.87 12.13
12/28/2020 5:00:00 AM 6.04 42.872 0.443 8.01 37.49 12.13
12/28/2020 5:15:00 AM 6.05 42.89 0.442 8.01 32.89 12.13
12/28/2020 5:30:00 AM 6.06 42.908 0.442 8.01 34.09 12.13
12/28/2020 5:45:00 AM 6.07 42.926 0.442 8.01 34.51 12.12
12/28/2020 6:00:00 AM 6.08 42.944 0.442 8.01 33.78 12.12
12/28/2020 6:15:00 AM 6.09 42.962 0.442 8.01 33.66 12.11
12/28/2020 6:30:00 AM 6.1 42.98 0.443 8.01 34.32 12.11
12/28/2020 6:45:00 AM 6.12 43.016 0.443 8.02 37.28 12.1
12/28/2020 7:00:00 AM 6.13 43.034 0.442 8.02 33.95 12.1
12/28/2020 7:15:00 AM 6.15 43.07 0.443 8.01 33.05 12.1
12/28/2020 7:30:00 AM 6.17 43.106 0.443 8.02 34.75 12.09
12/28/2020 7:45:00 AM 6.19 43.142 0.443 8.01 34.72 12.08
12/28/2020 8:00:00 AM 6.22 43.196 0.443